<?xml version="1.0" encoding="UTF-8" standalone="no" ?>
<gpx xmlns="http://www.topografix.com/GPX/1/1" xmlns:xsi="http://www.w3.org/2001/XMLSchema-instance" xsi:schemaLocation="http://www.topografix.com/GPX/1/1 http://www.topografix.com/GPX/1/1/gpx.xsd" version="1.1" creator="VisuGPX - https://www.visugpx.com">
  <metadata>
    <name>Tête des Chaudières</name>
  </metadata>
  <trk>
    <name><![CDATA[2021-03-28 15:39:19-Course TT]]></name>
    <extensions>
      <line xmlns="http://www.topografix.com/GPX/gpx_style/0/2">
        <color>0000FF</color>
        <width>4</width>
      </line>
    </extensions>
    <trkseg>
      <trkpt lat="45.01761" lon="5.53039">
        <ele>1226.3</ele>
        <time>2021-03-28T09:17:20Z</time>
      </trkpt>
      <trkpt lat="45.01761" lon="5.5304">
        <ele>1226.3</ele>
        <time>2021-03-28T09:17:21Z</time>
      </trkpt>
      <trkpt lat="45.0176" lon="5.53041">
        <ele>1226.3</ele>
        <time>2021-03-28T09:17:22Z</time>
      </trkpt>
      <trkpt lat="45.01755" lon="5.53041">
        <ele>1226.3</ele>
        <time>2021-03-28T09:17:27Z</time>
      </trkpt>
      <trkpt lat="45.01754" lon="5.53042">
        <ele>1226.78</ele>
        <time>2021-03-28T09:17:28Z</time>
      </trkpt>
      <trkpt lat="45.01738" lon="5.53049">
        <ele>1229.66</ele>
        <time>2021-03-28T09:17:47Z</time>
      </trkpt>
      <trkpt lat="45.01723" lon="5.53055">
        <ele>1233.03</ele>
        <time>2021-03-28T09:18:04Z</time>
      </trkpt>
      <trkpt lat="45.01711" lon="5.5306">
        <ele>1235.91</ele>
        <time>2021-03-28T09:18:19Z</time>
      </trkpt>
      <trkpt lat="45.0171" lon="5.5306">
        <ele>1235.91</ele>
        <time>2021-03-28T09:18:20Z</time>
      </trkpt>
      <trkpt lat="45.01706" lon="5.53061">
        <ele>1237.35</ele>
        <time>2021-03-28T09:18:26Z</time>
      </trkpt>
      <trkpt lat="45.01694" lon="5.53064">
        <ele>1240.24</ele>
        <time>2021-03-28T09:18:40Z</time>
      </trkpt>
      <trkpt lat="45.01692" lon="5.53066">
        <ele>1241.2</ele>
        <time>2021-03-28T09:18:42Z</time>
      </trkpt>
      <trkpt lat="45.01691" lon="5.53066">
        <ele>1241.2</ele>
        <time>2021-03-28T09:18:43Z</time>
      </trkpt>
      <trkpt lat="45.01681" lon="5.53071">
        <ele>1243.6</ele>
        <time>2021-03-28T09:18:55Z</time>
      </trkpt>
      <trkpt lat="45.01679" lon="5.53072">
        <ele>1244.56</ele>
        <time>2021-03-28T09:18:58Z</time>
      </trkpt>
      <trkpt lat="45.01677" lon="5.53072">
        <ele>1245.04</ele>
        <time>2021-03-28T09:19:00Z</time>
      </trkpt>
      <trkpt lat="45.01677" lon="5.53073">
        <ele>1245.04</ele>
        <time>2021-03-28T09:19:01Z</time>
      </trkpt>
      <trkpt lat="45.01667" lon="5.53079">
        <ele>1248.41</ele>
        <time>2021-03-28T09:19:15Z</time>
      </trkpt>
      <trkpt lat="45.01654" lon="5.53084">
        <ele>1251.29</ele>
        <time>2021-03-28T09:19:30Z</time>
      </trkpt>
      <trkpt lat="45.01645" lon="5.53091">
        <ele>1254.18</ele>
        <time>2021-03-28T09:19:43Z</time>
      </trkpt>
      <trkpt lat="45.01634" lon="5.53096">
        <ele>1258.02</ele>
        <time>2021-03-28T09:19:58Z</time>
      </trkpt>
      <trkpt lat="45.01629" lon="5.53099">
        <ele>1258.98</ele>
        <time>2021-03-28T09:20:05Z</time>
      </trkpt>
      <trkpt lat="45.01617" lon="5.53107">
        <ele>1262.35</ele>
        <time>2021-03-28T09:20:21Z</time>
      </trkpt>
      <trkpt lat="45.01608" lon="5.5311">
        <ele>1265.23</ele>
        <time>2021-03-28T09:20:33Z</time>
      </trkpt>
      <trkpt lat="45.01597" lon="5.53116">
        <ele>1268.6</ele>
        <time>2021-03-28T09:20:48Z</time>
      </trkpt>
      <trkpt lat="45.01586" lon="5.53123">
        <ele>1271.96</ele>
        <time>2021-03-28T09:21:04Z</time>
      </trkpt>
      <trkpt lat="45.01576" lon="5.5313">
        <ele>1274.85</ele>
        <time>2021-03-28T09:21:17Z</time>
      </trkpt>
      <trkpt lat="45.01566" lon="5.53135">
        <ele>1278.21</ele>
        <time>2021-03-28T09:21:30Z</time>
      </trkpt>
      <trkpt lat="45.01555" lon="5.5314">
        <ele>1281.57</ele>
        <time>2021-03-28T09:21:43Z</time>
      </trkpt>
      <trkpt lat="45.01552" lon="5.53141">
        <ele>1282.06</ele>
        <time>2021-03-28T09:21:46Z</time>
      </trkpt>
      <trkpt lat="45.01551" lon="5.53142">
        <ele>1282.54</ele>
        <time>2021-03-28T09:21:47Z</time>
      </trkpt>
      <trkpt lat="45.01542" lon="5.53148">
        <ele>1285.9</ele>
        <time>2021-03-28T09:22:00Z</time>
      </trkpt>
      <trkpt lat="45.01541" lon="5.53151">
        <ele>1286.38</ele>
        <time>2021-03-28T09:22:01Z</time>
      </trkpt>
      <trkpt lat="45.01539" lon="5.53153">
        <ele>1286.38</ele>
        <time>2021-03-28T09:22:02Z</time>
      </trkpt>
      <trkpt lat="45.01537" lon="5.53154">
        <ele>1286.86</ele>
        <time>2021-03-28T09:22:05Z</time>
      </trkpt>
      <trkpt lat="45.01528" lon="5.53155">
        <ele>1290.23</ele>
        <time>2021-03-28T09:22:18Z</time>
      </trkpt>
      <trkpt lat="45.01517" lon="5.53157">
        <ele>1293.59</ele>
        <time>2021-03-28T09:22:32Z</time>
      </trkpt>
      <trkpt lat="45.01515" lon="5.53158">
        <ele>1294.07</ele>
        <time>2021-03-28T09:22:35Z</time>
      </trkpt>
      <trkpt lat="45.01514" lon="5.53158">
        <ele>1294.07</ele>
        <time>2021-03-28T09:22:36Z</time>
      </trkpt>
      <trkpt lat="45.015" lon="5.53165">
        <ele>1297.44</ele>
        <time>2021-03-28T09:22:53Z</time>
      </trkpt>
      <trkpt lat="45.0149" lon="5.53173">
        <ele>1299.84</ele>
        <time>2021-03-28T09:23:18Z</time>
      </trkpt>
      <trkpt lat="45.01483" lon="5.53181">
        <ele>1300.8</ele>
        <time>2021-03-28T09:24:00Z</time>
      </trkpt>
      <trkpt lat="45.01483" lon="5.53181">
        <ele>1300.8</ele>
        <time>2021-03-28T09:24:03Z</time>
      </trkpt>
      <trkpt lat="45.01482" lon="5.53182">
        <ele>1300.8</ele>
        <time>2021-03-28T09:24:04Z</time>
      </trkpt>
      <trkpt lat="45.01479" lon="5.53181">
        <ele>1301.28</ele>
        <time>2021-03-28T09:24:29Z</time>
      </trkpt>
      <trkpt lat="45.01473" lon="5.53183">
        <ele>1301.76</ele>
        <time>2021-03-28T09:24:39Z</time>
      </trkpt>
      <trkpt lat="45.01464" lon="5.53188">
        <ele>1303.2</ele>
        <time>2021-03-28T09:24:51Z</time>
      </trkpt>
      <trkpt lat="45.01463" lon="5.53188">
        <ele>1303.69</ele>
        <time>2021-03-28T09:24:52Z</time>
      </trkpt>
      <trkpt lat="45.01463" lon="5.53189">
        <ele>1303.69</ele>
        <time>2021-03-28T09:24:53Z</time>
      </trkpt>
      <trkpt lat="45.01446" lon="5.53203">
        <ele>1306.09</ele>
        <time>2021-03-28T09:25:14Z</time>
      </trkpt>
      <trkpt lat="45.01425" lon="5.53205">
        <ele>1308.97</ele>
        <time>2021-03-28T09:25:35Z</time>
      </trkpt>
      <trkpt lat="45.01415" lon="5.53207">
        <ele>1309.93</ele>
        <time>2021-03-28T09:25:44Z</time>
      </trkpt>
      <trkpt lat="45.01414" lon="5.53208">
        <ele>1310.41</ele>
        <time>2021-03-28T09:25:45Z</time>
      </trkpt>
      <trkpt lat="45.01396" lon="5.53213">
        <ele>1312.82</ele>
        <time>2021-03-28T09:26:05Z</time>
      </trkpt>
      <trkpt lat="45.01381" lon="5.53215">
        <ele>1316.18</ele>
        <time>2021-03-28T09:26:24Z</time>
      </trkpt>
      <trkpt lat="45.01363" lon="5.53215">
        <ele>1319.07</ele>
        <time>2021-03-28T09:26:44Z</time>
      </trkpt>
      <trkpt lat="45.01352" lon="5.53213">
        <ele>1320.99</ele>
        <time>2021-03-28T09:26:57Z</time>
      </trkpt>
      <trkpt lat="45.01334" lon="5.53211">
        <ele>1323.87</ele>
        <time>2021-03-28T09:27:17Z</time>
      </trkpt>
      <trkpt lat="45.01319" lon="5.53216">
        <ele>1327.24</ele>
        <time>2021-03-28T09:27:40Z</time>
      </trkpt>
      <trkpt lat="45.01299" lon="5.53224">
        <ele>1329.64</ele>
        <time>2021-03-28T09:28:09Z</time>
      </trkpt>
      <trkpt lat="45.01281" lon="5.53225">
        <ele>1333.01</ele>
        <time>2021-03-28T09:28:34Z</time>
      </trkpt>
      <trkpt lat="45.01269" lon="5.53231">
        <ele>1335.89</ele>
        <time>2021-03-28T09:28:52Z</time>
      </trkpt>
      <trkpt lat="45.01256" lon="5.53238">
        <ele>1338.77</ele>
        <time>2021-03-28T09:29:08Z</time>
      </trkpt>
      <trkpt lat="45.01244" lon="5.5324">
        <ele>1342.14</ele>
        <time>2021-03-28T09:29:25Z</time>
      </trkpt>
      <trkpt lat="45.01232" lon="5.53246">
        <ele>1345.02</ele>
        <time>2021-03-28T09:29:42Z</time>
      </trkpt>
      <trkpt lat="45.01221" lon="5.53252">
        <ele>1347.91</ele>
        <time>2021-03-28T09:30:00Z</time>
      </trkpt>
      <trkpt lat="45.0121" lon="5.53256">
        <ele>1351.27</ele>
        <time>2021-03-28T09:30:17Z</time>
      </trkpt>
      <trkpt lat="45.01198" lon="5.5326">
        <ele>1354.15</ele>
        <time>2021-03-28T09:30:35Z</time>
      </trkpt>
      <trkpt lat="45.01195" lon="5.53262">
        <ele>1354.63</ele>
        <time>2021-03-28T09:30:37Z</time>
      </trkpt>
      <trkpt lat="45.01195" lon="5.53263">
        <ele>1354.63</ele>
        <time>2021-03-28T09:30:38Z</time>
      </trkpt>
      <trkpt lat="45.01194" lon="5.53264">
        <ele>1354.63</ele>
        <time>2021-03-28T09:30:39Z</time>
      </trkpt>
      <trkpt lat="45.01181" lon="5.53272">
        <ele>1358</ele>
        <time>2021-03-28T09:30:57Z</time>
      </trkpt>
      <trkpt lat="45.01173" lon="5.53274">
        <ele>1359.92</ele>
        <time>2021-03-28T09:31:08Z</time>
      </trkpt>
      <trkpt lat="45.01162" lon="5.53277">
        <ele>1363.29</ele>
        <time>2021-03-28T09:31:24Z</time>
      </trkpt>
      <trkpt lat="45.01151" lon="5.5328">
        <ele>1366.17</ele>
        <time>2021-03-28T09:31:39Z</time>
      </trkpt>
      <trkpt lat="45.0114" lon="5.53279">
        <ele>1369.54</ele>
        <time>2021-03-28T09:31:55Z</time>
      </trkpt>
      <trkpt lat="45.01132" lon="5.53282">
        <ele>1372.42</ele>
        <time>2021-03-28T09:32:09Z</time>
      </trkpt>
      <trkpt lat="45.01126" lon="5.53285">
        <ele>1374.34</ele>
        <time>2021-03-28T09:32:18Z</time>
      </trkpt>
      <trkpt lat="45.01117" lon="5.53287">
        <ele>1377.23</ele>
        <time>2021-03-28T09:32:32Z</time>
      </trkpt>
      <trkpt lat="45.01104" lon="5.53292">
        <ele>1380.11</ele>
        <time>2021-03-28T09:32:51Z</time>
      </trkpt>
      <trkpt lat="45.011" lon="5.53295">
        <ele>1381.07</ele>
        <time>2021-03-28T09:32:56Z</time>
      </trkpt>
      <trkpt lat="45.01099" lon="5.53296">
        <ele>1381.07</ele>
        <time>2021-03-28T09:32:57Z</time>
      </trkpt>
      <trkpt lat="45.01088" lon="5.53301">
        <ele>1384.44</ele>
        <time>2021-03-28T09:33:14Z</time>
      </trkpt>
      <trkpt lat="45.01082" lon="5.53307">
        <ele>1385.88</ele>
        <time>2021-03-28T09:33:23Z</time>
      </trkpt>
      <trkpt lat="45.01081" lon="5.53308">
        <ele>1385.88</ele>
        <time>2021-03-28T09:33:24Z</time>
      </trkpt>
      <trkpt lat="45.01081" lon="5.53309">
        <ele>1386.36</ele>
        <time>2021-03-28T09:33:25Z</time>
      </trkpt>
      <trkpt lat="45.0108" lon="5.53309">
        <ele>1386.84</ele>
        <time>2021-03-28T09:33:26Z</time>
      </trkpt>
      <trkpt lat="45.01079" lon="5.5331">
        <ele>1386.84</ele>
        <time>2021-03-28T09:33:27Z</time>
      </trkpt>
      <trkpt lat="45.01067" lon="5.53321">
        <ele>1389.72</ele>
        <time>2021-03-28T09:33:45Z</time>
      </trkpt>
      <trkpt lat="45.01055" lon="5.53331">
        <ele>1392.61</ele>
        <time>2021-03-28T09:34:04Z</time>
      </trkpt>
      <trkpt lat="45.0104" lon="5.53344">
        <ele>1395.97</ele>
        <time>2021-03-28T09:34:21Z</time>
      </trkpt>
      <trkpt lat="45.01028" lon="5.53354">
        <ele>1398.86</ele>
        <time>2021-03-28T09:34:39Z</time>
      </trkpt>
      <trkpt lat="45.01011" lon="5.53365">
        <ele>1402.22</ele>
        <time>2021-03-28T09:35:01Z</time>
      </trkpt>
      <trkpt lat="45.00998" lon="5.53376">
        <ele>1405.1</ele>
        <time>2021-03-28T09:35:19Z</time>
      </trkpt>
      <trkpt lat="45.00985" lon="5.53385">
        <ele>1407.99</ele>
        <time>2021-03-28T09:35:36Z</time>
      </trkpt>
      <trkpt lat="45.00974" lon="5.53389">
        <ele>1411.35</ele>
        <time>2021-03-28T09:35:51Z</time>
      </trkpt>
      <trkpt lat="45.00961" lon="5.53396">
        <ele>1414.24</ele>
        <time>2021-03-28T09:36:08Z</time>
      </trkpt>
      <trkpt lat="45.0095" lon="5.53407">
        <ele>1417.6</ele>
        <time>2021-03-28T09:36:23Z</time>
      </trkpt>
      <trkpt lat="45.00942" lon="5.53411">
        <ele>1420.97</ele>
        <time>2021-03-28T09:36:37Z</time>
      </trkpt>
      <trkpt lat="45.00932" lon="5.53413">
        <ele>1423.85</ele>
        <time>2021-03-28T09:36:50Z</time>
      </trkpt>
      <trkpt lat="45.00921" lon="5.5342">
        <ele>1427.21</ele>
        <time>2021-03-28T09:37:05Z</time>
      </trkpt>
      <trkpt lat="45.00906" lon="5.53433">
        <ele>1429.14</ele>
        <time>2021-03-28T09:37:27Z</time>
      </trkpt>
      <trkpt lat="45.00888" lon="5.53437">
        <ele>1432.02</ele>
        <time>2021-03-28T09:37:49Z</time>
      </trkpt>
      <trkpt lat="45.00875" lon="5.53438">
        <ele>1434.91</ele>
        <time>2021-03-28T09:38:05Z</time>
      </trkpt>
      <trkpt lat="45.00865" lon="5.53437">
        <ele>1437.79</ele>
        <time>2021-03-28T09:38:19Z</time>
      </trkpt>
      <trkpt lat="45.00861" lon="5.53434">
        <ele>1439.23</ele>
        <time>2021-03-28T09:38:26Z</time>
      </trkpt>
      <trkpt lat="45.00857" lon="5.53433">
        <ele>1440.19</ele>
        <time>2021-03-28T09:38:31Z</time>
      </trkpt>
      <trkpt lat="45.00838" lon="5.53422">
        <ele>1441.63</ele>
        <time>2021-03-28T09:38:53Z</time>
      </trkpt>
      <trkpt lat="45.00824" lon="5.53416">
        <ele>1445</ele>
        <time>2021-03-28T09:39:12Z</time>
      </trkpt>
      <trkpt lat="45.00817" lon="5.53418">
        <ele>1448.36</ele>
        <time>2021-03-28T09:39:23Z</time>
      </trkpt>
      <trkpt lat="45.00811" lon="5.53429">
        <ele>1451.25</ele>
        <time>2021-03-28T09:39:38Z</time>
      </trkpt>
      <trkpt lat="45.00807" lon="5.53438">
        <ele>1454.61</ele>
        <time>2021-03-28T09:39:53Z</time>
      </trkpt>
      <trkpt lat="45.00802" lon="5.53444">
        <ele>1456.05</ele>
        <time>2021-03-28T09:40:03Z</time>
      </trkpt>
      <trkpt lat="45.00792" lon="5.53451">
        <ele>1459.42</ele>
        <time>2021-03-28T09:40:22Z</time>
      </trkpt>
      <trkpt lat="45.00791" lon="5.5345">
        <ele>1459.42</ele>
        <time>2021-03-28T09:40:24Z</time>
      </trkpt>
      <trkpt lat="45.00784" lon="5.53441">
        <ele>1462.78</ele>
        <time>2021-03-28T09:40:39Z</time>
      </trkpt>
      <trkpt lat="45.00779" lon="5.53436">
        <ele>1464.23</ele>
        <time>2021-03-28T09:40:47Z</time>
      </trkpt>
      <trkpt lat="45.0077" lon="5.53434">
        <ele>1467.11</ele>
        <time>2021-03-28T09:41:02Z</time>
      </trkpt>
      <trkpt lat="45.00769" lon="5.53435">
        <ele>1467.59</ele>
        <time>2021-03-28T09:41:03Z</time>
      </trkpt>
      <trkpt lat="45.00763" lon="5.53438">
        <ele>1469.51</ele>
        <time>2021-03-28T09:41:14Z</time>
      </trkpt>
      <trkpt lat="45.00762" lon="5.53438">
        <ele>1469.99</ele>
        <time>2021-03-28T09:41:15Z</time>
      </trkpt>
      <trkpt lat="45.00761" lon="5.53437">
        <ele>1469.99</ele>
        <time>2021-03-28T09:41:16Z</time>
      </trkpt>
      <trkpt lat="45.00743" lon="5.53429">
        <ele>1472.4</ele>
        <time>2021-03-28T09:41:39Z</time>
      </trkpt>
      <trkpt lat="45.0073" lon="5.53426">
        <ele>1475.28</ele>
        <time>2021-03-28T09:41:54Z</time>
      </trkpt>
      <trkpt lat="45.0072" lon="5.53422">
        <ele>1478.16</ele>
        <time>2021-03-28T09:42:07Z</time>
      </trkpt>
      <trkpt lat="45.00709" lon="5.53419">
        <ele>1481.05</ele>
        <time>2021-03-28T09:42:22Z</time>
      </trkpt>
      <trkpt lat="45.00696" lon="5.53415">
        <ele>1482.97</ele>
        <time>2021-03-28T09:42:36Z</time>
      </trkpt>
      <trkpt lat="45.00695" lon="5.53415">
        <ele>1483.45</ele>
        <time>2021-03-28T09:42:37Z</time>
      </trkpt>
      <trkpt lat="45.00695" lon="5.53414">
        <ele>1483.45</ele>
        <time>2021-03-28T09:42:38Z</time>
      </trkpt>
      <trkpt lat="45.00693" lon="5.53413">
        <ele>1483.45</ele>
        <time>2021-03-28T09:42:40Z</time>
      </trkpt>
      <trkpt lat="45.00692" lon="5.53412">
        <ele>1483.45</ele>
        <time>2021-03-28T09:42:41Z</time>
      </trkpt>
      <trkpt lat="45.00691" lon="5.53412">
        <ele>1483.45</ele>
        <time>2021-03-28T09:42:42Z</time>
      </trkpt>
      <trkpt lat="45.00673" lon="5.53408">
        <ele>1486.34</ele>
        <time>2021-03-28T09:43:05Z</time>
      </trkpt>
      <trkpt lat="45.00666" lon="5.53413">
        <ele>1489.22</ele>
        <time>2021-03-28T09:43:18Z</time>
      </trkpt>
      <trkpt lat="45.00657" lon="5.5342">
        <ele>1492.1</ele>
        <time>2021-03-28T09:43:35Z</time>
      </trkpt>
      <trkpt lat="45.00646" lon="5.5342">
        <ele>1494.51</ele>
        <time>2021-03-28T09:43:52Z</time>
      </trkpt>
      <trkpt lat="45.00642" lon="5.53417">
        <ele>1494.99</ele>
        <time>2021-03-28T09:43:58Z</time>
      </trkpt>
      <trkpt lat="45.0064" lon="5.53416">
        <ele>1496.43</ele>
        <time>2021-03-28T09:44:21Z</time>
      </trkpt>
      <trkpt lat="45.00641" lon="5.53419">
        <ele>1496.43</ele>
        <time>2021-03-28T09:44:53Z</time>
      </trkpt>
      <trkpt lat="45.00644" lon="5.53415">
        <ele>1496.43</ele>
        <time>2021-03-28T09:45:49Z</time>
      </trkpt>
      <trkpt lat="45.00626" lon="5.53415">
        <ele>1499.31</ele>
        <time>2021-03-28T09:47:18Z</time>
      </trkpt>
      <trkpt lat="45.00616" lon="5.53413">
        <ele>1502.2</ele>
        <time>2021-03-28T09:47:35Z</time>
      </trkpt>
      <trkpt lat="45.00617" lon="5.53418">
        <ele>1503.64</ele>
        <time>2021-03-28T09:47:40Z</time>
      </trkpt>
      <trkpt lat="45.00618" lon="5.53437">
        <ele>1506.52</ele>
        <time>2021-03-28T09:47:58Z</time>
      </trkpt>
      <trkpt lat="45.00606" lon="5.53429">
        <ele>1509.41</ele>
        <time>2021-03-28T09:48:20Z</time>
      </trkpt>
      <trkpt lat="45.00592" lon="5.53419">
        <ele>1512.29</ele>
        <time>2021-03-28T09:48:41Z</time>
      </trkpt>
      <trkpt lat="45.00587" lon="5.53417">
        <ele>1513.25</ele>
        <time>2021-03-28T09:48:49Z</time>
      </trkpt>
      <trkpt lat="45.00584" lon="5.53416">
        <ele>1513.73</ele>
        <time>2021-03-28T09:48:52Z</time>
      </trkpt>
      <trkpt lat="45.00573" lon="5.53418">
        <ele>1516.62</ele>
        <time>2021-03-28T09:49:07Z</time>
      </trkpt>
      <trkpt lat="45.00571" lon="5.53418">
        <ele>1516.62</ele>
        <time>2021-03-28T09:49:10Z</time>
      </trkpt>
      <trkpt lat="45.00552" lon="5.53415">
        <ele>1519.02</ele>
        <time>2021-03-28T09:49:34Z</time>
      </trkpt>
      <trkpt lat="45.00542" lon="5.53413">
        <ele>1519.98</ele>
        <time>2021-03-28T09:49:44Z</time>
      </trkpt>
      <trkpt lat="45.00541" lon="5.53413">
        <ele>1519.98</ele>
        <time>2021-03-28T09:49:45Z</time>
      </trkpt>
      <trkpt lat="45.0054" lon="5.53413">
        <ele>1519.98</ele>
        <time>2021-03-28T09:49:46Z</time>
      </trkpt>
      <trkpt lat="45.0054" lon="5.53412">
        <ele>1519.98</ele>
        <time>2021-03-28T09:49:47Z</time>
      </trkpt>
      <trkpt lat="45.00539" lon="5.53412">
        <ele>1519.98</ele>
        <time>2021-03-28T09:49:48Z</time>
      </trkpt>
      <trkpt lat="45.00538" lon="5.53412">
        <ele>1520.46</ele>
        <time>2021-03-28T09:49:49Z</time>
      </trkpt>
      <trkpt lat="45.00537" lon="5.53412">
        <ele>1520.46</ele>
        <time>2021-03-28T09:49:50Z</time>
      </trkpt>
      <trkpt lat="45.00521" lon="5.53407">
        <ele>1523.83</ele>
        <time>2021-03-28T09:50:12Z</time>
      </trkpt>
      <trkpt lat="45.00505" lon="5.534">
        <ele>1526.71</ele>
        <time>2021-03-28T09:50:33Z</time>
      </trkpt>
      <trkpt lat="45.00504" lon="5.534">
        <ele>1527.19</ele>
        <time>2021-03-28T09:50:35Z</time>
      </trkpt>
      <trkpt lat="45.00502" lon="5.53399">
        <ele>1527.19</ele>
        <time>2021-03-28T09:50:37Z</time>
      </trkpt>
      <trkpt lat="45.00482" lon="5.53395">
        <ele>1530.08</ele>
        <time>2021-03-28T09:51:02Z</time>
      </trkpt>
      <trkpt lat="45.00478" lon="5.53394">
        <ele>1529.59</ele>
        <time>2021-03-28T09:51:08Z</time>
      </trkpt>
      <trkpt lat="45.00477" lon="5.53394">
        <ele>1529.59</ele>
        <time>2021-03-28T09:51:09Z</time>
      </trkpt>
      <trkpt lat="45.00463" lon="5.53393">
        <ele>1532.96</ele>
        <time>2021-03-28T09:51:28Z</time>
      </trkpt>
      <trkpt lat="45.00457" lon="5.53394">
        <ele>1534.88</ele>
        <time>2021-03-28T09:51:37Z</time>
      </trkpt>
      <trkpt lat="45.00452" lon="5.53396">
        <ele>1536.8</ele>
        <time>2021-03-28T09:51:44Z</time>
      </trkpt>
      <trkpt lat="45.00448" lon="5.53398">
        <ele>1537.77</ele>
        <time>2021-03-28T09:51:49Z</time>
      </trkpt>
      <trkpt lat="45.00438" lon="5.53394">
        <ele>1540.65</ele>
        <time>2021-03-28T09:52:03Z</time>
      </trkpt>
      <trkpt lat="45.00437" lon="5.53394">
        <ele>1540.65</ele>
        <time>2021-03-28T09:52:04Z</time>
      </trkpt>
      <trkpt lat="45.00432" lon="5.53394">
        <ele>1542.57</ele>
        <time>2021-03-28T09:52:18Z</time>
      </trkpt>
      <trkpt lat="45.00429" lon="5.53393">
        <ele>1543.05</ele>
        <time>2021-03-28T09:52:22Z</time>
      </trkpt>
      <trkpt lat="45.00428" lon="5.53393">
        <ele>1543.05</ele>
        <time>2021-03-28T09:52:23Z</time>
      </trkpt>
      <trkpt lat="45.00427" lon="5.53393">
        <ele>1543.53</ele>
        <time>2021-03-28T09:52:24Z</time>
      </trkpt>
      <trkpt lat="45.00423" lon="5.53391">
        <ele>1544.98</ele>
        <time>2021-03-28T09:52:31Z</time>
      </trkpt>
      <trkpt lat="45.00421" lon="5.5339">
        <ele>1544.98</ele>
        <time>2021-03-28T09:52:33Z</time>
      </trkpt>
      <trkpt lat="45.00414" lon="5.53393">
        <ele>1548.34</ele>
        <time>2021-03-28T09:52:46Z</time>
      </trkpt>
      <trkpt lat="45.00414" lon="5.53398">
        <ele>1549.3</ele>
        <time>2021-03-28T09:52:51Z</time>
      </trkpt>
      <trkpt lat="45.00413" lon="5.53399">
        <ele>1549.3</ele>
        <time>2021-03-28T09:52:52Z</time>
      </trkpt>
      <trkpt lat="45.00411" lon="5.53414">
        <ele>1552.67</ele>
        <time>2021-03-28T09:53:07Z</time>
      </trkpt>
      <trkpt lat="45.00406" lon="5.53412">
        <ele>1554.11</ele>
        <time>2021-03-28T09:53:14Z</time>
      </trkpt>
      <trkpt lat="45.00395" lon="5.53405">
        <ele>1556.99</ele>
        <time>2021-03-28T09:53:30Z</time>
      </trkpt>
      <trkpt lat="45.00393" lon="5.53408">
        <ele>1558.92</ele>
        <time>2021-03-28T09:53:40Z</time>
      </trkpt>
      <trkpt lat="45.00393" lon="5.5342">
        <ele>1561.8</ele>
        <time>2021-03-28T09:53:52Z</time>
      </trkpt>
      <trkpt lat="45.00393" lon="5.53429">
        <ele>1564.68</ele>
        <time>2021-03-28T09:54:01Z</time>
      </trkpt>
      <trkpt lat="45.00391" lon="5.53434">
        <ele>1566.61</ele>
        <time>2021-03-28T09:54:09Z</time>
      </trkpt>
      <trkpt lat="45.00379" lon="5.53428">
        <ele>1569.97</ele>
        <time>2021-03-28T09:54:25Z</time>
      </trkpt>
      <trkpt lat="45.00368" lon="5.53421">
        <ele>1572.85</ele>
        <time>2021-03-28T09:54:41Z</time>
      </trkpt>
      <trkpt lat="45.0036" lon="5.53415">
        <ele>1576.22</ele>
        <time>2021-03-28T09:54:56Z</time>
      </trkpt>
      <trkpt lat="45.00359" lon="5.53411">
        <ele>1577.66</ele>
        <time>2021-03-28T09:55:22Z</time>
      </trkpt>
      <trkpt lat="45.00358" lon="5.53415">
        <ele>1576.22</ele>
        <time>2021-03-28T09:57:27Z</time>
      </trkpt>
      <trkpt lat="45.00356" lon="5.53407">
        <ele>1576.7</ele>
        <time>2021-03-28T09:57:56Z</time>
      </trkpt>
      <trkpt lat="45.00347" lon="5.53402">
        <ele>1579.58</ele>
        <time>2021-03-28T09:58:13Z</time>
      </trkpt>
      <trkpt lat="45.00347" lon="5.53403">
        <ele>1580.06</ele>
        <time>2021-03-28T09:58:14Z</time>
      </trkpt>
      <trkpt lat="45.00343" lon="5.53418">
        <ele>1583.43</ele>
        <time>2021-03-28T09:58:26Z</time>
      </trkpt>
      <trkpt lat="45.00337" lon="5.53416">
        <ele>1584.39</ele>
        <time>2021-03-28T09:58:35Z</time>
      </trkpt>
      <trkpt lat="45.00336" lon="5.53416">
        <ele>1584.87</ele>
        <time>2021-03-28T09:58:36Z</time>
      </trkpt>
      <trkpt lat="45.00331" lon="5.53415">
        <ele>1586.79</ele>
        <time>2021-03-28T09:58:46Z</time>
      </trkpt>
      <trkpt lat="45.0033" lon="5.53417">
        <ele>1587.27</ele>
        <time>2021-03-28T09:58:48Z</time>
      </trkpt>
      <trkpt lat="45.0033" lon="5.53431">
        <ele>1590.64</ele>
        <time>2021-03-28T09:59:01Z</time>
      </trkpt>
      <trkpt lat="45.00326" lon="5.53431">
        <ele>1592.56</ele>
        <time>2021-03-28T09:59:12Z</time>
      </trkpt>
      <trkpt lat="45.00319" lon="5.53428">
        <ele>1595.45</ele>
        <time>2021-03-28T09:59:29Z</time>
      </trkpt>
      <trkpt lat="45.00318" lon="5.53433">
        <ele>1596.41</ele>
        <time>2021-03-28T09:59:34Z</time>
      </trkpt>
      <trkpt lat="45.00318" lon="5.53434">
        <ele>1596.41</ele>
        <time>2021-03-28T09:59:35Z</time>
      </trkpt>
      <trkpt lat="45.00318" lon="5.53449">
        <ele>1599.77</ele>
        <time>2021-03-28T09:59:51Z</time>
      </trkpt>
      <trkpt lat="45.00322" lon="5.53465">
        <ele>1602.66</ele>
        <time>2021-03-28T10:00:05Z</time>
      </trkpt>
      <trkpt lat="45.00322" lon="5.53482">
        <ele>1606.02</ele>
        <time>2021-03-28T10:00:19Z</time>
      </trkpt>
      <trkpt lat="45.00318" lon="5.53479">
        <ele>1607.46</ele>
        <time>2021-03-28T10:00:27Z</time>
      </trkpt>
      <trkpt lat="45.00317" lon="5.53478">
        <ele>1607.94</ele>
        <time>2021-03-28T10:00:28Z</time>
      </trkpt>
      <trkpt lat="45.00316" lon="5.53478">
        <ele>1607.94</ele>
        <time>2021-03-28T10:00:29Z</time>
      </trkpt>
      <trkpt lat="45.00304" lon="5.53468">
        <ele>1610.83</ele>
        <time>2021-03-28T10:00:44Z</time>
      </trkpt>
      <trkpt lat="45.00296" lon="5.53462">
        <ele>1613.23</ele>
        <time>2021-03-28T10:00:55Z</time>
      </trkpt>
      <trkpt lat="45.00294" lon="5.53462">
        <ele>1613.71</ele>
        <time>2021-03-28T10:00:57Z</time>
      </trkpt>
      <trkpt lat="45.00288" lon="5.53462">
        <ele>1617.07</ele>
        <time>2021-03-28T10:01:16Z</time>
      </trkpt>
      <trkpt lat="45.00287" lon="5.53472">
        <ele>1619.96</ele>
        <time>2021-03-28T10:01:34Z</time>
      </trkpt>
      <trkpt lat="45.00276" lon="5.53466">
        <ele>1621.88</ele>
        <time>2021-03-28T10:01:49Z</time>
      </trkpt>
      <trkpt lat="45.00275" lon="5.53465">
        <ele>1621.88</ele>
        <time>2021-03-28T10:01:50Z</time>
      </trkpt>
      <trkpt lat="45.00269" lon="5.53458">
        <ele>1623.8</ele>
        <time>2021-03-28T10:01:58Z</time>
      </trkpt>
      <trkpt lat="45.00268" lon="5.53457">
        <ele>1623.8</ele>
        <time>2021-03-28T10:01:59Z</time>
      </trkpt>
      <trkpt lat="45.00254" lon="5.53445">
        <ele>1626.69</ele>
        <time>2021-03-28T10:02:20Z</time>
      </trkpt>
      <trkpt lat="45.00246" lon="5.53441">
        <ele>1627.17</ele>
        <time>2021-03-28T10:04:37Z</time>
      </trkpt>
      <trkpt lat="45.00248" lon="5.53441">
        <ele>1627.17</ele>
        <time>2021-03-28T10:07:02Z</time>
      </trkpt>
      <trkpt lat="45.00247" lon="5.53441">
        <ele>1627.17</ele>
        <time>2021-03-28T10:07:46Z</time>
      </trkpt>
      <trkpt lat="45.00247" lon="5.53441">
        <ele>1627.17</ele>
        <time>2021-03-28T10:08:04Z</time>
      </trkpt>
      <trkpt lat="45.00239" lon="5.53453">
        <ele>1628.13</ele>
        <time>2021-03-28T10:08:36Z</time>
      </trkpt>
      <trkpt lat="45.00228" lon="5.5346">
        <ele>1624.77</ele>
        <time>2021-03-28T10:08:51Z</time>
      </trkpt>
      <trkpt lat="45.00225" lon="5.53464">
        <ele>1623.32</ele>
        <time>2021-03-28T10:08:56Z</time>
      </trkpt>
      <trkpt lat="45.00217" lon="5.53471">
        <ele>1619.96</ele>
        <time>2021-03-28T10:09:05Z</time>
      </trkpt>
      <trkpt lat="45.00206" lon="5.53484">
        <ele>1617.07</ele>
        <time>2021-03-28T10:09:25Z</time>
      </trkpt>
      <trkpt lat="45.00202" lon="5.53499">
        <ele>1614.19</ele>
        <time>2021-03-28T10:09:43Z</time>
      </trkpt>
      <trkpt lat="45.0019" lon="5.53502">
        <ele>1610.83</ele>
        <time>2021-03-28T10:10:04Z</time>
      </trkpt>
      <trkpt lat="45.00185" lon="5.53509">
        <ele>1607.46</ele>
        <time>2021-03-28T10:10:14Z</time>
      </trkpt>
      <trkpt lat="45.00183" lon="5.53525">
        <ele>1604.58</ele>
        <time>2021-03-28T10:10:42Z</time>
      </trkpt>
      <trkpt lat="45.00185" lon="5.53532">
        <ele>1604.58</ele>
        <time>2021-03-28T10:11:05Z</time>
      </trkpt>
      <trkpt lat="45.00188" lon="5.53553">
        <ele>1606.02</ele>
        <time>2021-03-28T10:11:25Z</time>
      </trkpt>
      <trkpt lat="45.0018" lon="5.53582">
        <ele>1606.02</ele>
        <time>2021-03-28T10:11:50Z</time>
      </trkpt>
      <trkpt lat="45.00176" lon="5.53588">
        <ele>1606.5</ele>
        <time>2021-03-28T10:11:57Z</time>
      </trkpt>
      <trkpt lat="45.00174" lon="5.53591">
        <ele>1607.94</ele>
        <time>2021-03-28T10:12:54Z</time>
      </trkpt>
      <trkpt lat="45.0017" lon="5.53603">
        <ele>1608.9</ele>
        <time>2021-03-28T10:13:37Z</time>
      </trkpt>
      <trkpt lat="45.00169" lon="5.53604">
        <ele>1609.38</ele>
        <time>2021-03-28T10:13:38Z</time>
      </trkpt>
      <trkpt lat="45.00157" lon="5.53618">
        <ele>1612.27</ele>
        <time>2021-03-28T10:13:57Z</time>
      </trkpt>
      <trkpt lat="45.00151" lon="5.53627">
        <ele>1615.15</ele>
        <time>2021-03-28T10:14:13Z</time>
      </trkpt>
      <trkpt lat="45.00152" lon="5.53632">
        <ele>1616.11</ele>
        <time>2021-03-28T10:14:18Z</time>
      </trkpt>
      <trkpt lat="45.00154" lon="5.53638">
        <ele>1619.48</ele>
        <time>2021-03-28T10:14:37Z</time>
      </trkpt>
      <trkpt lat="45.00153" lon="5.53642">
        <ele>1619.48</ele>
        <time>2021-03-28T10:14:40Z</time>
      </trkpt>
      <trkpt lat="45.00145" lon="5.53652">
        <ele>1622.36</ele>
        <time>2021-03-28T10:14:55Z</time>
      </trkpt>
      <trkpt lat="45.00147" lon="5.53655">
        <ele>1623.32</ele>
        <time>2021-03-28T10:15:00Z</time>
      </trkpt>
      <trkpt lat="45.0015" lon="5.53664">
        <ele>1626.69</ele>
        <time>2021-03-28T10:15:20Z</time>
      </trkpt>
      <trkpt lat="45.00146" lon="5.53681">
        <ele>1629.57</ele>
        <time>2021-03-28T10:15:43Z</time>
      </trkpt>
      <trkpt lat="45.00144" lon="5.53685">
        <ele>1630.53</ele>
        <time>2021-03-28T10:15:47Z</time>
      </trkpt>
      <trkpt lat="45.00139" lon="5.5369">
        <ele>1631.98</ele>
        <time>2021-03-28T10:15:58Z</time>
      </trkpt>
      <trkpt lat="45.00138" lon="5.5369">
        <ele>1631.98</ele>
        <time>2021-03-28T10:16:01Z</time>
      </trkpt>
      <trkpt lat="45.00137" lon="5.5369">
        <ele>1632.46</ele>
        <time>2021-03-28T10:16:02Z</time>
      </trkpt>
      <trkpt lat="45.00143" lon="5.53699">
        <ele>1635.34</ele>
        <time>2021-03-28T10:16:24Z</time>
      </trkpt>
      <trkpt lat="45.00131" lon="5.53708">
        <ele>1638.7</ele>
        <time>2021-03-28T10:16:42Z</time>
      </trkpt>
      <trkpt lat="45.00131" lon="5.53718">
        <ele>1642.07</ele>
        <time>2021-03-28T10:17:01Z</time>
      </trkpt>
      <trkpt lat="45.00131" lon="5.53721">
        <ele>1642.55</ele>
        <time>2021-03-28T10:17:04Z</time>
      </trkpt>
      <trkpt lat="45.00135" lon="5.53729">
        <ele>1645.91</ele>
        <time>2021-03-28T10:17:17Z</time>
      </trkpt>
      <trkpt lat="45.00143" lon="5.53737">
        <ele>1647.84</ele>
        <time>2021-03-28T10:17:32Z</time>
      </trkpt>
      <trkpt lat="45.0013" lon="5.53762">
        <ele>1651.2</ele>
        <time>2021-03-28T10:17:54Z</time>
      </trkpt>
      <trkpt lat="45.0012" lon="5.53774">
        <ele>1654.09</ele>
        <time>2021-03-28T10:18:12Z</time>
      </trkpt>
      <trkpt lat="45.00113" lon="5.5378">
        <ele>1656.01</ele>
        <time>2021-03-28T10:18:30Z</time>
      </trkpt>
      <trkpt lat="45.00109" lon="5.53784">
        <ele>1656.97</ele>
        <time>2021-03-28T10:18:51Z</time>
      </trkpt>
      <trkpt lat="45.00104" lon="5.53792">
        <ele>1656.97</ele>
        <time>2021-03-28T10:19:30Z</time>
      </trkpt>
      <trkpt lat="45.00104" lon="5.53799">
        <ele>1658.89</ele>
        <time>2021-03-28T10:20:23Z</time>
      </trkpt>
      <trkpt lat="45.00109" lon="5.53814">
        <ele>1661.78</ele>
        <time>2021-03-28T10:20:43Z</time>
      </trkpt>
      <trkpt lat="45.00113" lon="5.53835">
        <ele>1664.66</ele>
        <time>2021-03-28T10:21:05Z</time>
      </trkpt>
      <trkpt lat="45.00115" lon="5.5386">
        <ele>1667.54</ele>
        <time>2021-03-28T10:21:29Z</time>
      </trkpt>
      <trkpt lat="45.00114" lon="5.53871">
        <ele>1669.95</ele>
        <time>2021-03-28T10:21:41Z</time>
      </trkpt>
      <trkpt lat="45.00116" lon="5.53885">
        <ele>1673.31</ele>
        <time>2021-03-28T10:21:56Z</time>
      </trkpt>
      <trkpt lat="45.00125" lon="5.5389">
        <ele>1676.2</ele>
        <time>2021-03-28T10:22:10Z</time>
      </trkpt>
      <trkpt lat="45.00129" lon="5.53893">
        <ele>1678.6</ele>
        <time>2021-03-28T10:22:23Z</time>
      </trkpt>
      <trkpt lat="45.00129" lon="5.53894">
        <ele>1678.6</ele>
        <time>2021-03-28T10:22:24Z</time>
      </trkpt>
      <trkpt lat="45.00131" lon="5.53904">
        <ele>1681.96</ele>
        <time>2021-03-28T10:22:46Z</time>
      </trkpt>
      <trkpt lat="45.00122" lon="5.53911">
        <ele>1684.85</ele>
        <time>2021-03-28T10:23:03Z</time>
      </trkpt>
      <trkpt lat="45.00115" lon="5.53917">
        <ele>1686.77</ele>
        <time>2021-03-28T10:23:16Z</time>
      </trkpt>
      <trkpt lat="45.0011" lon="5.5393">
        <ele>1690.14</ele>
        <time>2021-03-28T10:23:31Z</time>
      </trkpt>
      <trkpt lat="45.00109" lon="5.53938">
        <ele>1691.58</ele>
        <time>2021-03-28T10:23:40Z</time>
      </trkpt>
      <trkpt lat="45.0011" lon="5.53939">
        <ele>1691.58</ele>
        <time>2021-03-28T10:23:41Z</time>
      </trkpt>
      <trkpt lat="45.0011" lon="5.5394">
        <ele>1691.58</ele>
        <time>2021-03-28T10:23:42Z</time>
      </trkpt>
      <trkpt lat="45.00111" lon="5.53954">
        <ele>1694.94</ele>
        <time>2021-03-28T10:23:57Z</time>
      </trkpt>
      <trkpt lat="45.00112" lon="5.5397">
        <ele>1697.83</ele>
        <time>2021-03-28T10:24:13Z</time>
      </trkpt>
      <trkpt lat="45.00113" lon="5.53972">
        <ele>1698.79</ele>
        <time>2021-03-28T10:24:16Z</time>
      </trkpt>
      <trkpt lat="45.00113" lon="5.53974">
        <ele>1698.79</ele>
        <time>2021-03-28T10:24:18Z</time>
      </trkpt>
      <trkpt lat="45.00113" lon="5.53975">
        <ele>1698.79</ele>
        <time>2021-03-28T10:24:19Z</time>
      </trkpt>
      <trkpt lat="45.00115" lon="5.53994">
        <ele>1702.15</ele>
        <time>2021-03-28T10:24:37Z</time>
      </trkpt>
      <trkpt lat="45.00117" lon="5.5401">
        <ele>1704.07</ele>
        <time>2021-03-28T10:24:50Z</time>
      </trkpt>
      <trkpt lat="45.00118" lon="5.54011">
        <ele>1704.07</ele>
        <time>2021-03-28T10:24:51Z</time>
      </trkpt>
      <trkpt lat="45.00118" lon="5.54013">
        <ele>1704.07</ele>
        <time>2021-03-28T10:24:52Z</time>
      </trkpt>
      <trkpt lat="45.00118" lon="5.54014">
        <ele>1704.07</ele>
        <time>2021-03-28T10:24:53Z</time>
      </trkpt>
      <trkpt lat="45.00119" lon="5.54019">
        <ele>1704.55</ele>
        <time>2021-03-28T10:24:57Z</time>
      </trkpt>
      <trkpt lat="45.0012" lon="5.54022">
        <ele>1705.04</ele>
        <time>2021-03-28T10:25:00Z</time>
      </trkpt>
      <trkpt lat="45.00122" lon="5.54039">
        <ele>1708.4</ele>
        <time>2021-03-28T10:25:17Z</time>
      </trkpt>
      <trkpt lat="45.00125" lon="5.5404">
        <ele>1711.76</ele>
        <time>2021-03-28T10:25:31Z</time>
      </trkpt>
      <trkpt lat="45.00124" lon="5.54041">
        <ele>1711.76</ele>
        <time>2021-03-28T10:25:33Z</time>
      </trkpt>
      <trkpt lat="45.00126" lon="5.54045">
        <ele>1712.25</ele>
        <time>2021-03-28T10:25:36Z</time>
      </trkpt>
      <trkpt lat="45.00121" lon="5.54063">
        <ele>1715.61</ele>
        <time>2021-03-28T10:25:53Z</time>
      </trkpt>
      <trkpt lat="45.0012" lon="5.54066">
        <ele>1717.53</ele>
        <time>2021-03-28T10:26:04Z</time>
      </trkpt>
      <trkpt lat="45.0013" lon="5.54068">
        <ele>1720.42</ele>
        <time>2021-03-28T10:26:18Z</time>
      </trkpt>
      <trkpt lat="45.0013" lon="5.54069">
        <ele>1720.42</ele>
        <time>2021-03-28T10:26:19Z</time>
      </trkpt>
      <trkpt lat="45.00129" lon="5.5407">
        <ele>1720.9</ele>
        <time>2021-03-28T10:26:20Z</time>
      </trkpt>
      <trkpt lat="45.00128" lon="5.54074">
        <ele>1721.86</ele>
        <time>2021-03-28T10:26:29Z</time>
      </trkpt>
      <trkpt lat="45.00131" lon="5.54074">
        <ele>1722.82</ele>
        <time>2021-03-28T10:26:32Z</time>
      </trkpt>
      <trkpt lat="45.00132" lon="5.54074">
        <ele>1722.82</ele>
        <time>2021-03-28T10:26:33Z</time>
      </trkpt>
      <trkpt lat="45.00135" lon="5.54075">
        <ele>1723.78</ele>
        <time>2021-03-28T10:26:37Z</time>
      </trkpt>
      <trkpt lat="45.00139" lon="5.54078">
        <ele>1727.15</ele>
        <time>2021-03-28T10:26:55Z</time>
      </trkpt>
      <trkpt lat="45.0014" lon="5.54083">
        <ele>1728.59</ele>
        <time>2021-03-28T10:27:02Z</time>
      </trkpt>
      <trkpt lat="45.0014" lon="5.54085">
        <ele>1728.59</ele>
        <time>2021-03-28T10:27:04Z</time>
      </trkpt>
      <trkpt lat="45.00142" lon="5.5409">
        <ele>1731.95</ele>
        <time>2021-03-28T10:27:16Z</time>
      </trkpt>
      <trkpt lat="45.00144" lon="5.54103">
        <ele>1734.84</ele>
        <time>2021-03-28T10:27:27Z</time>
      </trkpt>
      <trkpt lat="45.00146" lon="5.54108">
        <ele>1735.8</ele>
        <time>2021-03-28T10:27:30Z</time>
      </trkpt>
      <trkpt lat="45.00146" lon="5.54109">
        <ele>1735.8</ele>
        <time>2021-03-28T10:27:31Z</time>
      </trkpt>
      <trkpt lat="45.00146" lon="5.54114">
        <ele>1737.24</ele>
        <time>2021-03-28T10:27:36Z</time>
      </trkpt>
      <trkpt lat="45.00142" lon="5.54113">
        <ele>1738.2</ele>
        <time>2021-03-28T10:27:59Z</time>
      </trkpt>
      <trkpt lat="45.00144" lon="5.54115">
        <ele>1738.2</ele>
        <time>2021-03-28T10:28:02Z</time>
      </trkpt>
      <trkpt lat="45.00147" lon="5.54117">
        <ele>1738.2</ele>
        <time>2021-03-28T10:28:07Z</time>
      </trkpt>
      <trkpt lat="45.00148" lon="5.54118">
        <ele>1738.2</ele>
        <time>2021-03-28T10:28:08Z</time>
      </trkpt>
      <trkpt lat="45.00154" lon="5.54117">
        <ele>1738.2</ele>
        <time>2021-03-28T10:28:24Z</time>
      </trkpt>
      <trkpt lat="45.00172" lon="5.54133">
        <ele>1738.2</ele>
        <time>2021-03-28T10:28:55Z</time>
      </trkpt>
      <trkpt lat="45.00171" lon="5.54133">
        <ele>1738.2</ele>
        <time>2021-03-28T10:28:57Z</time>
      </trkpt>
      <trkpt lat="45.00169" lon="5.54133">
        <ele>1738.2</ele>
        <time>2021-03-28T10:29:00Z</time>
      </trkpt>
      <trkpt lat="45.00168" lon="5.54135">
        <ele>1738.2</ele>
        <time>2021-03-28T10:29:06Z</time>
      </trkpt>
      <trkpt lat="45.00152" lon="5.54125">
        <ele>1737.72</ele>
        <time>2021-03-28T10:29:30Z</time>
      </trkpt>
      <trkpt lat="45.00144" lon="5.54118">
        <ele>1738.2</ele>
        <time>2021-03-28T10:30:17Z</time>
      </trkpt>
      <trkpt lat="45.00143" lon="5.54117">
        <ele>1738.2</ele>
        <time>2021-03-28T10:30:18Z</time>
      </trkpt>
      <trkpt lat="45.00146" lon="5.54117">
        <ele>1738.2</ele>
        <time>2021-03-28T10:30:46Z</time>
      </trkpt>
      <trkpt lat="45.00147" lon="5.5412">
        <ele>1738.2</ele>
        <time>2021-03-28T10:30:55Z</time>
      </trkpt>
      <trkpt lat="45.00151" lon="5.54117">
        <ele>1738.2</ele>
        <time>2021-03-28T10:31:14Z</time>
      </trkpt>
      <trkpt lat="45.00154" lon="5.54119">
        <ele>1738.2</ele>
        <time>2021-03-28T10:31:17Z</time>
      </trkpt>
      <trkpt lat="45.00163" lon="5.54121">
        <ele>1738.2</ele>
        <time>2021-03-28T10:31:31Z</time>
      </trkpt>
      <trkpt lat="45.00153" lon="5.54116">
        <ele>1738.2</ele>
        <time>2021-03-28T10:31:37Z</time>
      </trkpt>
      <trkpt lat="45.00154" lon="5.54115">
        <ele>1738.68</ele>
        <time>2021-03-28T10:31:48Z</time>
      </trkpt>
      <trkpt lat="45.0016" lon="5.54128">
        <ele>1741.57</ele>
        <time>2021-03-28T10:32:07Z</time>
      </trkpt>
      <trkpt lat="45.0016" lon="5.54129">
        <ele>1741.57</ele>
        <time>2021-03-28T10:32:08Z</time>
      </trkpt>
      <trkpt lat="45.00161" lon="5.5413">
        <ele>1741.57</ele>
        <time>2021-03-28T10:32:09Z</time>
      </trkpt>
      <trkpt lat="45.00163" lon="5.54145">
        <ele>1744.93</ele>
        <time>2021-03-28T10:32:22Z</time>
      </trkpt>
      <trkpt lat="45.00163" lon="5.54162">
        <ele>1747.81</ele>
        <time>2021-03-28T10:32:38Z</time>
      </trkpt>
      <trkpt lat="45.00163" lon="5.54169">
        <ele>1748.78</ele>
        <time>2021-03-28T10:32:45Z</time>
      </trkpt>
      <trkpt lat="45.00164" lon="5.54186">
        <ele>1752.14</ele>
        <time>2021-03-28T10:33:00Z</time>
      </trkpt>
      <trkpt lat="45.00163" lon="5.54202">
        <ele>1755.02</ele>
        <time>2021-03-28T10:33:14Z</time>
      </trkpt>
      <trkpt lat="45.00164" lon="5.54206">
        <ele>1755.99</ele>
        <time>2021-03-28T10:33:18Z</time>
      </trkpt>
      <trkpt lat="45.00164" lon="5.5422">
        <ele>1758.87</ele>
        <time>2021-03-28T10:33:30Z</time>
      </trkpt>
      <trkpt lat="45.00158" lon="5.54231">
        <ele>1761.27</ele>
        <time>2021-03-28T10:33:42Z</time>
      </trkpt>
      <trkpt lat="45.00158" lon="5.54234">
        <ele>1761.75</ele>
        <time>2021-03-28T10:33:44Z</time>
      </trkpt>
      <trkpt lat="45.00155" lon="5.54247">
        <ele>1764.64</ele>
        <time>2021-03-28T10:33:59Z</time>
      </trkpt>
      <trkpt lat="45.00141" lon="5.54267">
        <ele>1767.52</ele>
        <time>2021-03-28T10:34:22Z</time>
      </trkpt>
      <trkpt lat="45.00127" lon="5.54278">
        <ele>1770.41</ele>
        <time>2021-03-28T10:34:42Z</time>
      </trkpt>
      <trkpt lat="45.00119" lon="5.5428">
        <ele>1770.89</ele>
        <time>2021-03-28T10:34:51Z</time>
      </trkpt>
      <trkpt lat="45.00115" lon="5.54274">
        <ele>1770.41</ele>
        <time>2021-03-28T10:35:11Z</time>
      </trkpt>
      <trkpt lat="45.00118" lon="5.54276">
        <ele>1770.41</ele>
        <time>2021-03-28T10:35:20Z</time>
      </trkpt>
      <trkpt lat="45.00118" lon="5.54279">
        <ele>1770.89</ele>
        <time>2021-03-28T10:35:31Z</time>
      </trkpt>
      <trkpt lat="45.00119" lon="5.54279">
        <ele>1770.89</ele>
        <time>2021-03-28T10:35:32Z</time>
      </trkpt>
      <trkpt lat="45.00118" lon="5.54276">
        <ele>1770.89</ele>
        <time>2021-03-28T10:36:04Z</time>
      </trkpt>
      <trkpt lat="45.00113" lon="5.54277">
        <ele>1770.41</ele>
        <time>2021-03-28T10:36:48Z</time>
      </trkpt>
      <trkpt lat="45.00117" lon="5.54278">
        <ele>1770.41</ele>
        <time>2021-03-28T10:36:52Z</time>
      </trkpt>
      <trkpt lat="45.00118" lon="5.54278">
        <ele>1770.41</ele>
        <time>2021-03-28T10:36:53Z</time>
      </trkpt>
      <trkpt lat="45.00122" lon="5.54283">
        <ele>1769.92</ele>
        <time>2021-03-28T10:37:11Z</time>
      </trkpt>
      <trkpt lat="45.00123" lon="5.54285">
        <ele>1770.41</ele>
        <time>2021-03-28T10:37:20Z</time>
      </trkpt>
      <trkpt lat="45.00127" lon="5.54288">
        <ele>1770.41</ele>
        <time>2021-03-28T10:37:27Z</time>
      </trkpt>
      <trkpt lat="45.00135" lon="5.54297">
        <ele>1770.41</ele>
        <time>2021-03-28T10:37:43Z</time>
      </trkpt>
      <trkpt lat="45.00133" lon="5.54297">
        <ele>1770.41</ele>
        <time>2021-03-28T10:37:45Z</time>
      </trkpt>
      <trkpt lat="45.00104" lon="5.54309">
        <ele>1772.33</ele>
        <time>2021-03-28T10:38:05Z</time>
      </trkpt>
      <trkpt lat="45.00099" lon="5.54315">
        <ele>1773.77</ele>
        <time>2021-03-28T10:38:12Z</time>
      </trkpt>
      <trkpt lat="45.00097" lon="5.54316">
        <ele>1773.77</ele>
        <time>2021-03-28T10:38:14Z</time>
      </trkpt>
      <trkpt lat="45.00096" lon="5.54317">
        <ele>1773.77</ele>
        <time>2021-03-28T10:38:15Z</time>
      </trkpt>
      <trkpt lat="45.00095" lon="5.54318">
        <ele>1773.77</ele>
        <time>2021-03-28T10:38:16Z</time>
      </trkpt>
      <trkpt lat="45.00094" lon="5.54318">
        <ele>1773.77</ele>
        <time>2021-03-28T10:38:17Z</time>
      </trkpt>
      <trkpt lat="45.00075" lon="5.54332">
        <ele>1774.73</ele>
        <time>2021-03-28T10:38:37Z</time>
      </trkpt>
      <trkpt lat="45.00054" lon="5.54342">
        <ele>1777.13</ele>
        <time>2021-03-28T10:39:03Z</time>
      </trkpt>
      <trkpt lat="45.00044" lon="5.54345">
        <ele>1777.13</ele>
        <time>2021-03-28T10:39:17Z</time>
      </trkpt>
      <trkpt lat="45.00043" lon="5.54344">
        <ele>1777.13</ele>
        <time>2021-03-28T10:39:18Z</time>
      </trkpt>
      <trkpt lat="45.00041" lon="5.54341">
        <ele>1777.13</ele>
        <time>2021-03-28T10:39:19Z</time>
      </trkpt>
      <trkpt lat="45.00027" lon="5.54327">
        <ele>1773.77</ele>
        <time>2021-03-28T10:39:26Z</time>
      </trkpt>
      <trkpt lat="45.0001" lon="5.54317">
        <ele>1770.89</ele>
        <time>2021-03-28T10:39:31Z</time>
      </trkpt>
      <trkpt lat="45" lon="5.54306">
        <ele>1767.52</ele>
        <time>2021-03-28T10:39:35Z</time>
      </trkpt>
      <trkpt lat="45.00001" lon="5.54302">
        <ele>1766.08</ele>
        <time>2021-03-28T10:39:36Z</time>
      </trkpt>
      <trkpt lat="45.00003" lon="5.54297">
        <ele>1763.2</ele>
        <time>2021-03-28T10:39:37Z</time>
      </trkpt>
      <trkpt lat="45.00005" lon="5.54291">
        <ele>1762.23</ele>
        <time>2021-03-28T10:39:38Z</time>
      </trkpt>
      <trkpt lat="45.00005" lon="5.54285">
        <ele>1761.75</ele>
        <time>2021-03-28T10:39:39Z</time>
      </trkpt>
      <trkpt lat="45.00002" lon="5.54281">
        <ele>1760.79</ele>
        <time>2021-03-28T10:39:40Z</time>
      </trkpt>
      <trkpt lat="44.99998" lon="5.54279">
        <ele>1759.35</ele>
        <time>2021-03-28T10:39:41Z</time>
      </trkpt>
      <trkpt lat="44.99994" lon="5.54276">
        <ele>1757.43</ele>
        <time>2021-03-28T10:39:42Z</time>
      </trkpt>
      <trkpt lat="44.99991" lon="5.5427">
        <ele>1755.5</ele>
        <time>2021-03-28T10:39:43Z</time>
      </trkpt>
      <trkpt lat="44.9999" lon="5.54262">
        <ele>1753.58</ele>
        <time>2021-03-28T10:39:44Z</time>
      </trkpt>
      <trkpt lat="44.99989" lon="5.54254">
        <ele>1752.62</ele>
        <time>2021-03-28T10:39:45Z</time>
      </trkpt>
      <trkpt lat="44.99988" lon="5.54247">
        <ele>1752.14</ele>
        <time>2021-03-28T10:39:46Z</time>
      </trkpt>
      <trkpt lat="44.99986" lon="5.54234">
        <ele>1750.22</ele>
        <time>2021-03-28T10:39:49Z</time>
      </trkpt>
      <trkpt lat="44.99986" lon="5.54233">
        <ele>1749.26</ele>
        <time>2021-03-28T10:40:00Z</time>
      </trkpt>
      <trkpt lat="44.99986" lon="5.54232">
        <ele>1749.26</ele>
        <time>2021-03-28T10:40:03Z</time>
      </trkpt>
      <trkpt lat="44.99981" lon="5.54228">
        <ele>1748.29</ele>
        <time>2021-03-28T10:40:10Z</time>
      </trkpt>
      <trkpt lat="44.99976" lon="5.54219">
        <ele>1747.81</ele>
        <time>2021-03-28T10:40:47Z</time>
      </trkpt>
      <trkpt lat="44.99975" lon="5.54218">
        <ele>1747.81</ele>
        <time>2021-03-28T10:40:48Z</time>
      </trkpt>
      <trkpt lat="44.9997" lon="5.54202">
        <ele>1748.29</ele>
        <time>2021-03-28T10:41:00Z</time>
      </trkpt>
      <trkpt lat="44.99969" lon="5.54202">
        <ele>1748.29</ele>
        <time>2021-03-28T10:41:01Z</time>
      </trkpt>
      <trkpt lat="44.99964" lon="5.54194">
        <ele>1748.78</ele>
        <time>2021-03-28T10:41:06Z</time>
      </trkpt>
      <trkpt lat="44.99964" lon="5.54191">
        <ele>1748.29</ele>
        <time>2021-03-28T10:41:07Z</time>
      </trkpt>
      <trkpt lat="44.99969" lon="5.54183">
        <ele>1748.29</ele>
        <time>2021-03-28T10:41:13Z</time>
      </trkpt>
      <trkpt lat="44.9997" lon="5.54181">
        <ele>1748.29</ele>
        <time>2021-03-28T10:41:15Z</time>
      </trkpt>
      <trkpt lat="44.9997" lon="5.5418">
        <ele>1748.78</ele>
        <time>2021-03-28T10:41:16Z</time>
      </trkpt>
      <trkpt lat="44.99967" lon="5.54168">
        <ele>1749.26</ele>
        <time>2021-03-28T10:41:25Z</time>
      </trkpt>
      <trkpt lat="44.99967" lon="5.54167">
        <ele>1748.78</ele>
        <time>2021-03-28T10:41:26Z</time>
      </trkpt>
      <trkpt lat="44.99966" lon="5.54166">
        <ele>1748.78</ele>
        <time>2021-03-28T10:41:27Z</time>
      </trkpt>
      <trkpt lat="44.99957" lon="5.54159">
        <ele>1748.29</ele>
        <time>2021-03-28T10:41:36Z</time>
      </trkpt>
      <trkpt lat="44.99956" lon="5.54158">
        <ele>1748.78</ele>
        <time>2021-03-28T10:41:37Z</time>
      </trkpt>
      <trkpt lat="44.99953" lon="5.54156">
        <ele>1748.78</ele>
        <time>2021-03-28T10:41:40Z</time>
      </trkpt>
      <trkpt lat="44.99946" lon="5.54138">
        <ele>1745.41</ele>
        <time>2021-03-28T10:41:47Z</time>
      </trkpt>
      <trkpt lat="44.99944" lon="5.54138">
        <ele>1745.41</ele>
        <time>2021-03-28T10:41:48Z</time>
      </trkpt>
      <trkpt lat="44.99943" lon="5.54139">
        <ele>1744.93</ele>
        <time>2021-03-28T10:41:49Z</time>
      </trkpt>
      <trkpt lat="44.99942" lon="5.54141">
        <ele>1744.93</ele>
        <time>2021-03-28T10:41:50Z</time>
      </trkpt>
      <trkpt lat="44.99941" lon="5.54143">
        <ele>1744.45</ele>
        <time>2021-03-28T10:41:51Z</time>
      </trkpt>
      <trkpt lat="44.99941" lon="5.54146">
        <ele>1743.97</ele>
        <time>2021-03-28T10:41:52Z</time>
      </trkpt>
      <trkpt lat="44.99941" lon="5.54149">
        <ele>1743.97</ele>
        <time>2021-03-28T10:41:53Z</time>
      </trkpt>
      <trkpt lat="44.99937" lon="5.54167">
        <ele>1740.6</ele>
        <time>2021-03-28T10:41:59Z</time>
      </trkpt>
      <trkpt lat="44.99924" lon="5.54175">
        <ele>1738.68</ele>
        <time>2021-03-28T10:42:31Z</time>
      </trkpt>
      <trkpt lat="44.99918" lon="5.54176">
        <ele>1738.68</ele>
        <time>2021-03-28T10:42:42Z</time>
      </trkpt>
      <trkpt lat="44.99915" lon="5.54175">
        <ele>1738.68</ele>
        <time>2021-03-28T10:42:45Z</time>
      </trkpt>
      <trkpt lat="44.99914" lon="5.54174">
        <ele>1738.68</ele>
        <time>2021-03-28T10:42:46Z</time>
      </trkpt>
      <trkpt lat="44.99912" lon="5.54173">
        <ele>1738.68</ele>
        <time>2021-03-28T10:42:47Z</time>
      </trkpt>
      <trkpt lat="44.99904" lon="5.5417">
        <ele>1738.68</ele>
        <time>2021-03-28T10:42:55Z</time>
      </trkpt>
      <trkpt lat="44.99893" lon="5.54167">
        <ele>1738.68</ele>
        <time>2021-03-28T10:43:03Z</time>
      </trkpt>
      <trkpt lat="44.99892" lon="5.54166">
        <ele>1738.68</ele>
        <time>2021-03-28T10:43:04Z</time>
      </trkpt>
      <trkpt lat="44.9989" lon="5.54166">
        <ele>1738.68</ele>
        <time>2021-03-28T10:43:05Z</time>
      </trkpt>
      <trkpt lat="44.99889" lon="5.54165">
        <ele>1738.68</ele>
        <time>2021-03-28T10:43:06Z</time>
      </trkpt>
      <trkpt lat="44.99875" lon="5.5416">
        <ele>1739.16</ele>
        <time>2021-03-28T10:43:18Z</time>
      </trkpt>
      <trkpt lat="44.99874" lon="5.5416">
        <ele>1739.64</ele>
        <time>2021-03-28T10:43:19Z</time>
      </trkpt>
      <trkpt lat="44.99873" lon="5.5416">
        <ele>1739.64</ele>
        <time>2021-03-28T10:43:20Z</time>
      </trkpt>
      <trkpt lat="44.99872" lon="5.5416">
        <ele>1739.64</ele>
        <time>2021-03-28T10:43:21Z</time>
      </trkpt>
      <trkpt lat="44.99871" lon="5.5416">
        <ele>1739.64</ele>
        <time>2021-03-28T10:43:22Z</time>
      </trkpt>
      <trkpt lat="44.99851" lon="5.54157">
        <ele>1741.57</ele>
        <time>2021-03-28T10:43:42Z</time>
      </trkpt>
      <trkpt lat="44.99831" lon="5.54151">
        <ele>1743.01</ele>
        <time>2021-03-28T10:44:00Z</time>
      </trkpt>
      <trkpt lat="44.99818" lon="5.54152">
        <ele>1741.57</ele>
        <time>2021-03-28T10:44:09Z</time>
      </trkpt>
      <trkpt lat="44.9981" lon="5.54152">
        <ele>1742.53</ele>
        <time>2021-03-28T10:44:17Z</time>
      </trkpt>
      <trkpt lat="44.99809" lon="5.54152">
        <ele>1742.53</ele>
        <time>2021-03-28T10:44:18Z</time>
      </trkpt>
      <trkpt lat="44.99801" lon="5.54156">
        <ele>1743.01</ele>
        <time>2021-03-28T10:44:26Z</time>
      </trkpt>
      <trkpt lat="44.998" lon="5.54157">
        <ele>1743.01</ele>
        <time>2021-03-28T10:44:27Z</time>
      </trkpt>
      <trkpt lat="44.99799" lon="5.54157">
        <ele>1743.01</ele>
        <time>2021-03-28T10:44:28Z</time>
      </trkpt>
      <trkpt lat="44.99778" lon="5.54161">
        <ele>1743.49</ele>
        <time>2021-03-28T10:44:46Z</time>
      </trkpt>
      <trkpt lat="44.9976" lon="5.54146">
        <ele>1744.45</ele>
        <time>2021-03-28T10:45:06Z</time>
      </trkpt>
      <trkpt lat="44.99746" lon="5.5413">
        <ele>1747.81</ele>
        <time>2021-03-28T10:45:28Z</time>
      </trkpt>
      <trkpt lat="44.99729" lon="5.5412">
        <ele>1750.7</ele>
        <time>2021-03-28T10:45:48Z</time>
      </trkpt>
      <trkpt lat="44.99728" lon="5.5412">
        <ele>1750.7</ele>
        <time>2021-03-28T10:45:49Z</time>
      </trkpt>
      <trkpt lat="44.99716" lon="5.54118">
        <ele>1752.62</ele>
        <time>2021-03-28T10:46:02Z</time>
      </trkpt>
      <trkpt lat="44.99715" lon="5.54118">
        <ele>1752.62</ele>
        <time>2021-03-28T10:46:03Z</time>
      </trkpt>
      <trkpt lat="44.99712" lon="5.5412">
        <ele>1753.1</ele>
        <time>2021-03-28T10:46:06Z</time>
      </trkpt>
      <trkpt lat="44.99696" lon="5.54134">
        <ele>1754.54</ele>
        <time>2021-03-28T10:46:24Z</time>
      </trkpt>
      <trkpt lat="44.99688" lon="5.54136">
        <ele>1754.06</ele>
        <time>2021-03-28T10:46:31Z</time>
      </trkpt>
      <trkpt lat="44.99685" lon="5.54137">
        <ele>1754.06</ele>
        <time>2021-03-28T10:46:35Z</time>
      </trkpt>
      <trkpt lat="44.99684" lon="5.54137">
        <ele>1754.54</ele>
        <time>2021-03-28T10:46:36Z</time>
      </trkpt>
      <trkpt lat="44.9967" lon="5.54143">
        <ele>1755.99</ele>
        <time>2021-03-28T10:46:49Z</time>
      </trkpt>
      <trkpt lat="44.99655" lon="5.54152">
        <ele>1759.35</ele>
        <time>2021-03-28T10:47:09Z</time>
      </trkpt>
      <trkpt lat="44.99637" lon="5.54161">
        <ele>1762.23</ele>
        <time>2021-03-28T10:47:28Z</time>
      </trkpt>
      <trkpt lat="44.99631" lon="5.54161">
        <ele>1762.71</ele>
        <time>2021-03-28T10:47:35Z</time>
      </trkpt>
      <trkpt lat="44.99627" lon="5.54164">
        <ele>1763.68</ele>
        <time>2021-03-28T10:47:41Z</time>
      </trkpt>
      <trkpt lat="44.99615" lon="5.54173">
        <ele>1767.04</ele>
        <time>2021-03-28T10:47:58Z</time>
      </trkpt>
      <trkpt lat="44.99599" lon="5.54183">
        <ele>1769.92</ele>
        <time>2021-03-28T10:48:15Z</time>
      </trkpt>
      <trkpt lat="44.99585" lon="5.54188">
        <ele>1772.81</ele>
        <time>2021-03-28T10:48:33Z</time>
      </trkpt>
      <trkpt lat="44.99569" lon="5.54195">
        <ele>1776.17</ele>
        <time>2021-03-28T10:48:50Z</time>
      </trkpt>
      <trkpt lat="44.99559" lon="5.54206">
        <ele>1779.06</ele>
        <time>2021-03-28T10:49:05Z</time>
      </trkpt>
      <trkpt lat="44.99551" lon="5.54213">
        <ele>1782.42</ele>
        <time>2021-03-28T10:49:17Z</time>
      </trkpt>
      <trkpt lat="44.99549" lon="5.54213">
        <ele>1782.42</ele>
        <time>2021-03-28T10:49:19Z</time>
      </trkpt>
      <trkpt lat="44.99548" lon="5.54213">
        <ele>1782.42</ele>
        <time>2021-03-28T10:49:20Z</time>
      </trkpt>
      <trkpt lat="44.99547" lon="5.54212">
        <ele>1782.9</ele>
        <time>2021-03-28T10:49:21Z</time>
      </trkpt>
      <trkpt lat="44.99546" lon="5.54211">
        <ele>1783.38</ele>
        <time>2021-03-28T10:49:22Z</time>
      </trkpt>
      <trkpt lat="44.99545" lon="5.5421">
        <ele>1783.38</ele>
        <time>2021-03-28T10:49:23Z</time>
      </trkpt>
      <trkpt lat="44.99539" lon="5.54195">
        <ele>1786.27</ele>
        <time>2021-03-28T10:49:36Z</time>
      </trkpt>
      <trkpt lat="44.99531" lon="5.54177">
        <ele>1789.63</ele>
        <time>2021-03-28T10:49:51Z</time>
      </trkpt>
      <trkpt lat="44.99529" lon="5.54169">
        <ele>1790.59</ele>
        <time>2021-03-28T10:49:57Z</time>
      </trkpt>
      <trkpt lat="44.99529" lon="5.54167">
        <ele>1790.59</ele>
        <time>2021-03-28T10:49:58Z</time>
      </trkpt>
      <trkpt lat="44.99532" lon="5.54148">
        <ele>1793</ele>
        <time>2021-03-28T10:50:11Z</time>
      </trkpt>
      <trkpt lat="44.99532" lon="5.54147">
        <ele>1793.48</ele>
        <time>2021-03-28T10:50:12Z</time>
      </trkpt>
      <trkpt lat="44.99532" lon="5.54145">
        <ele>1793.96</ele>
        <time>2021-03-28T10:50:13Z</time>
      </trkpt>
      <trkpt lat="44.99532" lon="5.54143">
        <ele>1793.96</ele>
        <time>2021-03-28T10:50:14Z</time>
      </trkpt>
      <trkpt lat="44.99537" lon="5.54128">
        <ele>1796.84</ele>
        <time>2021-03-28T10:50:30Z</time>
      </trkpt>
      <trkpt lat="44.99532" lon="5.54132">
        <ele>1798.28</ele>
        <time>2021-03-28T10:50:36Z</time>
      </trkpt>
      <trkpt lat="44.99525" lon="5.54138">
        <ele>1800.21</ele>
        <time>2021-03-28T10:50:46Z</time>
      </trkpt>
      <trkpt lat="44.99524" lon="5.54139">
        <ele>1800.69</ele>
        <time>2021-03-28T10:50:48Z</time>
      </trkpt>
      <trkpt lat="44.99517" lon="5.54144">
        <ele>1802.13</ele>
        <time>2021-03-28T10:50:56Z</time>
      </trkpt>
      <trkpt lat="44.99513" lon="5.54147">
        <ele>1803.09</ele>
        <time>2021-03-28T10:51:01Z</time>
      </trkpt>
      <trkpt lat="44.99512" lon="5.54147">
        <ele>1803.09</ele>
        <time>2021-03-28T10:51:02Z</time>
      </trkpt>
      <trkpt lat="44.995" lon="5.54156">
        <ele>1806.45</ele>
        <time>2021-03-28T10:51:17Z</time>
      </trkpt>
      <trkpt lat="44.9949" lon="5.54162">
        <ele>1809.34</ele>
        <time>2021-03-28T10:51:33Z</time>
      </trkpt>
      <trkpt lat="44.99479" lon="5.54174">
        <ele>1812.7</ele>
        <time>2021-03-28T10:51:49Z</time>
      </trkpt>
      <trkpt lat="44.9947" lon="5.54184">
        <ele>1815.59</ele>
        <time>2021-03-28T10:52:01Z</time>
      </trkpt>
      <trkpt lat="44.99463" lon="5.54185">
        <ele>1817.99</ele>
        <time>2021-03-28T10:52:13Z</time>
      </trkpt>
      <trkpt lat="44.99463" lon="5.54183">
        <ele>1817.99</ele>
        <time>2021-03-28T10:52:14Z</time>
      </trkpt>
      <trkpt lat="44.99463" lon="5.54182">
        <ele>1817.99</ele>
        <time>2021-03-28T10:52:15Z</time>
      </trkpt>
      <trkpt lat="44.99463" lon="5.5418">
        <ele>1818.47</ele>
        <time>2021-03-28T10:52:16Z</time>
      </trkpt>
      <trkpt lat="44.99463" lon="5.54179">
        <ele>1818.47</ele>
        <time>2021-03-28T10:52:17Z</time>
      </trkpt>
      <trkpt lat="44.99468" lon="5.54161">
        <ele>1821.84</ele>
        <time>2021-03-28T10:52:32Z</time>
      </trkpt>
      <trkpt lat="44.99467" lon="5.5416">
        <ele>1822.32</ele>
        <time>2021-03-28T10:52:35Z</time>
      </trkpt>
      <trkpt lat="44.99463" lon="5.54166">
        <ele>1823.76</ele>
        <time>2021-03-28T10:52:43Z</time>
      </trkpt>
      <trkpt lat="44.99462" lon="5.54167">
        <ele>1823.76</ele>
        <time>2021-03-28T10:52:44Z</time>
      </trkpt>
      <trkpt lat="44.99451" lon="5.5418">
        <ele>1826.64</ele>
        <time>2021-03-28T10:53:01Z</time>
      </trkpt>
      <trkpt lat="44.99444" lon="5.54191">
        <ele>1829.05</ele>
        <time>2021-03-28T10:53:14Z</time>
      </trkpt>
      <trkpt lat="44.99437" lon="5.54204">
        <ele>1831.93</ele>
        <time>2021-03-28T10:53:31Z</time>
      </trkpt>
      <trkpt lat="44.99429" lon="5.54217">
        <ele>1835.29</ele>
        <time>2021-03-28T10:53:49Z</time>
      </trkpt>
      <trkpt lat="44.99421" lon="5.54231">
        <ele>1838.18</ele>
        <time>2021-03-28T10:54:05Z</time>
      </trkpt>
      <trkpt lat="44.99413" lon="5.54247">
        <ele>1841.54</ele>
        <time>2021-03-28T10:54:21Z</time>
      </trkpt>
      <trkpt lat="44.99408" lon="5.54252">
        <ele>1843.47</ele>
        <time>2021-03-28T10:54:33Z</time>
      </trkpt>
      <trkpt lat="44.99404" lon="5.54239">
        <ele>1846.83</ele>
        <time>2021-03-28T10:54:47Z</time>
      </trkpt>
      <trkpt lat="44.994" lon="5.54242">
        <ele>1847.79</ele>
        <time>2021-03-28T10:54:55Z</time>
      </trkpt>
      <trkpt lat="44.99395" lon="5.54249">
        <ele>1849.23</ele>
        <time>2021-03-28T10:55:04Z</time>
      </trkpt>
      <trkpt lat="44.99394" lon="5.54251">
        <ele>1849.71</ele>
        <time>2021-03-28T10:55:05Z</time>
      </trkpt>
      <trkpt lat="44.99389" lon="5.54268">
        <ele>1852.6</ele>
        <time>2021-03-28T10:55:21Z</time>
      </trkpt>
      <trkpt lat="44.99382" lon="5.54264">
        <ele>1854.04</ele>
        <time>2021-03-28T10:55:32Z</time>
      </trkpt>
      <trkpt lat="44.99379" lon="5.54257">
        <ele>1855.48</ele>
        <time>2021-03-28T10:55:39Z</time>
      </trkpt>
      <trkpt lat="44.99375" lon="5.54247">
        <ele>1858.37</ele>
        <time>2021-03-28T10:55:54Z</time>
      </trkpt>
      <trkpt lat="44.99372" lon="5.54248">
        <ele>1859.33</ele>
        <time>2021-03-28T10:55:57Z</time>
      </trkpt>
      <trkpt lat="44.99358" lon="5.54259">
        <ele>1862.21</ele>
        <time>2021-03-28T10:56:15Z</time>
      </trkpt>
      <trkpt lat="44.99351" lon="5.54264">
        <ele>1864.13</ele>
        <time>2021-03-28T10:56:26Z</time>
      </trkpt>
      <trkpt lat="44.99351" lon="5.54264">
        <ele>1864.61</ele>
        <time>2021-03-28T10:56:27Z</time>
      </trkpt>
      <trkpt lat="44.99341" lon="5.54256">
        <ele>1867.5</ele>
        <time>2021-03-28T10:56:41Z</time>
      </trkpt>
      <trkpt lat="44.99332" lon="5.54255">
        <ele>1870.38</ele>
        <time>2021-03-28T10:56:54Z</time>
      </trkpt>
      <trkpt lat="44.99325" lon="5.54254">
        <ele>1872.79</ele>
        <time>2021-03-28T10:57:03Z</time>
      </trkpt>
      <trkpt lat="44.99325" lon="5.54257">
        <ele>1872.79</ele>
        <time>2021-03-28T10:57:31Z</time>
      </trkpt>
      <trkpt lat="44.99323" lon="5.54258">
        <ele>1873.27</ele>
        <time>2021-03-28T10:57:52Z</time>
      </trkpt>
      <trkpt lat="44.99324" lon="5.54257">
        <ele>1872.79</ele>
        <time>2021-03-28T10:58:17Z</time>
      </trkpt>
      <trkpt lat="44.99323" lon="5.54258">
        <ele>1873.27</ele>
        <time>2021-03-28T10:58:44Z</time>
      </trkpt>
      <trkpt lat="44.99323" lon="5.5426">
        <ele>1873.27</ele>
        <time>2021-03-28T10:58:57Z</time>
      </trkpt>
      <trkpt lat="44.99323" lon="5.54259">
        <ele>1873.27</ele>
        <time>2021-03-28T10:59:08Z</time>
      </trkpt>
      <trkpt lat="44.99322" lon="5.54259">
        <ele>1873.27</ele>
        <time>2021-03-28T10:59:20Z</time>
      </trkpt>
      <trkpt lat="44.99322" lon="5.54258">
        <ele>1873.27</ele>
        <time>2021-03-28T10:59:31Z</time>
      </trkpt>
      <trkpt lat="44.99323" lon="5.54256">
        <ele>1873.27</ele>
        <time>2021-03-28T10:59:42Z</time>
      </trkpt>
      <trkpt lat="44.99324" lon="5.54257">
        <ele>1873.27</ele>
        <time>2021-03-28T10:59:53Z</time>
      </trkpt>
      <trkpt lat="44.99323" lon="5.54256">
        <ele>1873.27</ele>
        <time>2021-03-28T11:00:02Z</time>
      </trkpt>
      <trkpt lat="44.99323" lon="5.54254">
        <ele>1873.27</ele>
        <time>2021-03-28T11:00:16Z</time>
      </trkpt>
      <trkpt lat="44.99322" lon="5.54258">
        <ele>1873.27</ele>
        <time>2021-03-28T11:00:32Z</time>
      </trkpt>
      <trkpt lat="44.99322" lon="5.54258">
        <ele>1873.27</ele>
        <time>2021-03-28T11:00:48Z</time>
      </trkpt>
      <trkpt lat="44.99322" lon="5.54259">
        <ele>1873.27</ele>
        <time>2021-03-28T11:01:05Z</time>
      </trkpt>
      <trkpt lat="44.99322" lon="5.54256">
        <ele>1873.27</ele>
        <time>2021-03-28T11:01:24Z</time>
      </trkpt>
      <trkpt lat="44.99321" lon="5.54258">
        <ele>1873.27</ele>
        <time>2021-03-28T11:01:46Z</time>
      </trkpt>
      <trkpt lat="44.99321" lon="5.54256">
        <ele>1873.27</ele>
        <time>2021-03-28T11:02:11Z</time>
      </trkpt>
      <trkpt lat="44.9932" lon="5.54256">
        <ele>1873.27</ele>
        <time>2021-03-28T11:02:39Z</time>
      </trkpt>
      <trkpt lat="44.99322" lon="5.54256">
        <ele>1873.27</ele>
        <time>2021-03-28T11:03:12Z</time>
      </trkpt>
      <trkpt lat="44.99313" lon="5.54246">
        <ele>1876.63</ele>
        <time>2021-03-28T11:04:05Z</time>
      </trkpt>
      <trkpt lat="44.99311" lon="5.54241">
        <ele>1877.59</ele>
        <time>2021-03-28T11:04:11Z</time>
      </trkpt>
      <trkpt lat="44.99311" lon="5.54238">
        <ele>1878.07</ele>
        <time>2021-03-28T11:04:14Z</time>
      </trkpt>
      <trkpt lat="44.99309" lon="5.5422">
        <ele>1881.44</ele>
        <time>2021-03-28T11:04:33Z</time>
      </trkpt>
      <trkpt lat="44.99305" lon="5.54217">
        <ele>1882.4</ele>
        <time>2021-03-28T11:04:39Z</time>
      </trkpt>
      <trkpt lat="44.99304" lon="5.54211">
        <ele>1883.84</ele>
        <time>2021-03-28T11:04:46Z</time>
      </trkpt>
      <trkpt lat="44.99311" lon="5.54197">
        <ele>1887.21</ele>
        <time>2021-03-28T11:05:04Z</time>
      </trkpt>
      <trkpt lat="44.99312" lon="5.54195">
        <ele>1887.69</ele>
        <time>2021-03-28T11:05:07Z</time>
      </trkpt>
      <trkpt lat="44.99314" lon="5.5419">
        <ele>1888.65</ele>
        <time>2021-03-28T11:05:13Z</time>
      </trkpt>
      <trkpt lat="44.99318" lon="5.54176">
        <ele>1891.53</ele>
        <time>2021-03-28T11:05:31Z</time>
      </trkpt>
      <trkpt lat="44.99308" lon="5.54172">
        <ele>1894.42</ele>
        <time>2021-03-28T11:05:46Z</time>
      </trkpt>
      <trkpt lat="44.99299" lon="5.54168">
        <ele>1897.78</ele>
        <time>2021-03-28T11:06:02Z</time>
      </trkpt>
      <trkpt lat="44.99295" lon="5.54163">
        <ele>1899.22</ele>
        <time>2021-03-28T11:06:10Z</time>
      </trkpt>
      <trkpt lat="44.99287" lon="5.54157">
        <ele>1901.63</ele>
        <time>2021-03-28T11:06:23Z</time>
      </trkpt>
      <trkpt lat="44.9928" lon="5.54151">
        <ele>1904.03</ele>
        <time>2021-03-28T11:06:36Z</time>
      </trkpt>
      <trkpt lat="44.99279" lon="5.54151">
        <ele>1904.51</ele>
        <time>2021-03-28T11:06:37Z</time>
      </trkpt>
      <trkpt lat="44.99265" lon="5.5415">
        <ele>1907.87</ele>
        <time>2021-03-28T11:06:53Z</time>
      </trkpt>
      <trkpt lat="44.99254" lon="5.54156">
        <ele>1910.76</ele>
        <time>2021-03-28T11:07:09Z</time>
      </trkpt>
      <trkpt lat="44.99251" lon="5.54154">
        <ele>1911.72</ele>
        <time>2021-03-28T11:07:17Z</time>
      </trkpt>
      <trkpt lat="44.99252" lon="5.54153">
        <ele>1912.2</ele>
        <time>2021-03-28T11:07:18Z</time>
      </trkpt>
      <trkpt lat="44.99256" lon="5.54138">
        <ele>1914.6</ele>
        <time>2021-03-28T11:07:33Z</time>
      </trkpt>
      <trkpt lat="44.99257" lon="5.54136">
        <ele>1915.08</ele>
        <time>2021-03-28T11:07:35Z</time>
      </trkpt>
      <trkpt lat="44.99261" lon="5.54131">
        <ele>1917.97</ele>
        <time>2021-03-28T11:07:49Z</time>
      </trkpt>
      <trkpt lat="44.99256" lon="5.54131">
        <ele>1918.93</ele>
        <time>2021-03-28T11:07:56Z</time>
      </trkpt>
      <trkpt lat="44.99242" lon="5.54136">
        <ele>1921.81</ele>
        <time>2021-03-28T11:08:15Z</time>
      </trkpt>
      <trkpt lat="44.9924" lon="5.54132">
        <ele>1922.77</ele>
        <time>2021-03-28T11:08:23Z</time>
      </trkpt>
      <trkpt lat="44.99244" lon="5.54118">
        <ele>1925.18</ele>
        <time>2021-03-28T11:08:38Z</time>
      </trkpt>
      <trkpt lat="44.99244" lon="5.54117">
        <ele>1925.18</ele>
        <time>2021-03-28T11:08:39Z</time>
      </trkpt>
      <trkpt lat="44.99244" lon="5.54115">
        <ele>1925.18</ele>
        <time>2021-03-28T11:08:40Z</time>
      </trkpt>
      <trkpt lat="44.99245" lon="5.54102">
        <ele>1928.54</ele>
        <time>2021-03-28T11:08:56Z</time>
      </trkpt>
      <trkpt lat="44.99239" lon="5.54102">
        <ele>1930.46</ele>
        <time>2021-03-28T11:09:04Z</time>
      </trkpt>
      <trkpt lat="44.99228" lon="5.5411">
        <ele>1933.83</ele>
        <time>2021-03-28T11:09:23Z</time>
      </trkpt>
      <trkpt lat="44.99228" lon="5.54097">
        <ele>1935.75</ele>
        <time>2021-03-28T11:09:37Z</time>
      </trkpt>
      <trkpt lat="44.99227" lon="5.54096">
        <ele>1936.23</ele>
        <time>2021-03-28T11:09:39Z</time>
      </trkpt>
      <trkpt lat="44.99221" lon="5.54095">
        <ele>1939.6</ele>
        <time>2021-03-28T11:09:54Z</time>
      </trkpt>
      <trkpt lat="44.99213" lon="5.54098">
        <ele>1941.52</ele>
        <time>2021-03-28T11:10:05Z</time>
      </trkpt>
      <trkpt lat="44.99206" lon="5.54096">
        <ele>1944.4</ele>
        <time>2021-03-28T11:10:18Z</time>
      </trkpt>
      <trkpt lat="44.99204" lon="5.54085">
        <ele>1947.29</ele>
        <time>2021-03-28T11:10:34Z</time>
      </trkpt>
      <trkpt lat="44.99201" lon="5.54072">
        <ele>1950.17</ele>
        <time>2021-03-28T11:10:50Z</time>
      </trkpt>
      <trkpt lat="44.99195" lon="5.5406">
        <ele>1953.06</ele>
        <time>2021-03-28T11:11:06Z</time>
      </trkpt>
      <trkpt lat="44.99191" lon="5.54058">
        <ele>1953.54</ele>
        <time>2021-03-28T11:11:49Z</time>
      </trkpt>
      <trkpt lat="44.99192" lon="5.54057">
        <ele>1953.54</ele>
        <time>2021-03-28T11:12:07Z</time>
      </trkpt>
      <trkpt lat="44.99191" lon="5.54059">
        <ele>1953.54</ele>
        <time>2021-03-28T11:12:42Z</time>
      </trkpt>
      <trkpt lat="44.99189" lon="5.54057">
        <ele>1954.5</ele>
        <time>2021-03-28T11:13:18Z</time>
      </trkpt>
      <trkpt lat="44.99186" lon="5.54054">
        <ele>1955.46</ele>
        <time>2021-03-28T11:13:22Z</time>
      </trkpt>
      <trkpt lat="44.99186" lon="5.54053">
        <ele>1955.94</ele>
        <time>2021-03-28T11:13:23Z</time>
      </trkpt>
      <trkpt lat="44.99177" lon="5.54043">
        <ele>1959.3</ele>
        <time>2021-03-28T11:13:37Z</time>
      </trkpt>
      <trkpt lat="44.9917" lon="5.54031">
        <ele>1962.19</ele>
        <time>2021-03-28T11:13:50Z</time>
      </trkpt>
      <trkpt lat="44.99165" lon="5.54024">
        <ele>1963.63</ele>
        <time>2021-03-28T11:13:58Z</time>
      </trkpt>
      <trkpt lat="44.99164" lon="5.54023">
        <ele>1964.11</ele>
        <time>2021-03-28T11:14:00Z</time>
      </trkpt>
      <trkpt lat="44.99163" lon="5.54022">
        <ele>1964.59</ele>
        <time>2021-03-28T11:14:01Z</time>
      </trkpt>
      <trkpt lat="44.99157" lon="5.5401">
        <ele>1966.99</ele>
        <time>2021-03-28T11:14:14Z</time>
      </trkpt>
      <trkpt lat="44.99157" lon="5.54008">
        <ele>1967.48</ele>
        <time>2021-03-28T11:14:16Z</time>
      </trkpt>
      <trkpt lat="44.99157" lon="5.54006">
        <ele>1967.48</ele>
        <time>2021-03-28T11:14:17Z</time>
      </trkpt>
      <trkpt lat="44.99157" lon="5.54005">
        <ele>1967.96</ele>
        <time>2021-03-28T11:14:18Z</time>
      </trkpt>
      <trkpt lat="44.99158" lon="5.53998">
        <ele>1968.92</ele>
        <time>2021-03-28T11:14:23Z</time>
      </trkpt>
      <trkpt lat="44.99159" lon="5.53997">
        <ele>1969.4</ele>
        <time>2021-03-28T11:14:24Z</time>
      </trkpt>
      <trkpt lat="44.9916" lon="5.53996">
        <ele>1969.4</ele>
        <time>2021-03-28T11:14:25Z</time>
      </trkpt>
      <trkpt lat="44.9916" lon="5.53995">
        <ele>1969.4</ele>
        <time>2021-03-28T11:14:26Z</time>
      </trkpt>
      <trkpt lat="44.99161" lon="5.53994">
        <ele>1969.4</ele>
        <time>2021-03-28T11:14:27Z</time>
      </trkpt>
      <trkpt lat="44.99165" lon="5.53986">
        <ele>1971.32</ele>
        <time>2021-03-28T11:14:34Z</time>
      </trkpt>
      <trkpt lat="44.99165" lon="5.53985">
        <ele>1971.8</ele>
        <time>2021-03-28T11:14:36Z</time>
      </trkpt>
      <trkpt lat="44.99166" lon="5.53983">
        <ele>1972.28</ele>
        <time>2021-03-28T11:14:37Z</time>
      </trkpt>
      <trkpt lat="44.99166" lon="5.53979">
        <ele>1972.76</ele>
        <time>2021-03-28T11:14:41Z</time>
      </trkpt>
      <trkpt lat="44.99167" lon="5.5396">
        <ele>1975.17</ele>
        <time>2021-03-28T11:14:55Z</time>
      </trkpt>
      <trkpt lat="44.99168" lon="5.53949">
        <ele>1976.61</ele>
        <time>2021-03-28T11:15:04Z</time>
      </trkpt>
      <trkpt lat="44.99174" lon="5.53935">
        <ele>1979.01</ele>
        <time>2021-03-28T11:15:18Z</time>
      </trkpt>
      <trkpt lat="44.99175" lon="5.53929">
        <ele>1979.97</ele>
        <time>2021-03-28T11:15:24Z</time>
      </trkpt>
      <trkpt lat="44.99178" lon="5.53914">
        <ele>1983.34</ele>
        <time>2021-03-28T11:15:38Z</time>
      </trkpt>
      <trkpt lat="44.99181" lon="5.53895">
        <ele>1984.78</ele>
        <time>2021-03-28T11:15:53Z</time>
      </trkpt>
      <trkpt lat="44.99182" lon="5.53879">
        <ele>1984.3</ele>
        <time>2021-03-28T11:16:01Z</time>
      </trkpt>
      <trkpt lat="44.99182" lon="5.53878">
        <ele>1984.3</ele>
        <time>2021-03-28T11:16:02Z</time>
      </trkpt>
      <trkpt lat="44.99181" lon="5.53876">
        <ele>1984.3</ele>
        <time>2021-03-28T11:16:03Z</time>
      </trkpt>
      <trkpt lat="44.9918" lon="5.53869">
        <ele>1983.82</ele>
        <time>2021-03-28T11:16:06Z</time>
      </trkpt>
      <trkpt lat="44.9918" lon="5.53867">
        <ele>1983.82</ele>
        <time>2021-03-28T11:16:07Z</time>
      </trkpt>
      <trkpt lat="44.99179" lon="5.53866">
        <ele>1983.82</ele>
        <time>2021-03-28T11:16:08Z</time>
      </trkpt>
      <trkpt lat="44.99178" lon="5.53863">
        <ele>1983.82</ele>
        <time>2021-03-28T11:16:10Z</time>
      </trkpt>
      <trkpt lat="44.99177" lon="5.53862">
        <ele>1983.82</ele>
        <time>2021-03-28T11:16:11Z</time>
      </trkpt>
      <trkpt lat="44.9917" lon="5.53852">
        <ele>1983.82</ele>
        <time>2021-03-28T11:17:19Z</time>
      </trkpt>
      <trkpt lat="44.99169" lon="5.53851">
        <ele>1983.82</ele>
        <time>2021-03-28T11:17:51Z</time>
      </trkpt>
      <trkpt lat="44.99167" lon="5.53849">
        <ele>1983.82</ele>
        <time>2021-03-28T11:18:02Z</time>
      </trkpt>
      <trkpt lat="44.99166" lon="5.53848">
        <ele>1984.3</ele>
        <time>2021-03-28T11:18:03Z</time>
      </trkpt>
      <trkpt lat="44.99159" lon="5.53842">
        <ele>1984.78</ele>
        <time>2021-03-28T11:18:12Z</time>
      </trkpt>
      <trkpt lat="44.99158" lon="5.53842">
        <ele>1984.78</ele>
        <time>2021-03-28T11:18:13Z</time>
      </trkpt>
      <trkpt lat="44.9915" lon="5.5384">
        <ele>1985.26</ele>
        <time>2021-03-28T11:18:21Z</time>
      </trkpt>
      <trkpt lat="44.99149" lon="5.53839">
        <ele>1985.26</ele>
        <time>2021-03-28T11:18:22Z</time>
      </trkpt>
      <trkpt lat="44.99148" lon="5.53839">
        <ele>1985.26</ele>
        <time>2021-03-28T11:18:23Z</time>
      </trkpt>
      <trkpt lat="44.99147" lon="5.53837">
        <ele>1985.74</ele>
        <time>2021-03-28T11:18:24Z</time>
      </trkpt>
      <trkpt lat="44.99147" lon="5.53836">
        <ele>1986.22</ele>
        <time>2021-03-28T11:18:25Z</time>
      </trkpt>
      <trkpt lat="44.99147" lon="5.53835">
        <ele>1986.22</ele>
        <time>2021-03-28T11:18:26Z</time>
      </trkpt>
      <trkpt lat="44.99146" lon="5.53834">
        <ele>1986.22</ele>
        <time>2021-03-28T11:18:27Z</time>
      </trkpt>
      <trkpt lat="44.99146" lon="5.53832">
        <ele>1986.22</ele>
        <time>2021-03-28T11:18:28Z</time>
      </trkpt>
      <trkpt lat="44.99146" lon="5.53831">
        <ele>1986.7</ele>
        <time>2021-03-28T11:18:29Z</time>
      </trkpt>
      <trkpt lat="44.99143" lon="5.53822">
        <ele>1989.59</ele>
        <time>2021-03-28T11:18:42Z</time>
      </trkpt>
      <trkpt lat="44.99142" lon="5.53817">
        <ele>1990.55</ele>
        <time>2021-03-28T11:18:50Z</time>
      </trkpt>
      <trkpt lat="44.99142" lon="5.53816">
        <ele>1990.55</ele>
        <time>2021-03-28T11:18:51Z</time>
      </trkpt>
      <trkpt lat="44.99144" lon="5.5381">
        <ele>1991.99</ele>
        <time>2021-03-28T11:18:56Z</time>
      </trkpt>
      <trkpt lat="44.99145" lon="5.53807">
        <ele>1992.47</ele>
        <time>2021-03-28T11:18:59Z</time>
      </trkpt>
      <trkpt lat="44.99146" lon="5.53804">
        <ele>1992.95</ele>
        <time>2021-03-28T11:19:02Z</time>
      </trkpt>
      <trkpt lat="44.99146" lon="5.53799">
        <ele>1993.91</ele>
        <time>2021-03-28T11:19:59Z</time>
      </trkpt>
      <trkpt lat="44.99147" lon="5.53795">
        <ele>1993.91</ele>
        <time>2021-03-28T11:20:03Z</time>
      </trkpt>
      <trkpt lat="44.99147" lon="5.53793">
        <ele>1993.91</ele>
        <time>2021-03-28T11:20:04Z</time>
      </trkpt>
      <trkpt lat="44.99143" lon="5.53784">
        <ele>1994.87</ele>
        <time>2021-03-28T11:20:15Z</time>
      </trkpt>
      <trkpt lat="44.99128" lon="5.53778">
        <ele>1998.24</ele>
        <time>2021-03-28T11:20:39Z</time>
      </trkpt>
      <trkpt lat="44.99116" lon="5.53775">
        <ele>2001.6</ele>
        <time>2021-03-28T11:20:54Z</time>
      </trkpt>
      <trkpt lat="44.99112" lon="5.53773">
        <ele>2002.56</ele>
        <time>2021-03-28T11:20:59Z</time>
      </trkpt>
      <trkpt lat="44.99098" lon="5.53765">
        <ele>2005.45</ele>
        <time>2021-03-28T11:21:18Z</time>
      </trkpt>
      <trkpt lat="44.99087" lon="5.53757">
        <ele>2008.81</ele>
        <time>2021-03-28T11:22:12Z</time>
      </trkpt>
      <trkpt lat="44.99071" lon="5.53748">
        <ele>2011.22</ele>
        <time>2021-03-28T11:22:32Z</time>
      </trkpt>
      <trkpt lat="44.99053" lon="5.53738">
        <ele>2013.62</ele>
        <time>2021-03-28T11:22:52Z</time>
      </trkpt>
      <trkpt lat="44.99036" lon="5.53728">
        <ele>2015.54</ele>
        <time>2021-03-28T11:23:12Z</time>
      </trkpt>
      <trkpt lat="44.99034" lon="5.53727">
        <ele>2016.02</ele>
        <time>2021-03-28T11:23:14Z</time>
      </trkpt>
      <trkpt lat="44.99033" lon="5.53726">
        <ele>2016.02</ele>
        <time>2021-03-28T11:23:15Z</time>
      </trkpt>
      <trkpt lat="44.99024" lon="5.53724">
        <ele>2019.39</ele>
        <time>2021-03-28T11:23:29Z</time>
      </trkpt>
      <trkpt lat="44.99018" lon="5.53722">
        <ele>2022.27</ele>
        <time>2021-03-28T11:23:41Z</time>
      </trkpt>
      <trkpt lat="44.99004" lon="5.53719">
        <ele>2025.64</ele>
        <time>2021-03-28T11:24:28Z</time>
      </trkpt>
      <trkpt lat="44.98998" lon="5.53719">
        <ele>2027.56</ele>
        <time>2021-03-28T11:25:00Z</time>
      </trkpt>
      <trkpt lat="44.98988" lon="5.5372">
        <ele>2030.44</ele>
        <time>2021-03-28T11:25:16Z</time>
      </trkpt>
      <trkpt lat="44.9898" lon="5.53721">
        <ele>2033.81</ele>
        <time>2021-03-28T11:25:26Z</time>
      </trkpt>
      <trkpt lat="44.98971" lon="5.53725">
        <ele>2037.17</ele>
        <time>2021-03-28T11:25:35Z</time>
      </trkpt>
      <trkpt lat="44.98966" lon="5.53725">
        <ele>2039.57</ele>
        <time>2021-03-28T11:25:41Z</time>
      </trkpt>
      <trkpt lat="44.98964" lon="5.53725">
        <ele>2040.05</ele>
        <time>2021-03-28T11:25:43Z</time>
      </trkpt>
      <trkpt lat="44.98963" lon="5.53725">
        <ele>2040.54</ele>
        <time>2021-03-28T11:25:44Z</time>
      </trkpt>
      <trkpt lat="44.98961" lon="5.53722">
        <ele>2040.05</ele>
        <time>2021-03-28T11:28:15Z</time>
      </trkpt>
      <trkpt lat="44.98961" lon="5.53722">
        <ele>2039.57</ele>
        <time>2021-03-28T11:28:38Z</time>
      </trkpt>
      <trkpt lat="44.98962" lon="5.53723">
        <ele>2040.54</ele>
        <time>2021-03-28T11:29:07Z</time>
      </trkpt>
      <trkpt lat="44.98961" lon="5.53722">
        <ele>2040.05</ele>
        <time>2021-03-28T11:29:48Z</time>
      </trkpt>
      <trkpt lat="44.9896" lon="5.53722">
        <ele>2040.05</ele>
        <time>2021-03-28T11:30:20Z</time>
      </trkpt>
      <trkpt lat="44.98962" lon="5.53724">
        <ele>2040.54</ele>
        <time>2021-03-28T11:31:15Z</time>
      </trkpt>
      <trkpt lat="44.98962" lon="5.53725">
        <ele>2040.54</ele>
        <time>2021-03-28T11:31:51Z</time>
      </trkpt>
      <trkpt lat="44.98963" lon="5.53724">
        <ele>2040.54</ele>
        <time>2021-03-28T11:32:12Z</time>
      </trkpt>
      <trkpt lat="44.98962" lon="5.53724">
        <ele>2040.54</ele>
        <time>2021-03-28T11:32:26Z</time>
      </trkpt>
      <trkpt lat="44.9897" lon="5.53719">
        <ele>2039.57</ele>
        <time>2021-03-28T11:32:33Z</time>
      </trkpt>
      <trkpt lat="44.98973" lon="5.53717">
        <ele>2039.09</ele>
        <time>2021-03-28T11:32:34Z</time>
      </trkpt>
      <trkpt lat="44.98977" lon="5.53716">
        <ele>2037.65</ele>
        <time>2021-03-28T11:32:35Z</time>
      </trkpt>
      <trkpt lat="44.9898" lon="5.53717">
        <ele>2036.21</ele>
        <time>2021-03-28T11:32:36Z</time>
      </trkpt>
      <trkpt lat="44.98983" lon="5.5372">
        <ele>2035.25</ele>
        <time>2021-03-28T11:32:37Z</time>
      </trkpt>
      <trkpt lat="44.98986" lon="5.53723">
        <ele>2034.29</ele>
        <time>2021-03-28T11:32:38Z</time>
      </trkpt>
      <trkpt lat="44.98992" lon="5.53727">
        <ele>2032.84</ele>
        <time>2021-03-28T11:32:40Z</time>
      </trkpt>
      <trkpt lat="44.98995" lon="5.53726">
        <ele>2031.88</ele>
        <time>2021-03-28T11:32:41Z</time>
      </trkpt>
      <trkpt lat="44.98999" lon="5.53722">
        <ele>2030.44</ele>
        <time>2021-03-28T11:32:42Z</time>
      </trkpt>
      <trkpt lat="44.99003" lon="5.5372">
        <ele>2029</ele>
        <time>2021-03-28T11:32:43Z</time>
      </trkpt>
      <trkpt lat="44.99006" lon="5.53721">
        <ele>2028.04</ele>
        <time>2021-03-28T11:32:44Z</time>
      </trkpt>
      <trkpt lat="44.99008" lon="5.53723">
        <ele>2027.08</ele>
        <time>2021-03-28T11:32:45Z</time>
      </trkpt>
      <trkpt lat="44.9901" lon="5.53724">
        <ele>2026.6</ele>
        <time>2021-03-28T11:32:46Z</time>
      </trkpt>
      <trkpt lat="44.99013" lon="5.53724">
        <ele>2025.64</ele>
        <time>2021-03-28T11:32:47Z</time>
      </trkpt>
      <trkpt lat="44.99016" lon="5.53723">
        <ele>2025.15</ele>
        <time>2021-03-28T11:32:48Z</time>
      </trkpt>
      <trkpt lat="44.99018" lon="5.53724">
        <ele>2024.19</ele>
        <time>2021-03-28T11:32:49Z</time>
      </trkpt>
      <trkpt lat="44.9902" lon="5.53724">
        <ele>2023.71</ele>
        <time>2021-03-28T11:32:50Z</time>
      </trkpt>
      <trkpt lat="44.99022" lon="5.53724">
        <ele>2023.23</ele>
        <time>2021-03-28T11:32:51Z</time>
      </trkpt>
      <trkpt lat="44.99023" lon="5.53724">
        <ele>2022.75</ele>
        <time>2021-03-28T11:32:52Z</time>
      </trkpt>
      <trkpt lat="44.99026" lon="5.53724">
        <ele>2021.79</ele>
        <time>2021-03-28T11:32:53Z</time>
      </trkpt>
      <trkpt lat="44.99029" lon="5.53724">
        <ele>2020.83</ele>
        <time>2021-03-28T11:32:54Z</time>
      </trkpt>
      <trkpt lat="44.99036" lon="5.53727">
        <ele>2018.43</ele>
        <time>2021-03-28T11:32:56Z</time>
      </trkpt>
      <trkpt lat="44.9904" lon="5.53731">
        <ele>2017.46</ele>
        <time>2021-03-28T11:32:57Z</time>
      </trkpt>
      <trkpt lat="44.99045" lon="5.53735">
        <ele>2016.98</ele>
        <time>2021-03-28T11:32:58Z</time>
      </trkpt>
      <trkpt lat="44.99049" lon="5.53739">
        <ele>2016.02</ele>
        <time>2021-03-28T11:32:59Z</time>
      </trkpt>
      <trkpt lat="44.99054" lon="5.53741">
        <ele>2015.06</ele>
        <time>2021-03-28T11:33:00Z</time>
      </trkpt>
      <trkpt lat="44.99058" lon="5.53744">
        <ele>2014.58</ele>
        <time>2021-03-28T11:33:01Z</time>
      </trkpt>
      <trkpt lat="44.99077" lon="5.53754">
        <ele>2011.22</ele>
        <time>2021-03-28T11:33:06Z</time>
      </trkpt>
      <trkpt lat="44.99083" lon="5.53755">
        <ele>2010.25</ele>
        <time>2021-03-28T11:33:08Z</time>
      </trkpt>
      <trkpt lat="44.99088" lon="5.53757">
        <ele>2009.77</ele>
        <time>2021-03-28T11:33:09Z</time>
      </trkpt>
      <trkpt lat="44.99105" lon="5.5377">
        <ele>2006.41</ele>
        <time>2021-03-28T11:33:14Z</time>
      </trkpt>
      <trkpt lat="44.9912" lon="5.53777">
        <ele>2002.56</ele>
        <time>2021-03-28T11:33:20Z</time>
      </trkpt>
      <trkpt lat="44.99135" lon="5.53779">
        <ele>1998.72</ele>
        <time>2021-03-28T11:33:27Z</time>
      </trkpt>
      <trkpt lat="44.99138" lon="5.53781">
        <ele>1998.24</ele>
        <time>2021-03-28T11:33:28Z</time>
      </trkpt>
      <trkpt lat="44.99141" lon="5.53782">
        <ele>1997.28</ele>
        <time>2021-03-28T11:33:29Z</time>
      </trkpt>
      <trkpt lat="44.99144" lon="5.53783">
        <ele>1996.8</ele>
        <time>2021-03-28T11:33:30Z</time>
      </trkpt>
      <trkpt lat="44.99147" lon="5.53784">
        <ele>1995.83</ele>
        <time>2021-03-28T11:33:31Z</time>
      </trkpt>
      <trkpt lat="44.99153" lon="5.53785">
        <ele>1993.91</ele>
        <time>2021-03-28T11:33:33Z</time>
      </trkpt>
      <trkpt lat="44.99156" lon="5.53783">
        <ele>1993.43</ele>
        <time>2021-03-28T11:33:34Z</time>
      </trkpt>
      <trkpt lat="44.99175" lon="5.53765">
        <ele>1990.55</ele>
        <time>2021-03-28T11:33:41Z</time>
      </trkpt>
      <trkpt lat="44.99194" lon="5.5376">
        <ele>1989.59</ele>
        <time>2021-03-28T11:33:47Z</time>
      </trkpt>
      <trkpt lat="44.99202" lon="5.53761">
        <ele>1989.1</ele>
        <time>2021-03-28T11:33:54Z</time>
      </trkpt>
      <trkpt lat="44.99202" lon="5.53761">
        <ele>1988.62</ele>
        <time>2021-03-28T11:34:23Z</time>
      </trkpt>
      <trkpt lat="44.99204" lon="5.53761">
        <ele>1989.59</ele>
        <time>2021-03-28T11:34:51Z</time>
      </trkpt>
      <trkpt lat="44.9921" lon="5.53766">
        <ele>1991.03</ele>
        <time>2021-03-28T11:35:06Z</time>
      </trkpt>
      <trkpt lat="44.99216" lon="5.53769">
        <ele>1991.99</ele>
        <time>2021-03-28T11:35:15Z</time>
      </trkpt>
      <trkpt lat="44.99235" lon="5.53776">
        <ele>1992.47</ele>
        <time>2021-03-28T11:35:37Z</time>
      </trkpt>
      <trkpt lat="44.99243" lon="5.5378">
        <ele>1992.47</ele>
        <time>2021-03-28T11:35:53Z</time>
      </trkpt>
      <trkpt lat="44.99259" lon="5.53794">
        <ele>1991.99</ele>
        <time>2021-03-28T11:36:12Z</time>
      </trkpt>
      <trkpt lat="44.9926" lon="5.53795">
        <ele>1991.51</ele>
        <time>2021-03-28T11:36:13Z</time>
      </trkpt>
      <trkpt lat="44.99274" lon="5.53812">
        <ele>1994.39</ele>
        <time>2021-03-28T11:36:40Z</time>
      </trkpt>
      <trkpt lat="44.99279" lon="5.53821">
        <ele>1997.76</ele>
        <time>2021-03-28T11:36:53Z</time>
      </trkpt>
      <trkpt lat="44.99283" lon="5.53829">
        <ele>2000.64</ele>
        <time>2021-03-28T11:37:07Z</time>
      </trkpt>
      <trkpt lat="44.99285" lon="5.53837">
        <ele>2004.01</ele>
        <time>2021-03-28T11:37:22Z</time>
      </trkpt>
      <trkpt lat="44.99293" lon="5.53848">
        <ele>2006.89</ele>
        <time>2021-03-28T11:37:51Z</time>
      </trkpt>
      <trkpt lat="44.99302" lon="5.53847">
        <ele>2006.41</ele>
        <time>2021-03-28T11:39:12Z</time>
      </trkpt>
      <trkpt lat="44.99302" lon="5.53849">
        <ele>2005.45</ele>
        <time>2021-03-28T11:39:55Z</time>
      </trkpt>
      <trkpt lat="44.99303" lon="5.53849">
        <ele>2005.45</ele>
        <time>2021-03-28T11:40:13Z</time>
      </trkpt>
      <trkpt lat="44.99303" lon="5.53848">
        <ele>2005.93</ele>
        <time>2021-03-28T11:41:03Z</time>
      </trkpt>
      <trkpt lat="44.99303" lon="5.53848">
        <ele>2005.45</ele>
        <time>2021-03-28T11:41:16Z</time>
      </trkpt>
      <trkpt lat="44.99302" lon="5.53849">
        <ele>2005.93</ele>
        <time>2021-03-28T11:41:30Z</time>
      </trkpt>
      <trkpt lat="44.99303" lon="5.53847">
        <ele>2005.45</ele>
        <time>2021-03-28T11:41:45Z</time>
      </trkpt>
      <trkpt lat="44.99303" lon="5.53848">
        <ele>2005.93</ele>
        <time>2021-03-28T11:42:34Z</time>
      </trkpt>
      <trkpt lat="44.99301" lon="5.53849">
        <ele>2005.93</ele>
        <time>2021-03-28T11:43:36Z</time>
      </trkpt>
      <trkpt lat="44.99301" lon="5.53849">
        <ele>2005.93</ele>
        <time>2021-03-28T11:44:19Z</time>
      </trkpt>
      <trkpt lat="44.99301" lon="5.53849">
        <ele>2005.45</ele>
        <time>2021-03-28T11:44:48Z</time>
      </trkpt>
      <trkpt lat="44.99301" lon="5.53849">
        <ele>2004.97</ele>
        <time>2021-03-28T11:46:57Z</time>
      </trkpt>
      <trkpt lat="44.99302" lon="5.53849">
        <ele>2004.97</ele>
        <time>2021-03-28T11:47:34Z</time>
      </trkpt>
      <trkpt lat="44.99301" lon="5.53849">
        <ele>2004.97</ele>
        <time>2021-03-28T11:48:16Z</time>
      </trkpt>
      <trkpt lat="44.99301" lon="5.53851">
        <ele>2004.97</ele>
        <time>2021-03-28T11:51:28Z</time>
      </trkpt>
      <trkpt lat="44.99301" lon="5.53848">
        <ele>2004.97</ele>
        <time>2021-03-28T11:52:28Z</time>
      </trkpt>
      <trkpt lat="44.99302" lon="5.5385">
        <ele>2004.97</ele>
        <time>2021-03-28T11:53:00Z</time>
      </trkpt>
      <trkpt lat="44.99302" lon="5.53852">
        <ele>2004.49</ele>
        <time>2021-03-28T11:53:28Z</time>
      </trkpt>
      <trkpt lat="44.993" lon="5.5385">
        <ele>2004.97</ele>
        <time>2021-03-28T11:54:38Z</time>
      </trkpt>
      <trkpt lat="44.99301" lon="5.53847">
        <ele>2004.49</ele>
        <time>2021-03-28T11:55:48Z</time>
      </trkpt>
      <trkpt lat="44.99301" lon="5.53848">
        <ele>2004.97</ele>
        <time>2021-03-28T11:56:15Z</time>
      </trkpt>
      <trkpt lat="44.99302" lon="5.53851">
        <ele>2004.97</ele>
        <time>2021-03-28T11:57:09Z</time>
      </trkpt>
      <trkpt lat="44.99302" lon="5.53849">
        <ele>2004.97</ele>
        <time>2021-03-28T11:57:33Z</time>
      </trkpt>
      <trkpt lat="44.993" lon="5.5385">
        <ele>2004.97</ele>
        <time>2021-03-28T11:59:11Z</time>
      </trkpt>
      <trkpt lat="44.99301" lon="5.53847">
        <ele>2004.97</ele>
        <time>2021-03-28T12:00:07Z</time>
      </trkpt>
      <trkpt lat="44.99302" lon="5.53847">
        <ele>2004.49</ele>
        <time>2021-03-28T12:01:18Z</time>
      </trkpt>
      <trkpt lat="44.99303" lon="5.53848">
        <ele>2004.49</ele>
        <time>2021-03-28T12:01:40Z</time>
      </trkpt>
      <trkpt lat="44.99302" lon="5.53847">
        <ele>2004.49</ele>
        <time>2021-03-28T12:02:04Z</time>
      </trkpt>
      <trkpt lat="44.99302" lon="5.53849">
        <ele>2004.97</ele>
        <time>2021-03-28T12:02:26Z</time>
      </trkpt>
      <trkpt lat="44.99302" lon="5.53848">
        <ele>2005.93</ele>
        <time>2021-03-28T12:03:05Z</time>
      </trkpt>
      <trkpt lat="44.99302" lon="5.53847">
        <ele>2005.93</ele>
        <time>2021-03-28T12:03:58Z</time>
      </trkpt>
      <trkpt lat="44.99304" lon="5.53842">
        <ele>2004.49</ele>
        <time>2021-03-28T12:04:22Z</time>
      </trkpt>
      <trkpt lat="44.99306" lon="5.5384">
        <ele>2004.01</ele>
        <time>2021-03-28T12:04:41Z</time>
      </trkpt>
      <trkpt lat="44.99303" lon="5.53846">
        <ele>2004.97</ele>
        <time>2021-03-28T12:04:57Z</time>
      </trkpt>
      <trkpt lat="44.99304" lon="5.53845">
        <ele>2005.93</ele>
        <time>2021-03-28T12:05:33Z</time>
      </trkpt>
      <trkpt lat="44.99303" lon="5.53845">
        <ele>2005.93</ele>
        <time>2021-03-28T12:06:24Z</time>
      </trkpt>
      <trkpt lat="44.99302" lon="5.53847">
        <ele>2006.41</ele>
        <time>2021-03-28T12:06:57Z</time>
      </trkpt>
      <trkpt lat="44.99302" lon="5.53846">
        <ele>2005.93</ele>
        <time>2021-03-28T12:08:39Z</time>
      </trkpt>
      <trkpt lat="44.99302" lon="5.53848">
        <ele>2006.41</ele>
        <time>2021-03-28T12:13:41Z</time>
      </trkpt>
      <trkpt lat="44.99294" lon="5.53853">
        <ele>2007.37</ele>
        <time>2021-03-28T12:16:58Z</time>
      </trkpt>
      <trkpt lat="44.99291" lon="5.53857">
        <ele>2007.37</ele>
        <time>2021-03-28T12:17:59Z</time>
      </trkpt>
      <trkpt lat="44.9929" lon="5.53859">
        <ele>2007.37</ele>
        <time>2021-03-28T12:18:00Z</time>
      </trkpt>
      <trkpt lat="44.9929" lon="5.5386">
        <ele>2007.37</ele>
        <time>2021-03-28T12:18:01Z</time>
      </trkpt>
      <trkpt lat="44.99289" lon="5.53862">
        <ele>2007.85</ele>
        <time>2021-03-28T12:18:02Z</time>
      </trkpt>
      <trkpt lat="44.99289" lon="5.53864">
        <ele>2007.85</ele>
        <time>2021-03-28T12:18:03Z</time>
      </trkpt>
      <trkpt lat="44.99289" lon="5.53865">
        <ele>2007.85</ele>
        <time>2021-03-28T12:18:04Z</time>
      </trkpt>
      <trkpt lat="44.99287" lon="5.53882">
        <ele>2006.41</ele>
        <time>2021-03-28T12:18:11Z</time>
      </trkpt>
      <trkpt lat="44.99285" lon="5.53884">
        <ele>2005.93</ele>
        <time>2021-03-28T12:18:12Z</time>
      </trkpt>
      <trkpt lat="44.99282" lon="5.53885">
        <ele>2004.97</ele>
        <time>2021-03-28T12:18:13Z</time>
      </trkpt>
      <trkpt lat="44.99281" lon="5.53885">
        <ele>2004.97</ele>
        <time>2021-03-28T12:18:14Z</time>
      </trkpt>
      <trkpt lat="44.99281" lon="5.53891">
        <ele>2003.52</ele>
        <time>2021-03-28T12:19:37Z</time>
      </trkpt>
      <trkpt lat="44.99283" lon="5.53893">
        <ele>2003.04</ele>
        <time>2021-03-28T12:19:38Z</time>
      </trkpt>
      <trkpt lat="44.99284" lon="5.53896">
        <ele>2002.08</ele>
        <time>2021-03-28T12:19:39Z</time>
      </trkpt>
      <trkpt lat="44.99286" lon="5.53898">
        <ele>2001.6</ele>
        <time>2021-03-28T12:19:40Z</time>
      </trkpt>
      <trkpt lat="44.99288" lon="5.539">
        <ele>2000.64</ele>
        <time>2021-03-28T12:19:41Z</time>
      </trkpt>
      <trkpt lat="44.99288" lon="5.53904">
        <ele>1999.2</ele>
        <time>2021-03-28T12:19:42Z</time>
      </trkpt>
      <trkpt lat="44.99284" lon="5.53907">
        <ele>1997.28</ele>
        <time>2021-03-28T12:19:43Z</time>
      </trkpt>
      <trkpt lat="44.99281" lon="5.53909">
        <ele>1995.83</ele>
        <time>2021-03-28T12:19:44Z</time>
      </trkpt>
      <trkpt lat="44.9928" lon="5.53912">
        <ele>1994.87</ele>
        <time>2021-03-28T12:19:45Z</time>
      </trkpt>
      <trkpt lat="44.99281" lon="5.53916">
        <ele>1993.43</ele>
        <time>2021-03-28T12:19:46Z</time>
      </trkpt>
      <trkpt lat="44.99284" lon="5.53921">
        <ele>1991.51</ele>
        <time>2021-03-28T12:19:47Z</time>
      </trkpt>
      <trkpt lat="44.99285" lon="5.53926">
        <ele>1989.59</ele>
        <time>2021-03-28T12:19:48Z</time>
      </trkpt>
      <trkpt lat="44.99287" lon="5.53932">
        <ele>1987.18</ele>
        <time>2021-03-28T12:19:49Z</time>
      </trkpt>
      <trkpt lat="44.9929" lon="5.53938">
        <ele>1984.78</ele>
        <time>2021-03-28T12:19:50Z</time>
      </trkpt>
      <trkpt lat="44.99291" lon="5.53946">
        <ele>1982.86</ele>
        <time>2021-03-28T12:19:51Z</time>
      </trkpt>
      <trkpt lat="44.99293" lon="5.53953">
        <ele>1979.01</ele>
        <time>2021-03-28T12:19:52Z</time>
      </trkpt>
      <trkpt lat="44.99294" lon="5.53962">
        <ele>1976.61</ele>
        <time>2021-03-28T12:19:53Z</time>
      </trkpt>
      <trkpt lat="44.99293" lon="5.53972">
        <ele>1972.76</ele>
        <time>2021-03-28T12:19:54Z</time>
      </trkpt>
      <trkpt lat="44.99291" lon="5.53983">
        <ele>1969.4</ele>
        <time>2021-03-28T12:19:55Z</time>
      </trkpt>
      <trkpt lat="44.99289" lon="5.53995">
        <ele>1966.03</ele>
        <time>2021-03-28T12:19:56Z</time>
      </trkpt>
      <trkpt lat="44.99288" lon="5.54008">
        <ele>1961.71</ele>
        <time>2021-03-28T12:19:57Z</time>
      </trkpt>
      <trkpt lat="44.99287" lon="5.54022">
        <ele>1957.86</ele>
        <time>2021-03-28T12:19:58Z</time>
      </trkpt>
      <trkpt lat="44.99284" lon="5.54034">
        <ele>1953.54</ele>
        <time>2021-03-28T12:19:59Z</time>
      </trkpt>
      <trkpt lat="44.99279" lon="5.54044">
        <ele>1950.17</ele>
        <time>2021-03-28T12:20:00Z</time>
      </trkpt>
      <trkpt lat="44.99276" lon="5.54051">
        <ele>1947.77</ele>
        <time>2021-03-28T12:20:01Z</time>
      </trkpt>
      <trkpt lat="44.99276" lon="5.54058">
        <ele>1946.33</ele>
        <time>2021-03-28T12:20:02Z</time>
      </trkpt>
      <trkpt lat="44.99276" lon="5.54064">
        <ele>1943.92</ele>
        <time>2021-03-28T12:20:03Z</time>
      </trkpt>
      <trkpt lat="44.99276" lon="5.54066">
        <ele>1942.48</ele>
        <time>2021-03-28T12:20:04Z</time>
      </trkpt>
      <trkpt lat="44.99275" lon="5.54066">
        <ele>1941.04</ele>
        <time>2021-03-28T12:20:07Z</time>
      </trkpt>
      <trkpt lat="44.99277" lon="5.54065">
        <ele>1940.56</ele>
        <time>2021-03-28T12:20:13Z</time>
      </trkpt>
      <trkpt lat="44.99277" lon="5.54071">
        <ele>1940.08</ele>
        <time>2021-03-28T12:20:44Z</time>
      </trkpt>
      <trkpt lat="44.9928" lon="5.54075">
        <ele>1939.6</ele>
        <time>2021-03-28T12:20:45Z</time>
      </trkpt>
      <trkpt lat="44.99282" lon="5.54079">
        <ele>1938.64</ele>
        <time>2021-03-28T12:20:46Z</time>
      </trkpt>
      <trkpt lat="44.99284" lon="5.54084">
        <ele>1937.19</ele>
        <time>2021-03-28T12:20:47Z</time>
      </trkpt>
      <trkpt lat="44.99287" lon="5.54088">
        <ele>1935.27</ele>
        <time>2021-03-28T12:20:48Z</time>
      </trkpt>
      <trkpt lat="44.99292" lon="5.54093">
        <ele>1932.87</ele>
        <time>2021-03-28T12:20:49Z</time>
      </trkpt>
      <trkpt lat="44.99298" lon="5.54095">
        <ele>1930.46</ele>
        <time>2021-03-28T12:20:50Z</time>
      </trkpt>
      <trkpt lat="44.99304" lon="5.54095">
        <ele>1929.02</ele>
        <time>2021-03-28T12:20:51Z</time>
      </trkpt>
      <trkpt lat="44.9931" lon="5.54095">
        <ele>1927.1</ele>
        <time>2021-03-28T12:20:52Z</time>
      </trkpt>
      <trkpt lat="44.99323" lon="5.54093">
        <ele>1923.25</ele>
        <time>2021-03-28T12:20:54Z</time>
      </trkpt>
      <trkpt lat="44.99329" lon="5.5409">
        <ele>1921.33</ele>
        <time>2021-03-28T12:20:55Z</time>
      </trkpt>
      <trkpt lat="44.99338" lon="5.54086">
        <ele>1919.41</ele>
        <time>2021-03-28T12:20:57Z</time>
      </trkpt>
      <trkpt lat="44.99341" lon="5.54088">
        <ele>1918.93</ele>
        <time>2021-03-28T12:20:58Z</time>
      </trkpt>
      <trkpt lat="44.99345" lon="5.5409">
        <ele>1917.01</ele>
        <time>2021-03-28T12:20:59Z</time>
      </trkpt>
      <trkpt lat="44.99348" lon="5.54094">
        <ele>1915.08</ele>
        <time>2021-03-28T12:21:00Z</time>
      </trkpt>
      <trkpt lat="44.9935" lon="5.54098">
        <ele>1913.16</ele>
        <time>2021-03-28T12:21:01Z</time>
      </trkpt>
      <trkpt lat="44.99355" lon="5.54101">
        <ele>1910.76</ele>
        <time>2021-03-28T12:21:02Z</time>
      </trkpt>
      <trkpt lat="44.99358" lon="5.54104">
        <ele>1908.35</ele>
        <time>2021-03-28T12:21:03Z</time>
      </trkpt>
      <trkpt lat="44.9936" lon="5.54107">
        <ele>1905.95</ele>
        <time>2021-03-28T12:21:04Z</time>
      </trkpt>
      <trkpt lat="44.99362" lon="5.54108">
        <ele>1902.11</ele>
        <time>2021-03-28T12:21:06Z</time>
      </trkpt>
      <trkpt lat="44.99359" lon="5.54108">
        <ele>1900.18</ele>
        <time>2021-03-28T12:21:39Z</time>
      </trkpt>
      <trkpt lat="44.99361" lon="5.54109">
        <ele>1900.18</ele>
        <time>2021-03-28T12:21:40Z</time>
      </trkpt>
      <trkpt lat="44.99364" lon="5.54111">
        <ele>1899.7</ele>
        <time>2021-03-28T12:21:41Z</time>
      </trkpt>
      <trkpt lat="44.99367" lon="5.54113">
        <ele>1897.78</ele>
        <time>2021-03-28T12:21:42Z</time>
      </trkpt>
      <trkpt lat="44.9937" lon="5.54113">
        <ele>1895.86</ele>
        <time>2021-03-28T12:21:43Z</time>
      </trkpt>
      <trkpt lat="44.99372" lon="5.54113">
        <ele>1894.42</ele>
        <time>2021-03-28T12:21:44Z</time>
      </trkpt>
      <trkpt lat="44.99375" lon="5.54114">
        <ele>1892.97</ele>
        <time>2021-03-28T12:21:45Z</time>
      </trkpt>
      <trkpt lat="44.99379" lon="5.54116">
        <ele>1891.53</ele>
        <time>2021-03-28T12:21:46Z</time>
      </trkpt>
      <trkpt lat="44.99381" lon="5.54119">
        <ele>1889.61</ele>
        <time>2021-03-28T12:21:47Z</time>
      </trkpt>
      <trkpt lat="44.99383" lon="5.54121">
        <ele>1887.69</ele>
        <time>2021-03-28T12:21:48Z</time>
      </trkpt>
      <trkpt lat="44.99384" lon="5.54122">
        <ele>1886.24</ele>
        <time>2021-03-28T12:21:49Z</time>
      </trkpt>
      <trkpt lat="44.99382" lon="5.54118">
        <ele>1884.32</ele>
        <time>2021-03-28T12:22:36Z</time>
      </trkpt>
      <trkpt lat="44.99383" lon="5.54118">
        <ele>1884.32</ele>
        <time>2021-03-28T12:22:37Z</time>
      </trkpt>
      <trkpt lat="44.99385" lon="5.54119">
        <ele>1883.84</ele>
        <time>2021-03-28T12:22:38Z</time>
      </trkpt>
      <trkpt lat="44.99387" lon="5.5412">
        <ele>1882.4</ele>
        <time>2021-03-28T12:22:39Z</time>
      </trkpt>
      <trkpt lat="44.99389" lon="5.54121">
        <ele>1880.96</ele>
        <time>2021-03-28T12:22:40Z</time>
      </trkpt>
      <trkpt lat="44.99393" lon="5.54123">
        <ele>1879.03</ele>
        <time>2021-03-28T12:22:41Z</time>
      </trkpt>
      <trkpt lat="44.99398" lon="5.54123">
        <ele>1877.59</ele>
        <time>2021-03-28T12:22:42Z</time>
      </trkpt>
      <trkpt lat="44.99404" lon="5.54123">
        <ele>1875.67</ele>
        <time>2021-03-28T12:22:43Z</time>
      </trkpt>
      <trkpt lat="44.99409" lon="5.54125">
        <ele>1873.27</ele>
        <time>2021-03-28T12:22:44Z</time>
      </trkpt>
      <trkpt lat="44.99414" lon="5.54126">
        <ele>1870.38</ele>
        <time>2021-03-28T12:22:45Z</time>
      </trkpt>
      <trkpt lat="44.99417" lon="5.54126">
        <ele>1867.5</ele>
        <time>2021-03-28T12:22:46Z</time>
      </trkpt>
      <trkpt lat="44.99417" lon="5.54124">
        <ele>1866.06</ele>
        <time>2021-03-28T12:22:47Z</time>
      </trkpt>
      <trkpt lat="44.99415" lon="5.5412">
        <ele>1863.17</ele>
        <time>2021-03-28T12:23:16Z</time>
      </trkpt>
      <trkpt lat="44.99426" lon="5.54099">
        <ele>1861.73</ele>
        <time>2021-03-28T12:23:39Z</time>
      </trkpt>
      <trkpt lat="44.99444" lon="5.54075">
        <ele>1858.85</ele>
        <time>2021-03-28T12:23:44Z</time>
      </trkpt>
      <trkpt lat="44.9946" lon="5.54056">
        <ele>1856.44</ele>
        <time>2021-03-28T12:23:48Z</time>
      </trkpt>
      <trkpt lat="44.99463" lon="5.54053">
        <ele>1856.44</ele>
        <time>2021-03-28T12:23:49Z</time>
      </trkpt>
      <trkpt lat="44.99471" lon="5.54051">
        <ele>1855.48</ele>
        <time>2021-03-28T12:25:17Z</time>
      </trkpt>
      <trkpt lat="44.99473" lon="5.54057">
        <ele>1853.08</ele>
        <time>2021-03-28T12:25:18Z</time>
      </trkpt>
      <trkpt lat="44.99478" lon="5.54063">
        <ele>1850.19</ele>
        <time>2021-03-28T12:25:19Z</time>
      </trkpt>
      <trkpt lat="44.99486" lon="5.54067">
        <ele>1846.83</ele>
        <time>2021-03-28T12:25:20Z</time>
      </trkpt>
      <trkpt lat="44.99493" lon="5.54073">
        <ele>1842.98</ele>
        <time>2021-03-28T12:25:21Z</time>
      </trkpt>
      <trkpt lat="44.99499" lon="5.54081">
        <ele>1840.1</ele>
        <time>2021-03-28T12:25:22Z</time>
      </trkpt>
      <trkpt lat="44.99507" lon="5.54086">
        <ele>1835.77</ele>
        <time>2021-03-28T12:25:23Z</time>
      </trkpt>
      <trkpt lat="44.99514" lon="5.54094">
        <ele>1831.45</ele>
        <time>2021-03-28T12:25:24Z</time>
      </trkpt>
      <trkpt lat="44.99518" lon="5.54106">
        <ele>1826.16</ele>
        <time>2021-03-28T12:25:25Z</time>
      </trkpt>
      <trkpt lat="44.99524" lon="5.54115">
        <ele>1821.35</ele>
        <time>2021-03-28T12:25:26Z</time>
      </trkpt>
      <trkpt lat="44.99533" lon="5.54122">
        <ele>1817.51</ele>
        <time>2021-03-28T12:25:27Z</time>
      </trkpt>
      <trkpt lat="44.99542" lon="5.5413">
        <ele>1812.22</ele>
        <time>2021-03-28T12:25:28Z</time>
      </trkpt>
      <trkpt lat="44.99552" lon="5.54139">
        <ele>1805.01</ele>
        <time>2021-03-28T12:25:29Z</time>
      </trkpt>
      <trkpt lat="44.99562" lon="5.54151">
        <ele>1801.17</ele>
        <time>2021-03-28T12:25:30Z</time>
      </trkpt>
      <trkpt lat="44.99573" lon="5.54159">
        <ele>1796.36</ele>
        <time>2021-03-28T12:25:31Z</time>
      </trkpt>
      <trkpt lat="44.99585" lon="5.54165">
        <ele>1789.63</ele>
        <time>2021-03-28T12:25:32Z</time>
      </trkpt>
      <trkpt lat="44.99596" lon="5.54171">
        <ele>1784.34</ele>
        <time>2021-03-28T12:25:33Z</time>
      </trkpt>
      <trkpt lat="44.99607" lon="5.54174">
        <ele>1780.5</ele>
        <time>2021-03-28T12:25:34Z</time>
      </trkpt>
      <trkpt lat="44.99618" lon="5.54176">
        <ele>1777.13</ele>
        <time>2021-03-28T12:25:35Z</time>
      </trkpt>
      <trkpt lat="44.99627" lon="5.54176">
        <ele>1774.25</ele>
        <time>2021-03-28T12:25:36Z</time>
      </trkpt>
      <trkpt lat="44.99633" lon="5.54171">
        <ele>1771.37</ele>
        <time>2021-03-28T12:25:37Z</time>
      </trkpt>
      <trkpt lat="44.9964" lon="5.5417">
        <ele>1768.96</ele>
        <time>2021-03-28T12:25:38Z</time>
      </trkpt>
      <trkpt lat="44.99645" lon="5.54176">
        <ele>1766.56</ele>
        <time>2021-03-28T12:25:39Z</time>
      </trkpt>
      <trkpt lat="44.99651" lon="5.54183">
        <ele>1764.16</ele>
        <time>2021-03-28T12:25:40Z</time>
      </trkpt>
      <trkpt lat="44.99659" lon="5.54189">
        <ele>1763.68</ele>
        <time>2021-03-28T12:25:41Z</time>
      </trkpt>
      <trkpt lat="44.9967" lon="5.54195">
        <ele>1758.39</ele>
        <time>2021-03-28T12:25:42Z</time>
      </trkpt>
      <trkpt lat="44.9968" lon="5.54199">
        <ele>1755.5</ele>
        <time>2021-03-28T12:25:43Z</time>
      </trkpt>
      <trkpt lat="44.9969" lon="5.54199">
        <ele>1753.1</ele>
        <time>2021-03-28T12:25:44Z</time>
      </trkpt>
      <trkpt lat="44.99699" lon="5.54201">
        <ele>1750.22</ele>
        <time>2021-03-28T12:25:45Z</time>
      </trkpt>
      <trkpt lat="44.99709" lon="5.54206">
        <ele>1747.81</ele>
        <time>2021-03-28T12:25:46Z</time>
      </trkpt>
      <trkpt lat="44.99719" lon="5.54213">
        <ele>1744.93</ele>
        <time>2021-03-28T12:25:47Z</time>
      </trkpt>
      <trkpt lat="44.9973" lon="5.54222">
        <ele>1743.01</ele>
        <time>2021-03-28T12:25:48Z</time>
      </trkpt>
      <trkpt lat="44.9974" lon="5.54232">
        <ele>1740.12</ele>
        <time>2021-03-28T12:25:49Z</time>
      </trkpt>
      <trkpt lat="44.99749" lon="5.54242">
        <ele>1738.2</ele>
        <time>2021-03-28T12:25:50Z</time>
      </trkpt>
      <trkpt lat="44.9976" lon="5.54248">
        <ele>1735.32</ele>
        <time>2021-03-28T12:25:51Z</time>
      </trkpt>
      <trkpt lat="44.99772" lon="5.5425">
        <ele>1731.47</ele>
        <time>2021-03-28T12:25:52Z</time>
      </trkpt>
      <trkpt lat="44.99785" lon="5.54251">
        <ele>1729.07</ele>
        <time>2021-03-28T12:25:53Z</time>
      </trkpt>
      <trkpt lat="44.99796" lon="5.5425">
        <ele>1727.63</ele>
        <time>2021-03-28T12:25:54Z</time>
      </trkpt>
      <trkpt lat="44.99818" lon="5.54244">
        <ele>1723.78</ele>
        <time>2021-03-28T12:25:56Z</time>
      </trkpt>
      <trkpt lat="44.99836" lon="5.5424">
        <ele>1723.3</ele>
        <time>2021-03-28T12:25:58Z</time>
      </trkpt>
      <trkpt lat="44.99841" lon="5.54241">
        <ele>1723.3</ele>
        <time>2021-03-28T12:25:59Z</time>
      </trkpt>
      <trkpt lat="44.99848" lon="5.54243">
        <ele>1723.78</ele>
        <time>2021-03-28T12:26:00Z</time>
      </trkpt>
      <trkpt lat="44.9986" lon="5.54246">
        <ele>1723.78</ele>
        <time>2021-03-28T12:26:02Z</time>
      </trkpt>
      <trkpt lat="44.9987" lon="5.54247">
        <ele>1723.78</ele>
        <time>2021-03-28T12:26:04Z</time>
      </trkpt>
      <trkpt lat="44.99888" lon="5.54246">
        <ele>1724.74</ele>
        <time>2021-03-28T12:26:12Z</time>
      </trkpt>
      <trkpt lat="44.99902" lon="5.54245">
        <ele>1724.26</ele>
        <time>2021-03-28T12:26:17Z</time>
      </trkpt>
      <trkpt lat="44.99906" lon="5.54244">
        <ele>1723.78</ele>
        <time>2021-03-28T12:26:18Z</time>
      </trkpt>
      <trkpt lat="44.99908" lon="5.54244">
        <ele>1723.3</ele>
        <time>2021-03-28T12:26:19Z</time>
      </trkpt>
      <trkpt lat="44.9991" lon="5.54242">
        <ele>1723.78</ele>
        <time>2021-03-28T12:26:20Z</time>
      </trkpt>
      <trkpt lat="44.9991" lon="5.54241">
        <ele>1723.78</ele>
        <time>2021-03-28T12:26:21Z</time>
      </trkpt>
      <trkpt lat="44.99916" lon="5.54235">
        <ele>1724.26</ele>
        <time>2021-03-28T12:26:26Z</time>
      </trkpt>
      <trkpt lat="44.99917" lon="5.54234">
        <ele>1724.26</ele>
        <time>2021-03-28T12:26:27Z</time>
      </trkpt>
      <trkpt lat="44.99917" lon="5.54233">
        <ele>1724.26</ele>
        <time>2021-03-28T12:26:28Z</time>
      </trkpt>
      <trkpt lat="44.99916" lon="5.54231">
        <ele>1723.78</ele>
        <time>2021-03-28T12:27:25Z</time>
      </trkpt>
      <trkpt lat="44.99917" lon="5.54231">
        <ele>1724.26</ele>
        <time>2021-03-28T12:27:55Z</time>
      </trkpt>
      <trkpt lat="44.99913" lon="5.54233">
        <ele>1724.26</ele>
        <time>2021-03-28T12:28:33Z</time>
      </trkpt>
      <trkpt lat="44.99915" lon="5.54233">
        <ele>1723.78</ele>
        <time>2021-03-28T12:29:36Z</time>
      </trkpt>
      <trkpt lat="44.99914" lon="5.54232">
        <ele>1723.78</ele>
        <time>2021-03-28T12:30:37Z</time>
      </trkpt>
      <trkpt lat="44.99914" lon="5.54232">
        <ele>1723.78</ele>
        <time>2021-03-28T12:30:42Z</time>
      </trkpt>
      <trkpt lat="44.99918" lon="5.5423">
        <ele>1723.78</ele>
        <time>2021-03-28T12:31:09Z</time>
      </trkpt>
      <trkpt lat="44.99916" lon="5.5423">
        <ele>1724.26</ele>
        <time>2021-03-28T12:31:26Z</time>
      </trkpt>
      <trkpt lat="44.99915" lon="5.54232">
        <ele>1723.78</ele>
        <time>2021-03-28T12:31:35Z</time>
      </trkpt>
      <trkpt lat="44.99913" lon="5.54232">
        <ele>1723.78</ele>
        <time>2021-03-28T12:32:03Z</time>
      </trkpt>
      <trkpt lat="44.99919" lon="5.54233">
        <ele>1723.78</ele>
        <time>2021-03-28T12:32:13Z</time>
      </trkpt>
      <trkpt lat="44.99914" lon="5.54233">
        <ele>1723.3</ele>
        <time>2021-03-28T12:32:29Z</time>
      </trkpt>
      <trkpt lat="44.99913" lon="5.54232">
        <ele>1722.82</ele>
        <time>2021-03-28T12:33:24Z</time>
      </trkpt>
      <trkpt lat="44.99917" lon="5.54227">
        <ele>1725.22</ele>
        <time>2021-03-28T12:37:00Z</time>
      </trkpt>
      <trkpt lat="44.99917" lon="5.54227">
        <ele>1725.22</ele>
        <time>2021-03-28T12:37:01Z</time>
      </trkpt>
      <trkpt lat="44.99919" lon="5.54226">
        <ele>1725.22</ele>
        <time>2021-03-28T12:37:03Z</time>
      </trkpt>
      <trkpt lat="44.99926" lon="5.54233">
        <ele>1727.63</ele>
        <time>2021-03-28T12:37:15Z</time>
      </trkpt>
      <trkpt lat="44.99927" lon="5.54234">
        <ele>1727.63</ele>
        <time>2021-03-28T12:37:16Z</time>
      </trkpt>
      <trkpt lat="44.99927" lon="5.54235">
        <ele>1727.63</ele>
        <time>2021-03-28T12:37:17Z</time>
      </trkpt>
      <trkpt lat="44.99927" lon="5.54237">
        <ele>1728.11</ele>
        <time>2021-03-28T12:37:18Z</time>
      </trkpt>
      <trkpt lat="44.99928" lon="5.54238">
        <ele>1728.59</ele>
        <time>2021-03-28T12:37:19Z</time>
      </trkpt>
      <trkpt lat="44.99928" lon="5.54239">
        <ele>1728.59</ele>
        <time>2021-03-28T12:37:20Z</time>
      </trkpt>
      <trkpt lat="44.99931" lon="5.54247">
        <ele>1731.47</ele>
        <time>2021-03-28T12:37:39Z</time>
      </trkpt>
      <trkpt lat="44.99941" lon="5.54239">
        <ele>1734.36</ele>
        <time>2021-03-28T12:37:56Z</time>
      </trkpt>
      <trkpt lat="44.99941" lon="5.54238">
        <ele>1734.36</ele>
        <time>2021-03-28T12:37:57Z</time>
      </trkpt>
      <trkpt lat="44.99941" lon="5.54227">
        <ele>1736.76</ele>
        <time>2021-03-28T12:38:11Z</time>
      </trkpt>
      <trkpt lat="44.99949" lon="5.5423">
        <ele>1737.72</ele>
        <time>2021-03-28T12:38:20Z</time>
      </trkpt>
      <trkpt lat="44.99966" lon="5.5424">
        <ele>1740.6</ele>
        <time>2021-03-28T12:38:42Z</time>
      </trkpt>
      <trkpt lat="44.99974" lon="5.54251">
        <ele>1743.97</ele>
        <time>2021-03-28T12:38:57Z</time>
      </trkpt>
      <trkpt lat="44.99979" lon="5.54254">
        <ele>1746.85</ele>
        <time>2021-03-28T12:39:15Z</time>
      </trkpt>
      <trkpt lat="44.99985" lon="5.54248">
        <ele>1748.78</ele>
        <time>2021-03-28T12:39:25Z</time>
      </trkpt>
      <trkpt lat="44.99985" lon="5.54247">
        <ele>1748.78</ele>
        <time>2021-03-28T12:39:26Z</time>
      </trkpt>
      <trkpt lat="44.99991" lon="5.54248">
        <ele>1751.66</ele>
        <time>2021-03-28T12:39:44Z</time>
      </trkpt>
      <trkpt lat="44.99998" lon="5.54273">
        <ele>1754.54</ele>
        <time>2021-03-28T12:40:08Z</time>
      </trkpt>
      <trkpt lat="44.99998" lon="5.54288">
        <ele>1757.91</ele>
        <time>2021-03-28T12:40:31Z</time>
      </trkpt>
      <trkpt lat="45.00009" lon="5.54294">
        <ele>1760.79</ele>
        <time>2021-03-28T12:40:49Z</time>
      </trkpt>
      <trkpt lat="45.00019" lon="5.54295">
        <ele>1764.16</ele>
        <time>2021-03-28T12:41:08Z</time>
      </trkpt>
      <trkpt lat="45.00015" lon="5.54311">
        <ele>1767.04</ele>
        <time>2021-03-28T12:41:26Z</time>
      </trkpt>
      <trkpt lat="45.00018" lon="5.54321">
        <ele>1770.41</ele>
        <time>2021-03-28T12:41:44Z</time>
      </trkpt>
      <trkpt lat="45.0003" lon="5.54323">
        <ele>1773.29</ele>
        <time>2021-03-28T12:42:01Z</time>
      </trkpt>
      <trkpt lat="45.00048" lon="5.54327">
        <ele>1775.69</ele>
        <time>2021-03-28T12:42:23Z</time>
      </trkpt>
      <trkpt lat="45.00068" lon="5.54329">
        <ele>1777.13</ele>
        <time>2021-03-28T12:42:43Z</time>
      </trkpt>
      <trkpt lat="45.00087" lon="5.54327">
        <ele>1776.65</ele>
        <time>2021-03-28T12:42:57Z</time>
      </trkpt>
      <trkpt lat="45.00105" lon="5.54324">
        <ele>1776.65</ele>
        <time>2021-03-28T12:43:13Z</time>
      </trkpt>
      <trkpt lat="45.00123" lon="5.54317">
        <ele>1778.58</ele>
        <time>2021-03-28T12:43:33Z</time>
      </trkpt>
      <trkpt lat="45.00122" lon="5.54317">
        <ele>1778.58</ele>
        <time>2021-03-28T12:43:37Z</time>
      </trkpt>
      <trkpt lat="45.00131" lon="5.54311">
        <ele>1779.54</ele>
        <time>2021-03-28T12:45:38Z</time>
      </trkpt>
      <trkpt lat="45.00142" lon="5.54305">
        <ele>1782.42</ele>
        <time>2021-03-28T12:46:38Z</time>
      </trkpt>
      <trkpt lat="45.00152" lon="5.54306">
        <ele>1785.79</ele>
        <time>2021-03-28T12:46:58Z</time>
      </trkpt>
      <trkpt lat="45.00161" lon="5.54305">
        <ele>1788.67</ele>
        <time>2021-03-28T12:47:18Z</time>
      </trkpt>
      <trkpt lat="45.00172" lon="5.54303">
        <ele>1792.03</ele>
        <time>2021-03-28T12:47:40Z</time>
      </trkpt>
      <trkpt lat="45.00183" lon="5.54298">
        <ele>1794.92</ele>
        <time>2021-03-28T12:48:02Z</time>
      </trkpt>
      <trkpt lat="45.00189" lon="5.54299">
        <ele>1797.8</ele>
        <time>2021-03-28T12:48:20Z</time>
      </trkpt>
      <trkpt lat="45.00195" lon="5.54298">
        <ele>1801.17</ele>
        <time>2021-03-28T12:48:38Z</time>
      </trkpt>
      <trkpt lat="45.00206" lon="5.5428">
        <ele>1803.57</ele>
        <time>2021-03-28T12:50:59Z</time>
      </trkpt>
      <trkpt lat="45.0022" lon="5.54265">
        <ele>1806.45</ele>
        <time>2021-03-28T12:51:24Z</time>
      </trkpt>
      <trkpt lat="45.00235" lon="5.54246">
        <ele>1809.34</ele>
        <time>2021-03-28T12:51:50Z</time>
      </trkpt>
      <trkpt lat="45.00237" lon="5.54249">
        <ele>1809.82</ele>
        <time>2021-03-28T12:52:16Z</time>
      </trkpt>
      <trkpt lat="45.00239" lon="5.54253">
        <ele>1812.7</ele>
        <time>2021-03-28T12:52:40Z</time>
      </trkpt>
      <trkpt lat="45.00242" lon="5.54238">
        <ele>1815.59</ele>
        <time>2021-03-28T12:53:05Z</time>
      </trkpt>
      <trkpt lat="45.00249" lon="5.5422">
        <ele>1818.95</ele>
        <time>2021-03-28T12:53:25Z</time>
      </trkpt>
      <trkpt lat="45.00252" lon="5.54213">
        <ele>1819.91</ele>
        <time>2021-03-28T12:53:31Z</time>
      </trkpt>
      <trkpt lat="45.00262" lon="5.54202">
        <ele>1822.8</ele>
        <time>2021-03-28T12:53:49Z</time>
      </trkpt>
      <trkpt lat="45.00276" lon="5.54194">
        <ele>1826.16</ele>
        <time>2021-03-28T12:54:06Z</time>
      </trkpt>
      <trkpt lat="45.00291" lon="5.54199">
        <ele>1829.53</ele>
        <time>2021-03-28T12:54:29Z</time>
      </trkpt>
      <trkpt lat="45.003" lon="5.54195">
        <ele>1830.01</ele>
        <time>2021-03-28T12:54:46Z</time>
      </trkpt>
      <trkpt lat="45.00307" lon="5.54197">
        <ele>1828.56</ele>
        <time>2021-03-28T12:54:57Z</time>
      </trkpt>
      <trkpt lat="45.00308" lon="5.54198">
        <ele>1828.56</ele>
        <time>2021-03-28T12:54:58Z</time>
      </trkpt>
      <trkpt lat="45.00328" lon="5.54201">
        <ele>1825.2</ele>
        <time>2021-03-28T12:55:08Z</time>
      </trkpt>
      <trkpt lat="45.00329" lon="5.54198">
        <ele>1824.72</ele>
        <time>2021-03-28T12:55:09Z</time>
      </trkpt>
      <trkpt lat="45.00329" lon="5.54194">
        <ele>1822.8</ele>
        <time>2021-03-28T12:55:10Z</time>
      </trkpt>
      <trkpt lat="45.00328" lon="5.54191">
        <ele>1822.32</ele>
        <time>2021-03-28T12:55:11Z</time>
      </trkpt>
      <trkpt lat="45.00327" lon="5.54188">
        <ele>1821.35</ele>
        <time>2021-03-28T12:55:12Z</time>
      </trkpt>
      <trkpt lat="45.00327" lon="5.54184">
        <ele>1820.39</ele>
        <time>2021-03-28T12:55:13Z</time>
      </trkpt>
      <trkpt lat="45.00326" lon="5.54181">
        <ele>1819.91</ele>
        <time>2021-03-28T12:55:14Z</time>
      </trkpt>
      <trkpt lat="45.00325" lon="5.54177">
        <ele>1819.43</ele>
        <time>2021-03-28T12:55:15Z</time>
      </trkpt>
      <trkpt lat="45.00324" lon="5.54174">
        <ele>1818.95</ele>
        <time>2021-03-28T12:55:16Z</time>
      </trkpt>
      <trkpt lat="45.00323" lon="5.54171">
        <ele>1818.47</ele>
        <time>2021-03-28T12:55:17Z</time>
      </trkpt>
      <trkpt lat="45.00322" lon="5.54167">
        <ele>1817.99</ele>
        <time>2021-03-28T12:55:18Z</time>
      </trkpt>
      <trkpt lat="45.00322" lon="5.54163">
        <ele>1817.51</ele>
        <time>2021-03-28T12:55:19Z</time>
      </trkpt>
      <trkpt lat="45.00321" lon="5.54155">
        <ele>1816.55</ele>
        <time>2021-03-28T12:55:21Z</time>
      </trkpt>
      <trkpt lat="45.00322" lon="5.54153">
        <ele>1815.11</ele>
        <time>2021-03-28T12:55:24Z</time>
      </trkpt>
      <trkpt lat="45.00327" lon="5.54154">
        <ele>1814.63</ele>
        <time>2021-03-28T12:55:31Z</time>
      </trkpt>
      <trkpt lat="45.00329" lon="5.54154">
        <ele>1814.15</ele>
        <time>2021-03-28T12:55:32Z</time>
      </trkpt>
      <trkpt lat="45.0033" lon="5.54155">
        <ele>1813.18</ele>
        <time>2021-03-28T12:55:33Z</time>
      </trkpt>
      <trkpt lat="45.00332" lon="5.54153">
        <ele>1813.18</ele>
        <time>2021-03-28T12:55:34Z</time>
      </trkpt>
      <trkpt lat="45.00334" lon="5.54151">
        <ele>1812.7</ele>
        <time>2021-03-28T12:55:35Z</time>
      </trkpt>
      <trkpt lat="45.00339" lon="5.54145">
        <ele>1809.82</ele>
        <time>2021-03-28T12:55:39Z</time>
      </trkpt>
      <trkpt lat="45.00342" lon="5.54142">
        <ele>1808.38</ele>
        <time>2021-03-28T12:56:52Z</time>
      </trkpt>
      <trkpt lat="45.00341" lon="5.54144">
        <ele>1809.34</ele>
        <time>2021-03-28T12:57:57Z</time>
      </trkpt>
      <trkpt lat="45.00341" lon="5.54143">
        <ele>1809.82</ele>
        <time>2021-03-28T12:58:16Z</time>
      </trkpt>
      <trkpt lat="45.0034" lon="5.54143">
        <ele>1809.82</ele>
        <time>2021-03-28T12:58:24Z</time>
      </trkpt>
      <trkpt lat="45.00341" lon="5.54142">
        <ele>1809.82</ele>
        <time>2021-03-28T12:58:25Z</time>
      </trkpt>
      <trkpt lat="45.00341" lon="5.54145">
        <ele>1809.34</ele>
        <time>2021-03-28T12:59:38Z</time>
      </trkpt>
      <trkpt lat="45.00344" lon="5.54142">
        <ele>1809.82</ele>
        <time>2021-03-28T13:00:09Z</time>
      </trkpt>
      <trkpt lat="45.00342" lon="5.54143">
        <ele>1809.82</ele>
        <time>2021-03-28T13:01:41Z</time>
      </trkpt>
      <trkpt lat="45.00342" lon="5.54143">
        <ele>1809.34</ele>
        <time>2021-03-28T13:03:31Z</time>
      </trkpt>
      <trkpt lat="45.00344" lon="5.54142">
        <ele>1809.34</ele>
        <time>2021-03-28T13:03:41Z</time>
      </trkpt>
      <trkpt lat="45.00343" lon="5.54143">
        <ele>1809.34</ele>
        <time>2021-03-28T13:03:42Z</time>
      </trkpt>
      <trkpt lat="45.00339" lon="5.54144">
        <ele>1809.34</ele>
        <time>2021-03-28T13:05:20Z</time>
      </trkpt>
      <trkpt lat="45.00344" lon="5.54147">
        <ele>1810.78</ele>
        <time>2021-03-28T13:08:49Z</time>
      </trkpt>
      <trkpt lat="45.00346" lon="5.54149">
        <ele>1811.26</ele>
        <time>2021-03-28T13:08:50Z</time>
      </trkpt>
      <trkpt lat="45.00349" lon="5.54152">
        <ele>1811.26</ele>
        <time>2021-03-28T13:08:51Z</time>
      </trkpt>
      <trkpt lat="45.00363" lon="5.54165">
        <ele>1810.3</ele>
        <time>2021-03-28T13:08:54Z</time>
      </trkpt>
      <trkpt lat="45.00369" lon="5.54169">
        <ele>1808.86</ele>
        <time>2021-03-28T13:08:55Z</time>
      </trkpt>
      <trkpt lat="45.00375" lon="5.54172">
        <ele>1807.9</ele>
        <time>2021-03-28T13:08:56Z</time>
      </trkpt>
      <trkpt lat="45.00382" lon="5.54174">
        <ele>1806.94</ele>
        <time>2021-03-28T13:08:57Z</time>
      </trkpt>
      <trkpt lat="45.00388" lon="5.54176">
        <ele>1805.97</ele>
        <time>2021-03-28T13:08:58Z</time>
      </trkpt>
      <trkpt lat="45.00406" lon="5.5418">
        <ele>1801.65</ele>
        <time>2021-03-28T13:09:01Z</time>
      </trkpt>
      <trkpt lat="45.00412" lon="5.54182">
        <ele>1800.21</ele>
        <time>2021-03-28T13:09:02Z</time>
      </trkpt>
      <trkpt lat="45.00418" lon="5.54185">
        <ele>1798.76</ele>
        <time>2021-03-28T13:09:03Z</time>
      </trkpt>
      <trkpt lat="45.00422" lon="5.54187">
        <ele>1797.8</ele>
        <time>2021-03-28T13:09:04Z</time>
      </trkpt>
      <trkpt lat="45.00428" lon="5.54187">
        <ele>1797.32</ele>
        <time>2021-03-28T13:09:05Z</time>
      </trkpt>
      <trkpt lat="45.00432" lon="5.54188">
        <ele>1795.88</ele>
        <time>2021-03-28T13:09:06Z</time>
      </trkpt>
      <trkpt lat="45.00433" lon="5.5419">
        <ele>1795.4</ele>
        <time>2021-03-28T13:09:07Z</time>
      </trkpt>
      <trkpt lat="45.00434" lon="5.54191">
        <ele>1794.92</ele>
        <time>2021-03-28T13:09:08Z</time>
      </trkpt>
      <trkpt lat="45.00434" lon="5.54192">
        <ele>1794.44</ele>
        <time>2021-03-28T13:09:09Z</time>
      </trkpt>
      <trkpt lat="45.00431" lon="5.54187">
        <ele>1793.96</ele>
        <time>2021-03-28T13:09:36Z</time>
      </trkpt>
      <trkpt lat="45.00432" lon="5.54183">
        <ele>1794.44</ele>
        <time>2021-03-28T13:09:41Z</time>
      </trkpt>
      <trkpt lat="45.00434" lon="5.54182">
        <ele>1794.44</ele>
        <time>2021-03-28T13:09:42Z</time>
      </trkpt>
      <trkpt lat="45.00437" lon="5.54184">
        <ele>1793.48</ele>
        <time>2021-03-28T13:09:43Z</time>
      </trkpt>
      <trkpt lat="45.00448" lon="5.54196">
        <ele>1790.59</ele>
        <time>2021-03-28T13:09:46Z</time>
      </trkpt>
      <trkpt lat="45.00455" lon="5.54196">
        <ele>1789.15</ele>
        <time>2021-03-28T13:09:47Z</time>
      </trkpt>
      <trkpt lat="45.00464" lon="5.54198">
        <ele>1784.82</ele>
        <time>2021-03-28T13:09:48Z</time>
      </trkpt>
      <trkpt lat="45.00475" lon="5.54201">
        <ele>1780.98</ele>
        <time>2021-03-28T13:09:49Z</time>
      </trkpt>
      <trkpt lat="45.00488" lon="5.54201">
        <ele>1777.61</ele>
        <time>2021-03-28T13:09:50Z</time>
      </trkpt>
      <trkpt lat="45.00498" lon="5.54202">
        <ele>1771.85</ele>
        <time>2021-03-28T13:09:51Z</time>
      </trkpt>
      <trkpt lat="45.00507" lon="5.54205">
        <ele>1767.52</ele>
        <time>2021-03-28T13:09:52Z</time>
      </trkpt>
      <trkpt lat="45.00518" lon="5.54205">
        <ele>1765.6</ele>
        <time>2021-03-28T13:09:53Z</time>
      </trkpt>
      <trkpt lat="45.00528" lon="5.54204">
        <ele>1765.12</ele>
        <time>2021-03-28T13:09:54Z</time>
      </trkpt>
      <trkpt lat="45.00537" lon="5.54203">
        <ele>1762.23</ele>
        <time>2021-03-28T13:09:55Z</time>
      </trkpt>
      <trkpt lat="45.00548" lon="5.54203">
        <ele>1759.83</ele>
        <time>2021-03-28T13:09:56Z</time>
      </trkpt>
      <trkpt lat="45.00558" lon="5.54206">
        <ele>1757.91</ele>
        <time>2021-03-28T13:09:57Z</time>
      </trkpt>
      <trkpt lat="45.00568" lon="5.54209">
        <ele>1755.99</ele>
        <time>2021-03-28T13:09:58Z</time>
      </trkpt>
      <trkpt lat="45.00576" lon="5.5421">
        <ele>1754.06</ele>
        <time>2021-03-28T13:09:59Z</time>
      </trkpt>
      <trkpt lat="45.00583" lon="5.54213">
        <ele>1751.66</ele>
        <time>2021-03-28T13:10:00Z</time>
      </trkpt>
      <trkpt lat="45.00589" lon="5.54214">
        <ele>1750.22</ele>
        <time>2021-03-28T13:10:01Z</time>
      </trkpt>
      <trkpt lat="45.00598" lon="5.54213">
        <ele>1748.29</ele>
        <time>2021-03-28T13:10:02Z</time>
      </trkpt>
      <trkpt lat="45.00615" lon="5.54207">
        <ele>1744.45</ele>
        <time>2021-03-28T13:10:04Z</time>
      </trkpt>
      <trkpt lat="45.00624" lon="5.54202">
        <ele>1742.05</ele>
        <time>2021-03-28T13:10:05Z</time>
      </trkpt>
      <trkpt lat="45.00634" lon="5.542">
        <ele>1739.16</ele>
        <time>2021-03-28T13:10:06Z</time>
      </trkpt>
      <trkpt lat="45.00643" lon="5.54198">
        <ele>1736.76</ele>
        <time>2021-03-28T13:10:07Z</time>
      </trkpt>
      <trkpt lat="45.00653" lon="5.54197">
        <ele>1734.36</ele>
        <time>2021-03-28T13:10:08Z</time>
      </trkpt>
      <trkpt lat="45.00662" lon="5.54195">
        <ele>1732.43</ele>
        <time>2021-03-28T13:10:09Z</time>
      </trkpt>
      <trkpt lat="45.00671" lon="5.54191">
        <ele>1730.99</ele>
        <time>2021-03-28T13:10:10Z</time>
      </trkpt>
      <trkpt lat="45.0068" lon="5.54189">
        <ele>1726.18</ele>
        <time>2021-03-28T13:10:12Z</time>
      </trkpt>
      <trkpt lat="45.00677" lon="5.54192">
        <ele>1724.26</ele>
        <time>2021-03-28T13:10:36Z</time>
      </trkpt>
      <trkpt lat="45.00676" lon="5.54191">
        <ele>1724.26</ele>
        <time>2021-03-28T13:11:00Z</time>
      </trkpt>
      <trkpt lat="45.00679" lon="5.54195">
        <ele>1724.26</ele>
        <time>2021-03-28T13:11:22Z</time>
      </trkpt>
      <trkpt lat="45.00682" lon="5.54207">
        <ele>1721.86</ele>
        <time>2021-03-28T13:11:24Z</time>
      </trkpt>
      <trkpt lat="45.00681" lon="5.54213">
        <ele>1720.42</ele>
        <time>2021-03-28T13:11:25Z</time>
      </trkpt>
      <trkpt lat="45.00681" lon="5.54219">
        <ele>1719.46</ele>
        <time>2021-03-28T13:11:26Z</time>
      </trkpt>
      <trkpt lat="45.00682" lon="5.54225">
        <ele>1718.49</ele>
        <time>2021-03-28T13:11:27Z</time>
      </trkpt>
      <trkpt lat="45.00681" lon="5.54232">
        <ele>1716.57</ele>
        <time>2021-03-28T13:11:28Z</time>
      </trkpt>
      <trkpt lat="45.00681" lon="5.54239">
        <ele>1714.65</ele>
        <time>2021-03-28T13:11:29Z</time>
      </trkpt>
      <trkpt lat="45.00683" lon="5.54245">
        <ele>1713.21</ele>
        <time>2021-03-28T13:11:30Z</time>
      </trkpt>
      <trkpt lat="45.00686" lon="5.54252">
        <ele>1710.8</ele>
        <time>2021-03-28T13:11:31Z</time>
      </trkpt>
      <trkpt lat="45.00687" lon="5.54261">
        <ele>1708.4</ele>
        <time>2021-03-28T13:11:32Z</time>
      </trkpt>
      <trkpt lat="45.00685" lon="5.5427">
        <ele>1703.59</ele>
        <time>2021-03-28T13:11:33Z</time>
      </trkpt>
      <trkpt lat="45.00686" lon="5.54278">
        <ele>1701.19</ele>
        <time>2021-03-28T13:11:34Z</time>
      </trkpt>
      <trkpt lat="45.00691" lon="5.54283">
        <ele>1698.79</ele>
        <time>2021-03-28T13:11:35Z</time>
      </trkpt>
      <trkpt lat="45.00696" lon="5.54289">
        <ele>1695.42</ele>
        <time>2021-03-28T13:11:36Z</time>
      </trkpt>
      <trkpt lat="45.00696" lon="5.54298">
        <ele>1691.58</ele>
        <time>2021-03-28T13:11:37Z</time>
      </trkpt>
      <trkpt lat="45.00696" lon="5.54307">
        <ele>1689.17</ele>
        <time>2021-03-28T13:11:38Z</time>
      </trkpt>
      <trkpt lat="45.007" lon="5.54314">
        <ele>1686.77</ele>
        <time>2021-03-28T13:11:39Z</time>
      </trkpt>
      <trkpt lat="45.00703" lon="5.54321">
        <ele>1684.37</ele>
        <time>2021-03-28T13:11:40Z</time>
      </trkpt>
      <trkpt lat="45.00704" lon="5.54329">
        <ele>1681.96</ele>
        <time>2021-03-28T13:11:41Z</time>
      </trkpt>
      <trkpt lat="45.00709" lon="5.54337">
        <ele>1681</ele>
        <time>2021-03-28T13:11:42Z</time>
      </trkpt>
      <trkpt lat="45.00715" lon="5.54344">
        <ele>1677.64</ele>
        <time>2021-03-28T13:11:43Z</time>
      </trkpt>
      <trkpt lat="45.0072" lon="5.54352">
        <ele>1674.75</ele>
        <time>2021-03-28T13:11:44Z</time>
      </trkpt>
      <trkpt lat="45.00725" lon="5.54362">
        <ele>1672.35</ele>
        <time>2021-03-28T13:11:45Z</time>
      </trkpt>
      <trkpt lat="45.00731" lon="5.54366">
        <ele>1670.43</ele>
        <time>2021-03-28T13:11:46Z</time>
      </trkpt>
      <trkpt lat="45.00732" lon="5.54367">
        <ele>1668.99</ele>
        <time>2021-03-28T13:11:47Z</time>
      </trkpt>
      <trkpt lat="45.00733" lon="5.54367">
        <ele>1667.06</ele>
        <time>2021-03-28T13:11:49Z</time>
      </trkpt>
      <trkpt lat="45.00732" lon="5.54366">
        <ele>1666.58</ele>
        <time>2021-03-28T13:11:51Z</time>
      </trkpt>
      <trkpt lat="45.00733" lon="5.54366">
        <ele>1666.1</ele>
        <time>2021-03-28T13:11:52Z</time>
      </trkpt>
      <trkpt lat="45.00726" lon="5.54354">
        <ele>1666.1</ele>
        <time>2021-03-28T13:12:59Z</time>
      </trkpt>
      <trkpt lat="45.00731" lon="5.54354">
        <ele>1666.1</ele>
        <time>2021-03-28T13:13:06Z</time>
      </trkpt>
      <trkpt lat="45.00742" lon="5.54362">
        <ele>1664.18</ele>
        <time>2021-03-28T13:13:17Z</time>
      </trkpt>
      <trkpt lat="45.00743" lon="5.54362">
        <ele>1664.18</ele>
        <time>2021-03-28T13:13:18Z</time>
      </trkpt>
      <trkpt lat="45.00744" lon="5.54363">
        <ele>1664.18</ele>
        <time>2021-03-28T13:13:19Z</time>
      </trkpt>
      <trkpt lat="45.00745" lon="5.54363">
        <ele>1663.7</ele>
        <time>2021-03-28T13:13:20Z</time>
      </trkpt>
      <trkpt lat="45.00746" lon="5.54363">
        <ele>1663.7</ele>
        <time>2021-03-28T13:13:21Z</time>
      </trkpt>
      <trkpt lat="45.00749" lon="5.54362">
        <ele>1663.7</ele>
        <time>2021-03-28T13:13:22Z</time>
      </trkpt>
      <trkpt lat="45.00752" lon="5.54361">
        <ele>1663.22</ele>
        <time>2021-03-28T13:13:23Z</time>
      </trkpt>
      <trkpt lat="45.00753" lon="5.54362">
        <ele>1662.74</ele>
        <time>2021-03-28T13:13:24Z</time>
      </trkpt>
      <trkpt lat="45.00751" lon="5.54355">
        <ele>1661.78</ele>
        <time>2021-03-28T13:13:50Z</time>
      </trkpt>
      <trkpt lat="45.00748" lon="5.54352">
        <ele>1661.78</ele>
        <time>2021-03-28T13:13:54Z</time>
      </trkpt>
      <trkpt lat="45.00744" lon="5.54347">
        <ele>1661.78</ele>
        <time>2021-03-28T13:14:02Z</time>
      </trkpt>
      <trkpt lat="45.00748" lon="5.54351">
        <ele>1661.78</ele>
        <time>2021-03-28T13:14:06Z</time>
      </trkpt>
      <trkpt lat="45.00751" lon="5.54351">
        <ele>1661.3</ele>
        <time>2021-03-28T13:14:07Z</time>
      </trkpt>
      <trkpt lat="45.00754" lon="5.54351">
        <ele>1660.81</ele>
        <time>2021-03-28T13:14:08Z</time>
      </trkpt>
      <trkpt lat="45.00759" lon="5.54349">
        <ele>1660.33</ele>
        <time>2021-03-28T13:14:09Z</time>
      </trkpt>
      <trkpt lat="45.00765" lon="5.54344">
        <ele>1659.37</ele>
        <time>2021-03-28T13:14:10Z</time>
      </trkpt>
      <trkpt lat="45.00773" lon="5.54339">
        <ele>1656.97</ele>
        <time>2021-03-28T13:14:11Z</time>
      </trkpt>
      <trkpt lat="45.00781" lon="5.54336">
        <ele>1655.53</ele>
        <time>2021-03-28T13:14:12Z</time>
      </trkpt>
      <trkpt lat="45.00789" lon="5.5433">
        <ele>1654.09</ele>
        <time>2021-03-28T13:14:13Z</time>
      </trkpt>
      <trkpt lat="45.00799" lon="5.54325">
        <ele>1651.2</ele>
        <time>2021-03-28T13:14:14Z</time>
      </trkpt>
      <trkpt lat="45.00812" lon="5.54322">
        <ele>1647.84</ele>
        <time>2021-03-28T13:14:15Z</time>
      </trkpt>
      <trkpt lat="45.00824" lon="5.54318">
        <ele>1646.4</ele>
        <time>2021-03-28T13:14:16Z</time>
      </trkpt>
      <trkpt lat="45.00835" lon="5.54308">
        <ele>1643.03</ele>
        <time>2021-03-28T13:14:17Z</time>
      </trkpt>
      <trkpt lat="45.00846" lon="5.54302">
        <ele>1639.19</ele>
        <time>2021-03-28T13:14:18Z</time>
      </trkpt>
      <trkpt lat="45.00858" lon="5.54298">
        <ele>1635.82</ele>
        <time>2021-03-28T13:14:19Z</time>
      </trkpt>
      <trkpt lat="45.0087" lon="5.54293">
        <ele>1633.42</ele>
        <time>2021-03-28T13:14:20Z</time>
      </trkpt>
      <trkpt lat="45.00881" lon="5.54287">
        <ele>1630.05</ele>
        <time>2021-03-28T13:14:21Z</time>
      </trkpt>
      <trkpt lat="45.00895" lon="5.54286">
        <ele>1625.73</ele>
        <time>2021-03-28T13:14:22Z</time>
      </trkpt>
      <trkpt lat="45.00907" lon="5.54283">
        <ele>1622.36</ele>
        <time>2021-03-28T13:14:23Z</time>
      </trkpt>
      <trkpt lat="45.00919" lon="5.54277">
        <ele>1621.4</ele>
        <time>2021-03-28T13:14:24Z</time>
      </trkpt>
      <trkpt lat="45.00931" lon="5.54275">
        <ele>1619</ele>
        <time>2021-03-28T13:14:25Z</time>
      </trkpt>
      <trkpt lat="45.00941" lon="5.54274">
        <ele>1614.67</ele>
        <time>2021-03-28T13:14:26Z</time>
      </trkpt>
      <trkpt lat="45.0095" lon="5.54272">
        <ele>1611.31</ele>
        <time>2021-03-28T13:14:27Z</time>
      </trkpt>
      <trkpt lat="45.0096" lon="5.5427">
        <ele>1609.38</ele>
        <time>2021-03-28T13:14:28Z</time>
      </trkpt>
      <trkpt lat="45.00971" lon="5.54271">
        <ele>1606.5</ele>
        <time>2021-03-28T13:14:29Z</time>
      </trkpt>
      <trkpt lat="45.00981" lon="5.54274">
        <ele>1604.58</ele>
        <time>2021-03-28T13:14:30Z</time>
      </trkpt>
      <trkpt lat="45.00991" lon="5.54271">
        <ele>1603.62</ele>
        <time>2021-03-28T13:14:31Z</time>
      </trkpt>
      <trkpt lat="45.01" lon="5.54269">
        <ele>1601.69</ele>
        <time>2021-03-28T13:14:32Z</time>
      </trkpt>
      <trkpt lat="45.0101" lon="5.54264">
        <ele>1598.33</ele>
        <time>2021-03-28T13:14:33Z</time>
      </trkpt>
      <trkpt lat="45.01025" lon="5.54258">
        <ele>1594.96</ele>
        <time>2021-03-28T13:14:34Z</time>
      </trkpt>
      <trkpt lat="45.01039" lon="5.54254">
        <ele>1591.6</ele>
        <time>2021-03-28T13:14:35Z</time>
      </trkpt>
      <trkpt lat="45.01051" lon="5.54248">
        <ele>1589.2</ele>
        <time>2021-03-28T13:14:36Z</time>
      </trkpt>
      <trkpt lat="45.01076" lon="5.54235">
        <ele>1584.39</ele>
        <time>2021-03-28T13:14:38Z</time>
      </trkpt>
      <trkpt lat="45.01088" lon="5.54233">
        <ele>1581.03</ele>
        <time>2021-03-28T13:14:39Z</time>
      </trkpt>
      <trkpt lat="45.01097" lon="5.54229">
        <ele>1577.18</ele>
        <time>2021-03-28T13:14:40Z</time>
      </trkpt>
      <trkpt lat="45.01103" lon="5.54224">
        <ele>1574.78</ele>
        <time>2021-03-28T13:14:41Z</time>
      </trkpt>
      <trkpt lat="45.01107" lon="5.5422">
        <ele>1573.33</ele>
        <time>2021-03-28T13:14:42Z</time>
      </trkpt>
      <trkpt lat="45.01099" lon="5.54216">
        <ele>1571.89</ele>
        <time>2021-03-28T13:14:43Z</time>
      </trkpt>
      <trkpt lat="45.01097" lon="5.54215">
        <ele>1571.41</ele>
        <time>2021-03-28T13:14:44Z</time>
      </trkpt>
      <trkpt lat="45.01095" lon="5.54213">
        <ele>1570.93</ele>
        <time>2021-03-28T13:14:45Z</time>
      </trkpt>
      <trkpt lat="45.01094" lon="5.54212">
        <ele>1570.45</ele>
        <time>2021-03-28T13:14:46Z</time>
      </trkpt>
      <trkpt lat="45.01093" lon="5.54212">
        <ele>1569.97</ele>
        <time>2021-03-28T13:14:47Z</time>
      </trkpt>
      <trkpt lat="45.01092" lon="5.54212">
        <ele>1569.97</ele>
        <time>2021-03-28T13:14:48Z</time>
      </trkpt>
      <trkpt lat="45.01078" lon="5.5421">
        <ele>1569.97</ele>
        <time>2021-03-28T13:15:36Z</time>
      </trkpt>
      <trkpt lat="45.01082" lon="5.54214">
        <ele>1568.53</ele>
        <time>2021-03-28T13:16:00Z</time>
      </trkpt>
      <trkpt lat="45.01084" lon="5.54216">
        <ele>1568.53</ele>
        <time>2021-03-28T13:16:01Z</time>
      </trkpt>
      <trkpt lat="45.01086" lon="5.54217">
        <ele>1567.57</ele>
        <time>2021-03-28T13:16:02Z</time>
      </trkpt>
      <trkpt lat="45.01091" lon="5.54217">
        <ele>1567.09</ele>
        <time>2021-03-28T13:16:03Z</time>
      </trkpt>
      <trkpt lat="45.01096" lon="5.54216">
        <ele>1565.16</ele>
        <time>2021-03-28T13:16:04Z</time>
      </trkpt>
      <trkpt lat="45.01103" lon="5.54213">
        <ele>1562.76</ele>
        <time>2021-03-28T13:16:05Z</time>
      </trkpt>
      <trkpt lat="45.01112" lon="5.54213">
        <ele>1561.8</ele>
        <time>2021-03-28T13:16:06Z</time>
      </trkpt>
      <trkpt lat="45.01121" lon="5.54213">
        <ele>1557.95</ele>
        <time>2021-03-28T13:16:07Z</time>
      </trkpt>
      <trkpt lat="45.01127" lon="5.54209">
        <ele>1555.07</ele>
        <time>2021-03-28T13:16:08Z</time>
      </trkpt>
      <trkpt lat="45.01135" lon="5.54207">
        <ele>1552.19</ele>
        <time>2021-03-28T13:16:09Z</time>
      </trkpt>
      <trkpt lat="45.01143" lon="5.54207">
        <ele>1549.78</ele>
        <time>2021-03-28T13:16:10Z</time>
      </trkpt>
      <trkpt lat="45.0115" lon="5.54201">
        <ele>1547.38</ele>
        <time>2021-03-28T13:16:11Z</time>
      </trkpt>
      <trkpt lat="45.01156" lon="5.54196">
        <ele>1544.98</ele>
        <time>2021-03-28T13:16:12Z</time>
      </trkpt>
      <trkpt lat="45.01171" lon="5.54184">
        <ele>1541.13</ele>
        <time>2021-03-28T13:16:14Z</time>
      </trkpt>
      <trkpt lat="45.01177" lon="5.54178">
        <ele>1539.69</ele>
        <time>2021-03-28T13:16:15Z</time>
      </trkpt>
      <trkpt lat="45.01181" lon="5.54173">
        <ele>1537.77</ele>
        <time>2021-03-28T13:16:16Z</time>
      </trkpt>
      <trkpt lat="45.01185" lon="5.54171">
        <ele>1536.32</ele>
        <time>2021-03-28T13:16:17Z</time>
      </trkpt>
      <trkpt lat="45.0119" lon="5.54169">
        <ele>1534.88</ele>
        <time>2021-03-28T13:16:18Z</time>
      </trkpt>
      <trkpt lat="45.01193" lon="5.5417">
        <ele>1533.44</ele>
        <time>2021-03-28T13:16:19Z</time>
      </trkpt>
      <trkpt lat="45.01194" lon="5.54173">
        <ele>1532.48</ele>
        <time>2021-03-28T13:16:20Z</time>
      </trkpt>
      <trkpt lat="45.01194" lon="5.54175">
        <ele>1531.52</ele>
        <time>2021-03-28T13:16:21Z</time>
      </trkpt>
      <trkpt lat="45.01194" lon="5.54175">
        <ele>1531.04</ele>
        <time>2021-03-28T13:16:23Z</time>
      </trkpt>
      <trkpt lat="45.01191" lon="5.54175">
        <ele>1531.04</ele>
        <time>2021-03-28T13:16:31Z</time>
      </trkpt>
      <trkpt lat="45.0119" lon="5.54174">
        <ele>1531.04</ele>
        <time>2021-03-28T13:16:32Z</time>
      </trkpt>
      <trkpt lat="45.01192" lon="5.54174">
        <ele>1530.56</ele>
        <time>2021-03-28T13:16:51Z</time>
      </trkpt>
      <trkpt lat="45.01195" lon="5.54175">
        <ele>1530.08</ele>
        <time>2021-03-28T13:16:52Z</time>
      </trkpt>
      <trkpt lat="45.01201" lon="5.54175">
        <ele>1529.11</ele>
        <time>2021-03-28T13:16:53Z</time>
      </trkpt>
      <trkpt lat="45.01209" lon="5.54175">
        <ele>1526.71</ele>
        <time>2021-03-28T13:16:54Z</time>
      </trkpt>
      <trkpt lat="45.01219" lon="5.54172">
        <ele>1523.35</ele>
        <time>2021-03-28T13:16:55Z</time>
      </trkpt>
      <trkpt lat="45.01229" lon="5.54166">
        <ele>1519.02</ele>
        <time>2021-03-28T13:16:56Z</time>
      </trkpt>
      <trkpt lat="45.01241" lon="5.54158">
        <ele>1514.21</ele>
        <time>2021-03-28T13:16:57Z</time>
      </trkpt>
      <trkpt lat="45.01253" lon="5.54148">
        <ele>1509.41</ele>
        <time>2021-03-28T13:16:58Z</time>
      </trkpt>
      <trkpt lat="45.01267" lon="5.54135">
        <ele>1505.08</ele>
        <time>2021-03-28T13:16:59Z</time>
      </trkpt>
      <trkpt lat="45.01279" lon="5.54119">
        <ele>1501.72</ele>
        <time>2021-03-28T13:17:00Z</time>
      </trkpt>
      <trkpt lat="45.01291" lon="5.54103">
        <ele>1496.43</ele>
        <time>2021-03-28T13:17:01Z</time>
      </trkpt>
      <trkpt lat="45.01313" lon="5.54071">
        <ele>1492.1</ele>
        <time>2021-03-28T13:17:03Z</time>
      </trkpt>
      <trkpt lat="45.01328" lon="5.54037">
        <ele>1489.22</ele>
        <time>2021-03-28T13:17:05Z</time>
      </trkpt>
      <trkpt lat="45.01341" lon="5.54006">
        <ele>1486.82</ele>
        <time>2021-03-28T13:17:07Z</time>
      </trkpt>
      <trkpt lat="45.01354" lon="5.53975">
        <ele>1483.45</ele>
        <time>2021-03-28T13:17:09Z</time>
      </trkpt>
      <trkpt lat="45.0137" lon="5.53937">
        <ele>1480.57</ele>
        <time>2021-03-28T13:17:12Z</time>
      </trkpt>
      <trkpt lat="45.01389" lon="5.53907">
        <ele>1480.57</ele>
        <time>2021-03-28T13:17:15Z</time>
      </trkpt>
      <trkpt lat="45.014" lon="5.53892">
        <ele>1475.76</ele>
        <time>2021-03-28T13:17:17Z</time>
      </trkpt>
      <trkpt lat="45.014" lon="5.53889">
        <ele>1474.32</ele>
        <time>2021-03-28T13:17:18Z</time>
      </trkpt>
      <trkpt lat="45.01401" lon="5.53889">
        <ele>1473.84</ele>
        <time>2021-03-28T13:17:19Z</time>
      </trkpt>
      <trkpt lat="45.01401" lon="5.5389">
        <ele>1473.84</ele>
        <time>2021-03-28T13:17:20Z</time>
      </trkpt>
      <trkpt lat="45.01392" lon="5.53887">
        <ele>1473.36</ele>
        <time>2021-03-28T13:17:29Z</time>
      </trkpt>
      <trkpt lat="45.01384" lon="5.53888">
        <ele>1473.36</ele>
        <time>2021-03-28T13:17:43Z</time>
      </trkpt>
      <trkpt lat="45.01383" lon="5.53887">
        <ele>1472.88</ele>
        <time>2021-03-28T13:18:25Z</time>
      </trkpt>
      <trkpt lat="45.01382" lon="5.53887">
        <ele>1472.88</ele>
        <time>2021-03-28T13:18:26Z</time>
      </trkpt>
      <trkpt lat="45.01381" lon="5.53885">
        <ele>1472.88</ele>
        <time>2021-03-28T13:18:27Z</time>
      </trkpt>
      <trkpt lat="45.0138" lon="5.53884">
        <ele>1472.88</ele>
        <time>2021-03-28T13:18:28Z</time>
      </trkpt>
      <trkpt lat="45.01379" lon="5.53883">
        <ele>1472.88</ele>
        <time>2021-03-28T13:18:29Z</time>
      </trkpt>
      <trkpt lat="45.01379" lon="5.53879">
        <ele>1472.88</ele>
        <time>2021-03-28T13:18:44Z</time>
      </trkpt>
      <trkpt lat="45.0138" lon="5.5388">
        <ele>1472.4</ele>
        <time>2021-03-28T13:18:45Z</time>
      </trkpt>
      <trkpt lat="45.01383" lon="5.53879">
        <ele>1472.4</ele>
        <time>2021-03-28T13:18:46Z</time>
      </trkpt>
      <trkpt lat="45.01387" lon="5.53876">
        <ele>1471.92</ele>
        <time>2021-03-28T13:18:47Z</time>
      </trkpt>
      <trkpt lat="45.0139" lon="5.53871">
        <ele>1470.95</ele>
        <time>2021-03-28T13:18:48Z</time>
      </trkpt>
      <trkpt lat="45.01394" lon="5.53867">
        <ele>1469.03</ele>
        <time>2021-03-28T13:18:49Z</time>
      </trkpt>
      <trkpt lat="45.01398" lon="5.53865">
        <ele>1466.63</ele>
        <time>2021-03-28T13:18:50Z</time>
      </trkpt>
      <trkpt lat="45.01404" lon="5.53861">
        <ele>1464.23</ele>
        <time>2021-03-28T13:18:51Z</time>
      </trkpt>
      <trkpt lat="45.0141" lon="5.53856">
        <ele>1461.82</ele>
        <time>2021-03-28T13:18:52Z</time>
      </trkpt>
      <trkpt lat="45.01416" lon="5.53849">
        <ele>1459.9</ele>
        <time>2021-03-28T13:18:53Z</time>
      </trkpt>
      <trkpt lat="45.01425" lon="5.53843">
        <ele>1457.02</ele>
        <time>2021-03-28T13:18:54Z</time>
      </trkpt>
      <trkpt lat="45.01432" lon="5.53838">
        <ele>1453.17</ele>
        <time>2021-03-28T13:18:55Z</time>
      </trkpt>
      <trkpt lat="45.0144" lon="5.53831">
        <ele>1450.77</ele>
        <time>2021-03-28T13:18:56Z</time>
      </trkpt>
      <trkpt lat="45.0145" lon="5.53825">
        <ele>1446.92</ele>
        <time>2021-03-28T13:18:57Z</time>
      </trkpt>
      <trkpt lat="45.01458" lon="5.5382">
        <ele>1443.56</ele>
        <time>2021-03-28T13:18:58Z</time>
      </trkpt>
      <trkpt lat="45.01466" lon="5.53814">
        <ele>1440.67</ele>
        <time>2021-03-28T13:18:59Z</time>
      </trkpt>
      <trkpt lat="45.01472" lon="5.53805">
        <ele>1438.27</ele>
        <time>2021-03-28T13:19:00Z</time>
      </trkpt>
      <trkpt lat="45.01478" lon="5.53798">
        <ele>1434.42</ele>
        <time>2021-03-28T13:19:01Z</time>
      </trkpt>
      <trkpt lat="45.01483" lon="5.53792">
        <ele>1432.5</ele>
        <time>2021-03-28T13:19:02Z</time>
      </trkpt>
      <trkpt lat="45.01488" lon="5.53786">
        <ele>1429.62</ele>
        <time>2021-03-28T13:19:03Z</time>
      </trkpt>
      <trkpt lat="45.01494" lon="5.53779">
        <ele>1426.25</ele>
        <time>2021-03-28T13:19:04Z</time>
      </trkpt>
      <trkpt lat="45.01507" lon="5.53766">
        <ele>1420.49</ele>
        <time>2021-03-28T13:19:06Z</time>
      </trkpt>
      <trkpt lat="45.01521" lon="5.53754">
        <ele>1417.6</ele>
        <time>2021-03-28T13:19:08Z</time>
      </trkpt>
      <trkpt lat="45.01528" lon="5.53749">
        <ele>1415.68</ele>
        <time>2021-03-28T13:19:09Z</time>
      </trkpt>
      <trkpt lat="45.0153" lon="5.53748">
        <ele>1415.2</ele>
        <time>2021-03-28T13:19:10Z</time>
      </trkpt>
      <trkpt lat="45.01536" lon="5.53746">
        <ele>1414.24</ele>
        <time>2021-03-28T13:19:12Z</time>
      </trkpt>
      <trkpt lat="45.01538" lon="5.53746">
        <ele>1412.79</ele>
        <time>2021-03-28T13:19:13Z</time>
      </trkpt>
      <trkpt lat="45.01539" lon="5.53748">
        <ele>1412.31</ele>
        <time>2021-03-28T13:19:14Z</time>
      </trkpt>
      <trkpt lat="45.01541" lon="5.53749">
        <ele>1411.83</ele>
        <time>2021-03-28T13:19:15Z</time>
      </trkpt>
      <trkpt lat="45.01544" lon="5.53749">
        <ele>1411.83</ele>
        <time>2021-03-28T13:19:16Z</time>
      </trkpt>
      <trkpt lat="45.01546" lon="5.53747">
        <ele>1411.35</ele>
        <time>2021-03-28T13:19:17Z</time>
      </trkpt>
      <trkpt lat="45.0156" lon="5.53745">
        <ele>1408.47</ele>
        <time>2021-03-28T13:19:21Z</time>
      </trkpt>
      <trkpt lat="45.0156" lon="5.53746">
        <ele>1407.51</ele>
        <time>2021-03-28T13:19:22Z</time>
      </trkpt>
      <trkpt lat="45.01561" lon="5.53748">
        <ele>1407.03</ele>
        <time>2021-03-28T13:19:23Z</time>
      </trkpt>
      <trkpt lat="45.01561" lon="5.53749">
        <ele>1407.03</ele>
        <time>2021-03-28T13:19:24Z</time>
      </trkpt>
      <trkpt lat="45.01563" lon="5.53751">
        <ele>1406.55</ele>
        <time>2021-03-28T13:19:26Z</time>
      </trkpt>
      <trkpt lat="45.01565" lon="5.5375">
        <ele>1406.07</ele>
        <time>2021-03-28T13:19:27Z</time>
      </trkpt>
      <trkpt lat="45.01573" lon="5.53738">
        <ele>1403.18</ele>
        <time>2021-03-28T13:19:31Z</time>
      </trkpt>
      <trkpt lat="45.01575" lon="5.53737">
        <ele>1401.26</ele>
        <time>2021-03-28T13:19:32Z</time>
      </trkpt>
      <trkpt lat="45.01578" lon="5.53734">
        <ele>1399.82</ele>
        <time>2021-03-28T13:19:33Z</time>
      </trkpt>
      <trkpt lat="45.0158" lon="5.53733">
        <ele>1398.37</ele>
        <time>2021-03-28T13:19:34Z</time>
      </trkpt>
      <trkpt lat="45.01582" lon="5.53734">
        <ele>1397.41</ele>
        <time>2021-03-28T13:19:35Z</time>
      </trkpt>
      <trkpt lat="45.01586" lon="5.53733">
        <ele>1395.97</ele>
        <time>2021-03-28T13:19:36Z</time>
      </trkpt>
      <trkpt lat="45.01588" lon="5.53732">
        <ele>1394.53</ele>
        <time>2021-03-28T13:19:37Z</time>
      </trkpt>
      <trkpt lat="45.01591" lon="5.53731">
        <ele>1392.61</ele>
        <time>2021-03-28T13:19:38Z</time>
      </trkpt>
      <trkpt lat="45.01597" lon="5.53729">
        <ele>1390.68</ele>
        <time>2021-03-28T13:19:39Z</time>
      </trkpt>
      <trkpt lat="45.01601" lon="5.53728">
        <ele>1388.76</ele>
        <time>2021-03-28T13:19:40Z</time>
      </trkpt>
      <trkpt lat="45.01606" lon="5.53726">
        <ele>1386.84</ele>
        <time>2021-03-28T13:19:41Z</time>
      </trkpt>
      <trkpt lat="45.0161" lon="5.53723">
        <ele>1384.44</ele>
        <time>2021-03-28T13:19:42Z</time>
      </trkpt>
      <trkpt lat="45.01615" lon="5.5372">
        <ele>1381.07</ele>
        <time>2021-03-28T13:19:43Z</time>
      </trkpt>
      <trkpt lat="45.01625" lon="5.5371">
        <ele>1377.23</ele>
        <time>2021-03-28T13:19:45Z</time>
      </trkpt>
      <trkpt lat="45.01631" lon="5.53705">
        <ele>1374.34</ele>
        <time>2021-03-28T13:19:46Z</time>
      </trkpt>
      <trkpt lat="45.01638" lon="5.53698">
        <ele>1371.94</ele>
        <time>2021-03-28T13:19:47Z</time>
      </trkpt>
      <trkpt lat="45.01651" lon="5.53684">
        <ele>1367.61</ele>
        <time>2021-03-28T13:19:49Z</time>
      </trkpt>
      <trkpt lat="45.01663" lon="5.5367">
        <ele>1363.29</ele>
        <time>2021-03-28T13:19:51Z</time>
      </trkpt>
      <trkpt lat="45.01672" lon="5.53658">
        <ele>1359.92</ele>
        <time>2021-03-28T13:19:53Z</time>
      </trkpt>
      <trkpt lat="45.0168" lon="5.53644">
        <ele>1358</ele>
        <time>2021-03-28T13:19:57Z</time>
      </trkpt>
      <trkpt lat="45.0169" lon="5.53631">
        <ele>1357.04</ele>
        <time>2021-03-28T13:20:03Z</time>
      </trkpt>
      <trkpt lat="45.01691" lon="5.5363">
        <ele>1356.56</ele>
        <time>2021-03-28T13:20:04Z</time>
      </trkpt>
      <trkpt lat="45.01693" lon="5.53629">
        <ele>1356.56</ele>
        <time>2021-03-28T13:20:05Z</time>
      </trkpt>
      <trkpt lat="45.01695" lon="5.53628">
        <ele>1356.56</ele>
        <time>2021-03-28T13:20:06Z</time>
      </trkpt>
      <trkpt lat="45.01696" lon="5.53628">
        <ele>1356.08</ele>
        <time>2021-03-28T13:20:07Z</time>
      </trkpt>
      <trkpt lat="45.01698" lon="5.53626">
        <ele>1355.6</ele>
        <time>2021-03-28T13:20:08Z</time>
      </trkpt>
      <trkpt lat="45.01701" lon="5.53625">
        <ele>1355.6</ele>
        <time>2021-03-28T13:20:09Z</time>
      </trkpt>
      <trkpt lat="45.01703" lon="5.53624">
        <ele>1355.12</ele>
        <time>2021-03-28T13:20:10Z</time>
      </trkpt>
      <trkpt lat="45.01705" lon="5.53622">
        <ele>1355.12</ele>
        <time>2021-03-28T13:20:11Z</time>
      </trkpt>
      <trkpt lat="45.01706" lon="5.53621">
        <ele>1355.12</ele>
        <time>2021-03-28T13:20:12Z</time>
      </trkpt>
      <trkpt lat="45.01708" lon="5.5362">
        <ele>1355.12</ele>
        <time>2021-03-28T13:20:13Z</time>
      </trkpt>
      <trkpt lat="45.01709" lon="5.53618">
        <ele>1355.12</ele>
        <time>2021-03-28T13:20:14Z</time>
      </trkpt>
      <trkpt lat="45.0171" lon="5.53616">
        <ele>1354.63</ele>
        <time>2021-03-28T13:20:15Z</time>
      </trkpt>
      <trkpt lat="45.01712" lon="5.53613">
        <ele>1354.63</ele>
        <time>2021-03-28T13:20:16Z</time>
      </trkpt>
      <trkpt lat="45.01714" lon="5.53611">
        <ele>1354.63</ele>
        <time>2021-03-28T13:20:17Z</time>
      </trkpt>
      <trkpt lat="45.01717" lon="5.53606">
        <ele>1353.19</ele>
        <time>2021-03-28T13:20:20Z</time>
      </trkpt>
      <trkpt lat="45.01719" lon="5.53605">
        <ele>1353.19</ele>
        <time>2021-03-28T13:20:21Z</time>
      </trkpt>
      <trkpt lat="45.0172" lon="5.53603">
        <ele>1352.71</ele>
        <time>2021-03-28T13:20:22Z</time>
      </trkpt>
      <trkpt lat="45.01722" lon="5.536">
        <ele>1352.71</ele>
        <time>2021-03-28T13:20:23Z</time>
      </trkpt>
      <trkpt lat="45.01722" lon="5.53598">
        <ele>1352.71</ele>
        <time>2021-03-28T13:20:24Z</time>
      </trkpt>
      <trkpt lat="45.01723" lon="5.53594">
        <ele>1352.23</ele>
        <time>2021-03-28T13:20:29Z</time>
      </trkpt>
      <trkpt lat="45.01728" lon="5.53592">
        <ele>1351.27</ele>
        <time>2021-03-28T13:20:32Z</time>
      </trkpt>
      <trkpt lat="45.01731" lon="5.53592">
        <ele>1350.79</ele>
        <time>2021-03-28T13:20:33Z</time>
      </trkpt>
      <trkpt lat="45.01732" lon="5.53594">
        <ele>1350.79</ele>
        <time>2021-03-28T13:20:36Z</time>
      </trkpt>
      <trkpt lat="45.01738" lon="5.5359">
        <ele>1348.87</ele>
        <time>2021-03-28T13:21:08Z</time>
      </trkpt>
      <trkpt lat="45.01738" lon="5.53584">
        <ele>1348.39</ele>
        <time>2021-03-28T13:21:17Z</time>
      </trkpt>
      <trkpt lat="45.01738" lon="5.53581">
        <ele>1348.39</ele>
        <time>2021-03-28T13:21:18Z</time>
      </trkpt>
      <trkpt lat="45.01739" lon="5.53578">
        <ele>1348.39</ele>
        <time>2021-03-28T13:21:19Z</time>
      </trkpt>
      <trkpt lat="45.0174" lon="5.53576">
        <ele>1347.43</ele>
        <time>2021-03-28T13:21:20Z</time>
      </trkpt>
      <trkpt lat="45.01745" lon="5.53569">
        <ele>1345.02</ele>
        <time>2021-03-28T13:21:25Z</time>
      </trkpt>
      <trkpt lat="45.01747" lon="5.53567">
        <ele>1344.54</ele>
        <time>2021-03-28T13:21:26Z</time>
      </trkpt>
      <trkpt lat="45.01749" lon="5.53565">
        <ele>1344.06</ele>
        <time>2021-03-28T13:21:27Z</time>
      </trkpt>
      <trkpt lat="45.0175" lon="5.53564">
        <ele>1343.1</ele>
        <time>2021-03-28T13:21:28Z</time>
      </trkpt>
      <trkpt lat="45.01751" lon="5.53561">
        <ele>1342.62</ele>
        <time>2021-03-28T13:21:29Z</time>
      </trkpt>
      <trkpt lat="45.01751" lon="5.53559">
        <ele>1341.66</ele>
        <time>2021-03-28T13:21:30Z</time>
      </trkpt>
      <trkpt lat="45.01751" lon="5.53557">
        <ele>1341.18</ele>
        <time>2021-03-28T13:21:31Z</time>
      </trkpt>
      <trkpt lat="45.01753" lon="5.53555">
        <ele>1340.22</ele>
        <time>2021-03-28T13:21:32Z</time>
      </trkpt>
      <trkpt lat="45.01753" lon="5.53551">
        <ele>1339.73</ele>
        <time>2021-03-28T13:21:33Z</time>
      </trkpt>
      <trkpt lat="45.01754" lon="5.53548">
        <ele>1338.77</ele>
        <time>2021-03-28T13:21:34Z</time>
      </trkpt>
      <trkpt lat="45.01754" lon="5.53547">
        <ele>1338.77</ele>
        <time>2021-03-28T13:21:35Z</time>
      </trkpt>
      <trkpt lat="45.01754" lon="5.53547">
        <ele>1337.81</ele>
        <time>2021-03-28T13:21:37Z</time>
      </trkpt>
      <trkpt lat="45.01756" lon="5.53547">
        <ele>1336.85</ele>
        <time>2021-03-28T13:21:41Z</time>
      </trkpt>
      <trkpt lat="45.01759" lon="5.53544">
        <ele>1336.37</ele>
        <time>2021-03-28T13:21:44Z</time>
      </trkpt>
      <trkpt lat="45.01768" lon="5.53538">
        <ele>1333.97</ele>
        <time>2021-03-28T13:21:52Z</time>
      </trkpt>
      <trkpt lat="45.01772" lon="5.53531">
        <ele>1331.56</ele>
        <time>2021-03-28T13:21:57Z</time>
      </trkpt>
      <trkpt lat="45.01773" lon="5.5353">
        <ele>1331.56</ele>
        <time>2021-03-28T13:21:58Z</time>
      </trkpt>
      <trkpt lat="45.01776" lon="5.53525">
        <ele>1329.16</ele>
        <time>2021-03-28T13:22:05Z</time>
      </trkpt>
      <trkpt lat="45.0178" lon="5.53516">
        <ele>1327.24</ele>
        <time>2021-03-28T13:22:10Z</time>
      </trkpt>
      <trkpt lat="45.01782" lon="5.53515">
        <ele>1326.76</ele>
        <time>2021-03-28T13:22:11Z</time>
      </trkpt>
      <trkpt lat="45.01783" lon="5.53515">
        <ele>1326.28</ele>
        <time>2021-03-28T13:22:12Z</time>
      </trkpt>
      <trkpt lat="45.01783" lon="5.53514">
        <ele>1325.8</ele>
        <time>2021-03-28T13:22:13Z</time>
      </trkpt>
      <trkpt lat="45.01783" lon="5.53512">
        <ele>1325.31</ele>
        <time>2021-03-28T13:22:14Z</time>
      </trkpt>
      <trkpt lat="45.01783" lon="5.53511">
        <ele>1324.83</ele>
        <time>2021-03-28T13:22:15Z</time>
      </trkpt>
      <trkpt lat="45.01783" lon="5.53511">
        <ele>1324.35</ele>
        <time>2021-03-28T13:22:16Z</time>
      </trkpt>
      <trkpt lat="45.01784" lon="5.5351">
        <ele>1323.87</ele>
        <time>2021-03-28T13:22:17Z</time>
      </trkpt>
      <trkpt lat="45.01784" lon="5.53509">
        <ele>1323.87</ele>
        <time>2021-03-28T13:22:18Z</time>
      </trkpt>
      <trkpt lat="45.01783" lon="5.53507">
        <ele>1322.91</ele>
        <time>2021-03-28T13:22:20Z</time>
      </trkpt>
      <trkpt lat="45.01781" lon="5.53506">
        <ele>1322.91</ele>
        <time>2021-03-28T13:22:21Z</time>
      </trkpt>
      <trkpt lat="45.01781" lon="5.53505">
        <ele>1322.91</ele>
        <time>2021-03-28T13:22:22Z</time>
      </trkpt>
      <trkpt lat="45.01782" lon="5.53502">
        <ele>1322.43</ele>
        <time>2021-03-28T13:22:23Z</time>
      </trkpt>
      <trkpt lat="45.01782" lon="5.53501">
        <ele>1321.95</ele>
        <time>2021-03-28T13:22:24Z</time>
      </trkpt>
      <trkpt lat="45.01785" lon="5.5348">
        <ele>1318.59</ele>
        <time>2021-03-28T13:22:32Z</time>
      </trkpt>
      <trkpt lat="45.01786" lon="5.53479">
        <ele>1317.62</ele>
        <time>2021-03-28T13:22:33Z</time>
      </trkpt>
      <trkpt lat="45.01787" lon="5.53478">
        <ele>1317.14</ele>
        <time>2021-03-28T13:22:34Z</time>
      </trkpt>
      <trkpt lat="45.01787" lon="5.53476">
        <ele>1316.18</ele>
        <time>2021-03-28T13:22:35Z</time>
      </trkpt>
      <trkpt lat="45.01789" lon="5.53473">
        <ele>1315.7</ele>
        <time>2021-03-28T13:22:36Z</time>
      </trkpt>
      <trkpt lat="45.0179" lon="5.53472">
        <ele>1315.22</ele>
        <time>2021-03-28T13:22:37Z</time>
      </trkpt>
      <trkpt lat="45.0179" lon="5.53471">
        <ele>1314.74</ele>
        <time>2021-03-28T13:22:38Z</time>
      </trkpt>
      <trkpt lat="45.01791" lon="5.5347">
        <ele>1314.26</ele>
        <time>2021-03-28T13:22:39Z</time>
      </trkpt>
      <trkpt lat="45.01791" lon="5.53468">
        <ele>1313.78</ele>
        <time>2021-03-28T13:22:40Z</time>
      </trkpt>
      <trkpt lat="45.0179" lon="5.53467">
        <ele>1313.78</ele>
        <time>2021-03-28T13:22:41Z</time>
      </trkpt>
      <trkpt lat="45.01791" lon="5.53461">
        <ele>1312.34</ele>
        <time>2021-03-28T13:22:46Z</time>
      </trkpt>
      <trkpt lat="45.0179" lon="5.5346">
        <ele>1311.86</ele>
        <time>2021-03-28T13:22:47Z</time>
      </trkpt>
      <trkpt lat="45.0179" lon="5.53458">
        <ele>1311.38</ele>
        <time>2021-03-28T13:22:48Z</time>
      </trkpt>
      <trkpt lat="45.01791" lon="5.53457">
        <ele>1311.38</ele>
        <time>2021-03-28T13:22:49Z</time>
      </trkpt>
      <trkpt lat="45.01792" lon="5.53456">
        <ele>1310.41</ele>
        <time>2021-03-28T13:22:50Z</time>
      </trkpt>
      <trkpt lat="45.01792" lon="5.53455">
        <ele>1310.41</ele>
        <time>2021-03-28T13:22:51Z</time>
      </trkpt>
      <trkpt lat="45.01792" lon="5.53454">
        <ele>1309.93</ele>
        <time>2021-03-28T13:22:52Z</time>
      </trkpt>
      <trkpt lat="45.01793" lon="5.53453">
        <ele>1309.45</ele>
        <time>2021-03-28T13:22:53Z</time>
      </trkpt>
      <trkpt lat="45.01794" lon="5.53451">
        <ele>1308.97</ele>
        <time>2021-03-28T13:22:55Z</time>
      </trkpt>
      <trkpt lat="45.01792" lon="5.5345">
        <ele>1308.01</ele>
        <time>2021-03-28T13:22:56Z</time>
      </trkpt>
      <trkpt lat="45.01791" lon="5.53447">
        <ele>1307.53</ele>
        <time>2021-03-28T13:22:58Z</time>
      </trkpt>
      <trkpt lat="45.01789" lon="5.53442">
        <ele>1305.61</ele>
        <time>2021-03-28T13:23:22Z</time>
      </trkpt>
      <trkpt lat="45.01789" lon="5.53441">
        <ele>1305.61</ele>
        <time>2021-03-28T13:23:25Z</time>
      </trkpt>
      <trkpt lat="45.01792" lon="5.53441">
        <ele>1305.13</ele>
        <time>2021-03-28T13:23:28Z</time>
      </trkpt>
      <trkpt lat="45.01792" lon="5.53441">
        <ele>1305.13</ele>
        <time>2021-03-28T13:23:29Z</time>
      </trkpt>
      <trkpt lat="45.01793" lon="5.53442">
        <ele>1305.13</ele>
        <time>2021-03-28T13:23:30Z</time>
      </trkpt>
      <trkpt lat="45.01795" lon="5.53443">
        <ele>1304.17</ele>
        <time>2021-03-28T13:23:55Z</time>
      </trkpt>
      <trkpt lat="45.01796" lon="5.53443">
        <ele>1304.17</ele>
        <time>2021-03-28T13:24:21Z</time>
      </trkpt>
      <trkpt lat="45.01798" lon="5.53443">
        <ele>1304.65</ele>
        <time>2021-03-28T13:24:35Z</time>
      </trkpt>
      <trkpt lat="45.01796" lon="5.53443">
        <ele>1304.17</ele>
        <time>2021-03-28T13:24:42Z</time>
      </trkpt>
      <trkpt lat="45.01798" lon="5.53443">
        <ele>1304.65</ele>
        <time>2021-03-28T13:25:24Z</time>
      </trkpt>
      <trkpt lat="45.01802" lon="5.53443">
        <ele>1304.17</ele>
        <time>2021-03-28T13:26:21Z</time>
      </trkpt>
      <trkpt lat="45.01793" lon="5.53443">
        <ele>1304.17</ele>
        <time>2021-03-28T13:26:47Z</time>
      </trkpt>
      <trkpt lat="45.01792" lon="5.53442">
        <ele>1304.17</ele>
        <time>2021-03-28T13:26:51Z</time>
      </trkpt>
      <trkpt lat="45.01794" lon="5.53442">
        <ele>1304.17</ele>
        <time>2021-03-28T13:26:56Z</time>
      </trkpt>
      <trkpt lat="45.01797" lon="5.53442">
        <ele>1304.17</ele>
        <time>2021-03-28T13:27:01Z</time>
      </trkpt>
      <trkpt lat="45.01794" lon="5.53433">
        <ele>1302.24</ele>
        <time>2021-03-28T13:27:52Z</time>
      </trkpt>
      <trkpt lat="45.01791" lon="5.5342">
        <ele>1299.84</ele>
        <time>2021-03-28T13:28:02Z</time>
      </trkpt>
      <trkpt lat="45.01788" lon="5.53412">
        <ele>1297.92</ele>
        <time>2021-03-28T13:28:08Z</time>
      </trkpt>
      <trkpt lat="45.01787" lon="5.5341">
        <ele>1297.44</ele>
        <time>2021-03-28T13:28:09Z</time>
      </trkpt>
      <trkpt lat="45.01787" lon="5.53409">
        <ele>1297.44</ele>
        <time>2021-03-28T13:28:10Z</time>
      </trkpt>
      <trkpt lat="45.01787" lon="5.53408">
        <ele>1296.96</ele>
        <time>2021-03-28T13:28:11Z</time>
      </trkpt>
      <trkpt lat="45.01787" lon="5.53407">
        <ele>1296.96</ele>
        <time>2021-03-28T13:28:12Z</time>
      </trkpt>
      <trkpt lat="45.01784" lon="5.53396">
        <ele>1294.55</ele>
        <time>2021-03-28T13:28:21Z</time>
      </trkpt>
      <trkpt lat="45.01784" lon="5.53395">
        <ele>1294.07</ele>
        <time>2021-03-28T13:28:22Z</time>
      </trkpt>
      <trkpt lat="45.01784" lon="5.53394">
        <ele>1293.59</ele>
        <time>2021-03-28T13:28:23Z</time>
      </trkpt>
      <trkpt lat="45.01784" lon="5.53393">
        <ele>1293.59</ele>
        <time>2021-03-28T13:28:24Z</time>
      </trkpt>
      <trkpt lat="45.01783" lon="5.53391">
        <ele>1293.59</ele>
        <time>2021-03-28T13:28:25Z</time>
      </trkpt>
      <trkpt lat="45.01783" lon="5.5339">
        <ele>1293.59</ele>
        <time>2021-03-28T13:28:26Z</time>
      </trkpt>
      <trkpt lat="45.01783" lon="5.53388">
        <ele>1293.11</ele>
        <time>2021-03-28T13:28:27Z</time>
      </trkpt>
      <trkpt lat="45.01783" lon="5.53387">
        <ele>1293.11</ele>
        <time>2021-03-28T13:28:28Z</time>
      </trkpt>
      <trkpt lat="45.0178" lon="5.5337">
        <ele>1289.75</ele>
        <time>2021-03-28T13:28:40Z</time>
      </trkpt>
      <trkpt lat="45.0178" lon="5.53365">
        <ele>1288.78</ele>
        <time>2021-03-28T13:28:43Z</time>
      </trkpt>
      <trkpt lat="45.0178" lon="5.53363">
        <ele>1288.3</ele>
        <time>2021-03-28T13:28:44Z</time>
      </trkpt>
      <trkpt lat="45.01779" lon="5.53362">
        <ele>1288.3</ele>
        <time>2021-03-28T13:28:45Z</time>
      </trkpt>
      <trkpt lat="45.01778" lon="5.53361">
        <ele>1287.82</ele>
        <time>2021-03-28T13:28:46Z</time>
      </trkpt>
      <trkpt lat="45.01778" lon="5.5336">
        <ele>1287.82</ele>
        <time>2021-03-28T13:28:47Z</time>
      </trkpt>
      <trkpt lat="45.01777" lon="5.53359">
        <ele>1287.82</ele>
        <time>2021-03-28T13:28:48Z</time>
      </trkpt>
      <trkpt lat="45.01777" lon="5.53358">
        <ele>1287.82</ele>
        <time>2021-03-28T13:28:49Z</time>
      </trkpt>
      <trkpt lat="45.01776" lon="5.53356">
        <ele>1287.82</ele>
        <time>2021-03-28T13:28:50Z</time>
      </trkpt>
      <trkpt lat="45.01775" lon="5.53355">
        <ele>1287.34</ele>
        <time>2021-03-28T13:28:51Z</time>
      </trkpt>
      <trkpt lat="45.01775" lon="5.53354">
        <ele>1286.86</ele>
        <time>2021-03-28T13:28:52Z</time>
      </trkpt>
      <trkpt lat="45.01774" lon="5.53353">
        <ele>1286.86</ele>
        <time>2021-03-28T13:28:53Z</time>
      </trkpt>
      <trkpt lat="45.01774" lon="5.53352">
        <ele>1286.38</ele>
        <time>2021-03-28T13:28:54Z</time>
      </trkpt>
      <trkpt lat="45.01773" lon="5.5335">
        <ele>1285.9</ele>
        <time>2021-03-28T13:28:56Z</time>
      </trkpt>
      <trkpt lat="45.01774" lon="5.53339">
        <ele>1283.5</ele>
        <time>2021-03-28T13:29:04Z</time>
      </trkpt>
      <trkpt lat="45.01774" lon="5.53338">
        <ele>1283.02</ele>
        <time>2021-03-28T13:29:05Z</time>
      </trkpt>
      <trkpt lat="45.01773" lon="5.53322">
        <ele>1280.13</ele>
        <time>2021-03-28T13:29:16Z</time>
      </trkpt>
      <trkpt lat="45.01771" lon="5.5331">
        <ele>1276.77</ele>
        <time>2021-03-28T13:29:23Z</time>
      </trkpt>
      <trkpt lat="45.01771" lon="5.53295">
        <ele>1273.4</ele>
        <time>2021-03-28T13:29:32Z</time>
      </trkpt>
      <trkpt lat="45.01771" lon="5.53289">
        <ele>1271.96</ele>
        <time>2021-03-28T13:29:35Z</time>
      </trkpt>
      <trkpt lat="45.01773" lon="5.53274">
        <ele>1268.6</ele>
        <time>2021-03-28T13:29:47Z</time>
      </trkpt>
      <trkpt lat="45.01774" lon="5.53254">
        <ele>1265.71</ele>
        <time>2021-03-28T13:30:00Z</time>
      </trkpt>
      <trkpt lat="45.01772" lon="5.53237">
        <ele>1262.35</ele>
        <time>2021-03-28T13:30:12Z</time>
      </trkpt>
      <trkpt lat="45.01772" lon="5.53219">
        <ele>1258.98</ele>
        <time>2021-03-28T13:30:23Z</time>
      </trkpt>
      <trkpt lat="45.01772" lon="5.53202">
        <ele>1255.62</ele>
        <time>2021-03-28T13:30:33Z</time>
      </trkpt>
      <trkpt lat="45.01771" lon="5.53196">
        <ele>1254.66</ele>
        <time>2021-03-28T13:30:37Z</time>
      </trkpt>
      <trkpt lat="45.01771" lon="5.53194">
        <ele>1254.18</ele>
        <time>2021-03-28T13:30:38Z</time>
      </trkpt>
      <trkpt lat="45.01771" lon="5.53192">
        <ele>1254.18</ele>
        <time>2021-03-28T13:30:39Z</time>
      </trkpt>
      <trkpt lat="45.01771" lon="5.5319">
        <ele>1253.7</ele>
        <time>2021-03-28T13:30:40Z</time>
      </trkpt>
      <trkpt lat="45.01772" lon="5.53189">
        <ele>1253.22</ele>
        <time>2021-03-28T13:30:41Z</time>
      </trkpt>
      <trkpt lat="45.01772" lon="5.53188">
        <ele>1252.74</ele>
        <time>2021-03-28T13:30:42Z</time>
      </trkpt>
      <trkpt lat="45.01772" lon="5.53186">
        <ele>1252.25</ele>
        <time>2021-03-28T13:30:43Z</time>
      </trkpt>
      <trkpt lat="45.01775" lon="5.53171">
        <ele>1249.37</ele>
        <time>2021-03-28T13:30:53Z</time>
      </trkpt>
      <trkpt lat="45.01775" lon="5.53166">
        <ele>1247.93</ele>
        <time>2021-03-28T13:30:57Z</time>
      </trkpt>
      <trkpt lat="45.01776" lon="5.53165">
        <ele>1247.45</ele>
        <time>2021-03-28T13:30:58Z</time>
      </trkpt>
      <trkpt lat="45.01781" lon="5.53153">
        <ele>1244.08</ele>
        <time>2021-03-28T13:31:07Z</time>
      </trkpt>
      <trkpt lat="45.01781" lon="5.53151">
        <ele>1244.08</ele>
        <time>2021-03-28T13:31:08Z</time>
      </trkpt>
      <trkpt lat="45.01785" lon="5.53144">
        <ele>1241.2</ele>
        <time>2021-03-28T13:31:15Z</time>
      </trkpt>
      <trkpt lat="45.01785" lon="5.53144">
        <ele>1240.72</ele>
        <time>2021-03-28T13:31:16Z</time>
      </trkpt>
      <trkpt lat="45.01785" lon="5.53143">
        <ele>1240.24</ele>
        <time>2021-03-28T13:31:17Z</time>
      </trkpt>
      <trkpt lat="45.01786" lon="5.53142">
        <ele>1239.76</ele>
        <time>2021-03-28T13:31:18Z</time>
      </trkpt>
      <trkpt lat="45.01786" lon="5.5314">
        <ele>1239.28</ele>
        <time>2021-03-28T13:31:19Z</time>
      </trkpt>
      <trkpt lat="45.01786" lon="5.53139">
        <ele>1238.8</ele>
        <time>2021-03-28T13:31:20Z</time>
      </trkpt>
      <trkpt lat="45.01791" lon="5.53131">
        <ele>1235.91</ele>
        <time>2021-03-28T13:31:28Z</time>
      </trkpt>
      <trkpt lat="45.01796" lon="5.53123">
        <ele>1232.55</ele>
        <time>2021-03-28T13:31:35Z</time>
      </trkpt>
      <trkpt lat="45.01797" lon="5.53122">
        <ele>1232.07</ele>
        <time>2021-03-28T13:31:36Z</time>
      </trkpt>
      <trkpt lat="45.01799" lon="5.53121">
        <ele>1231.59</ele>
        <time>2021-03-28T13:31:37Z</time>
      </trkpt>
      <trkpt lat="45.01803" lon="5.53114">
        <ele>1228.22</ele>
        <time>2021-03-28T13:31:43Z</time>
      </trkpt>
      <trkpt lat="45.01803" lon="5.53112">
        <ele>1228.22</ele>
        <time>2021-03-28T13:31:44Z</time>
      </trkpt>
      <trkpt lat="45.01804" lon="5.53111">
        <ele>1227.74</ele>
        <time>2021-03-28T13:31:45Z</time>
      </trkpt>
      <trkpt lat="45.01804" lon="5.53109">
        <ele>1226.78</ele>
        <time>2021-03-28T13:31:46Z</time>
      </trkpt>
      <trkpt lat="45.01805" lon="5.53108">
        <ele>1226.78</ele>
        <time>2021-03-28T13:31:47Z</time>
      </trkpt>
      <trkpt lat="45.01807" lon="5.53106">
        <ele>1225.82</ele>
        <time>2021-03-28T13:31:48Z</time>
      </trkpt>
      <trkpt lat="45.01808" lon="5.53105">
        <ele>1225.34</ele>
        <time>2021-03-28T13:31:49Z</time>
      </trkpt>
      <trkpt lat="45.01809" lon="5.53103">
        <ele>1224.86</ele>
        <time>2021-03-28T13:31:50Z</time>
      </trkpt>
      <trkpt lat="45.01809" lon="5.53101">
        <ele>1224.38</ele>
        <time>2021-03-28T13:31:51Z</time>
      </trkpt>
      <trkpt lat="45.0181" lon="5.53098">
        <ele>1223.9</ele>
        <time>2021-03-28T13:31:52Z</time>
      </trkpt>
      <trkpt lat="45.01811" lon="5.53096">
        <ele>1223.42</ele>
        <time>2021-03-28T13:31:53Z</time>
      </trkpt>
      <trkpt lat="45.01811" lon="5.53094">
        <ele>1223.42</ele>
        <time>2021-03-28T13:31:54Z</time>
      </trkpt>
      <trkpt lat="45.01811" lon="5.53092">
        <ele>1222.93</ele>
        <time>2021-03-28T13:31:55Z</time>
      </trkpt>
      <trkpt lat="45.01811" lon="5.5309">
        <ele>1222.45</ele>
        <time>2021-03-28T13:31:56Z</time>
      </trkpt>
      <trkpt lat="45.01812" lon="5.53089">
        <ele>1222.45</ele>
        <time>2021-03-28T13:31:57Z</time>
      </trkpt>
      <trkpt lat="45.01812" lon="5.53087">
        <ele>1222.45</ele>
        <time>2021-03-28T13:31:58Z</time>
      </trkpt>
      <trkpt lat="45.01812" lon="5.53086">
        <ele>1222.45</ele>
        <time>2021-03-28T13:31:59Z</time>
      </trkpt>
      <trkpt lat="45.01813" lon="5.53084">
        <ele>1222.45</ele>
        <time>2021-03-28T13:32:00Z</time>
      </trkpt>
      <trkpt lat="45.01817" lon="5.53071">
        <ele>1221.49</ele>
        <time>2021-03-28T13:32:09Z</time>
      </trkpt>
      <trkpt lat="45.01818" lon="5.53071">
        <ele>1221.01</ele>
        <time>2021-03-28T13:32:10Z</time>
      </trkpt>
      <trkpt lat="45.01819" lon="5.5307">
        <ele>1221.01</ele>
        <time>2021-03-28T13:32:11Z</time>
      </trkpt>
      <trkpt lat="45.01821" lon="5.5307">
        <ele>1220.53</ele>
        <time>2021-03-28T13:32:12Z</time>
      </trkpt>
      <trkpt lat="45.01823" lon="5.5307">
        <ele>1220.53</ele>
        <time>2021-03-28T13:32:13Z</time>
      </trkpt>
      <trkpt lat="45.01831" lon="5.53067">
        <ele>1220.05</ele>
        <time>2021-03-28T13:32:20Z</time>
      </trkpt>
    </trkseg>
  </trk>
</gpx>